<?xml version="1.0" encoding="UTF-8" standalone="no" ?>
<gpx xmlns="http://www.topografix.com/GPX/1/1" xmlns:xsi="http://www.w3.org/2001/XMLSchema-instance" xsi:schemaLocation="http://www.topografix.com/GPX/1/1 http://www.topografix.com/GPX/1/1/gpx.xsd" version="1.1" creator="VisuGPX - https://www.visugpx.com">
  <metadata>
    <name>2010-04-24 Beauchastel-Meran-Rotisson</name>
    <desc><![CDATA[Superbe ra,ndo à 10 ardbikers]]></desc>
  </metadata>
  <trk>
    <name><![CDATA[07-100424-beauc]]></name>
    <trkseg>
      <trkpt lat="44.82619" lon="4.79546">
        <ele>102</ele>
        <time>2010-04-24T07:38:10Z</time>
      </trkpt>
      <trkpt lat="44.82612" lon="4.79551">
        <ele>101</ele>
        <time>2010-04-24T07:38:17Z</time>
      </trkpt>
      <trkpt lat="44.82606" lon="4.79557">
        <ele>101</ele>
        <time>2010-04-24T07:38:24Z</time>
      </trkpt>
      <trkpt lat="44.826" lon="4.79571">
        <ele>101</ele>
        <time>2010-04-24T07:38:29Z</time>
      </trkpt>
      <trkpt lat="44.82599" lon="4.79588">
        <ele>101</ele>
        <time>2010-04-24T07:38:33Z</time>
      </trkpt>
      <trkpt lat="44.82604" lon="4.79596">
        <ele>102</ele>
        <time>2010-04-24T07:38:37Z</time>
      </trkpt>
      <trkpt lat="44.82612" lon="4.79603">
        <ele>103</ele>
        <time>2010-04-24T07:38:43Z</time>
      </trkpt>
      <trkpt lat="44.82624" lon="4.79614">
        <ele>104</ele>
        <time>2010-04-24T07:38:50Z</time>
      </trkpt>
      <trkpt lat="44.82634" lon="4.79621">
        <ele>105</ele>
        <time>2010-04-24T07:38:56Z</time>
      </trkpt>
      <trkpt lat="44.82647" lon="4.79631">
        <ele>107</ele>
        <time>2010-04-24T07:39:04Z</time>
      </trkpt>
      <trkpt lat="44.82658" lon="4.79641">
        <ele>109</ele>
        <time>2010-04-24T07:39:12Z</time>
      </trkpt>
      <trkpt lat="44.82663" lon="4.79646">
        <ele>110</ele>
        <time>2010-04-24T07:39:16Z</time>
      </trkpt>
      <trkpt lat="44.82671" lon="4.79643">
        <ele>109</ele>
        <time>2010-04-24T07:39:21Z</time>
      </trkpt>
      <trkpt lat="44.82675" lon="4.79637">
        <ele>109</ele>
        <time>2010-04-24T07:39:23Z</time>
      </trkpt>
      <trkpt lat="44.82685" lon="4.79611">
        <ele>108</ele>
        <time>2010-04-24T07:39:28Z</time>
      </trkpt>
      <trkpt lat="44.82697" lon="4.79577">
        <ele>107</ele>
        <time>2010-04-24T07:39:33Z</time>
      </trkpt>
      <trkpt lat="44.82708" lon="4.7954">
        <ele>106</ele>
        <time>2010-04-24T07:39:38Z</time>
      </trkpt>
      <trkpt lat="44.82712" lon="4.79517">
        <ele>105</ele>
        <time>2010-04-24T07:39:41Z</time>
      </trkpt>
      <trkpt lat="44.82717" lon="4.79502">
        <ele>105</ele>
        <time>2010-04-24T07:39:43Z</time>
      </trkpt>
      <trkpt lat="44.82723" lon="4.79469">
        <ele>104</ele>
        <time>2010-04-24T07:39:47Z</time>
      </trkpt>
      <trkpt lat="44.82735" lon="4.79443">
        <ele>105</ele>
        <time>2010-04-24T07:39:52Z</time>
      </trkpt>
      <trkpt lat="44.82747" lon="4.79418">
        <ele>106</ele>
        <time>2010-04-24T07:39:58Z</time>
      </trkpt>
      <trkpt lat="44.82757" lon="4.79392">
        <ele>107</ele>
        <time>2010-04-24T07:40:05Z</time>
      </trkpt>
      <trkpt lat="44.82763" lon="4.79366">
        <ele>108</ele>
        <time>2010-04-24T07:40:11Z</time>
      </trkpt>
      <trkpt lat="44.82769" lon="4.79334">
        <ele>108</ele>
        <time>2010-04-24T07:40:18Z</time>
      </trkpt>
      <trkpt lat="44.82773" lon="4.79303">
        <ele>109</ele>
        <time>2010-04-24T07:40:25Z</time>
      </trkpt>
      <trkpt lat="44.82777" lon="4.7928">
        <ele>109</ele>
        <time>2010-04-24T07:40:30Z</time>
      </trkpt>
      <trkpt lat="44.82789" lon="4.79241">
        <ele>109</ele>
        <time>2010-04-24T07:40:40Z</time>
      </trkpt>
      <trkpt lat="44.82792" lon="4.79216">
        <ele>110</ele>
        <time>2010-04-24T07:40:46Z</time>
      </trkpt>
      <trkpt lat="44.82795" lon="4.79188">
        <ele>112</ele>
        <time>2010-04-24T07:40:54Z</time>
      </trkpt>
      <trkpt lat="44.82797" lon="4.79165">
        <ele>114</ele>
        <time>2010-04-24T07:41:02Z</time>
      </trkpt>
      <trkpt lat="44.82802" lon="4.79146">
        <ele>115</ele>
        <time>2010-04-24T07:41:09Z</time>
      </trkpt>
      <trkpt lat="44.82812" lon="4.7912">
        <ele>117</ele>
        <time>2010-04-24T07:41:19Z</time>
      </trkpt>
      <trkpt lat="44.82821" lon="4.79099">
        <ele>119</ele>
        <time>2010-04-24T07:41:27Z</time>
      </trkpt>
      <trkpt lat="44.82834" lon="4.79083">
        <ele>120</ele>
        <time>2010-04-24T07:41:35Z</time>
      </trkpt>
      <trkpt lat="44.82845" lon="4.79074">
        <ele>121</ele>
        <time>2010-04-24T07:41:41Z</time>
      </trkpt>
      <trkpt lat="44.82856" lon="4.79071">
        <ele>122</ele>
        <time>2010-04-24T07:41:47Z</time>
      </trkpt>
      <trkpt lat="44.82864" lon="4.79068">
        <ele>123</ele>
        <time>2010-04-24T07:41:52Z</time>
      </trkpt>
      <trkpt lat="44.82875" lon="4.79059">
        <ele>123</ele>
        <time>2010-04-24T07:41:57Z</time>
      </trkpt>
      <trkpt lat="44.82876" lon="4.79045">
        <ele>124</ele>
        <time>2010-04-24T07:42:02Z</time>
      </trkpt>
      <trkpt lat="44.82869" lon="4.79031">
        <ele>125</ele>
        <time>2010-04-24T07:42:08Z</time>
      </trkpt>
      <trkpt lat="44.82861" lon="4.79015">
        <ele>126</ele>
        <time>2010-04-24T07:42:15Z</time>
      </trkpt>
      <trkpt lat="44.82859" lon="4.78997">
        <ele>127</ele>
        <time>2010-04-24T07:42:22Z</time>
      </trkpt>
      <trkpt lat="44.82857" lon="4.78981">
        <ele>128</ele>
        <time>2010-04-24T07:42:27Z</time>
      </trkpt>
      <trkpt lat="44.82852" lon="4.78961">
        <ele>129</ele>
        <time>2010-04-24T07:42:33Z</time>
      </trkpt>
      <trkpt lat="44.82852" lon="4.7894">
        <ele>130</ele>
        <time>2010-04-24T07:42:40Z</time>
      </trkpt>
      <trkpt lat="44.8286" lon="4.78925">
        <ele>131</ele>
        <time>2010-04-24T07:42:46Z</time>
      </trkpt>
      <trkpt lat="44.82874" lon="4.78912">
        <ele>132</ele>
        <time>2010-04-24T07:42:54Z</time>
      </trkpt>
      <trkpt lat="44.82885" lon="4.78906">
        <ele>132</ele>
        <time>2010-04-24T07:43:01Z</time>
      </trkpt>
      <trkpt lat="44.82899" lon="4.78897">
        <ele>133</ele>
        <time>2010-04-24T07:43:09Z</time>
      </trkpt>
      <trkpt lat="44.82919" lon="4.78891">
        <ele>135</ele>
        <time>2010-04-24T07:43:17Z</time>
      </trkpt>
      <trkpt lat="44.82939" lon="4.78887">
        <ele>136</ele>
        <time>2010-04-24T07:43:25Z</time>
      </trkpt>
      <trkpt lat="44.82958" lon="4.78887">
        <ele>137</ele>
        <time>2010-04-24T07:43:33Z</time>
      </trkpt>
      <trkpt lat="44.82975" lon="4.78889">
        <ele>138</ele>
        <time>2010-04-24T07:43:40Z</time>
      </trkpt>
      <trkpt lat="44.82991" lon="4.78886">
        <ele>139</ele>
        <time>2010-04-24T07:43:47Z</time>
      </trkpt>
      <trkpt lat="44.83011" lon="4.78872">
        <ele>140</ele>
        <time>2010-04-24T07:43:56Z</time>
      </trkpt>
      <trkpt lat="44.83026" lon="4.78867">
        <ele>141</ele>
        <time>2010-04-24T07:44:03Z</time>
      </trkpt>
      <trkpt lat="44.83041" lon="4.78867">
        <ele>142</ele>
        <time>2010-04-24T07:44:09Z</time>
      </trkpt>
      <trkpt lat="44.83053" lon="4.7887">
        <ele>143</ele>
        <time>2010-04-24T07:44:15Z</time>
      </trkpt>
      <trkpt lat="44.83064" lon="4.78877">
        <ele>144</ele>
        <time>2010-04-24T07:44:21Z</time>
      </trkpt>
      <trkpt lat="44.83079" lon="4.78885">
        <ele>145</ele>
        <time>2010-04-24T07:44:29Z</time>
      </trkpt>
      <trkpt lat="44.83084" lon="4.78887">
        <ele>145</ele>
        <time>2010-04-24T07:44:32Z</time>
      </trkpt>
      <trkpt lat="44.83096" lon="4.78894">
        <ele>146</ele>
        <time>2010-04-24T07:44:38Z</time>
      </trkpt>
      <trkpt lat="44.83103" lon="4.78896">
        <ele>146</ele>
        <time>2010-04-24T07:44:41Z</time>
      </trkpt>
      <trkpt lat="44.83111" lon="4.78898">
        <ele>147</ele>
        <time>2010-04-24T07:44:46Z</time>
      </trkpt>
      <trkpt lat="44.83118" lon="4.789">
        <ele>147</ele>
        <time>2010-04-24T07:44:50Z</time>
      </trkpt>
      <trkpt lat="44.83126" lon="4.78901">
        <ele>148</ele>
        <time>2010-04-24T07:44:55Z</time>
      </trkpt>
      <trkpt lat="44.83145" lon="4.78909">
        <ele>149</ele>
        <time>2010-04-24T07:45:03Z</time>
      </trkpt>
      <trkpt lat="44.83156" lon="4.78913">
        <ele>150</ele>
        <time>2010-04-24T07:45:08Z</time>
      </trkpt>
      <trkpt lat="44.83182" lon="4.78915">
        <ele>151</ele>
        <time>2010-04-24T07:45:17Z</time>
      </trkpt>
      <trkpt lat="44.83193" lon="4.78917">
        <ele>152</ele>
        <time>2010-04-24T07:45:22Z</time>
      </trkpt>
      <trkpt lat="44.83206" lon="4.78918">
        <ele>153</ele>
        <time>2010-04-24T07:45:27Z</time>
      </trkpt>
      <trkpt lat="44.83217" lon="4.78919">
        <ele>153</ele>
        <time>2010-04-24T07:45:32Z</time>
      </trkpt>
      <trkpt lat="44.83224" lon="4.78918">
        <ele>154</ele>
        <time>2010-04-24T07:45:35Z</time>
      </trkpt>
      <trkpt lat="44.83237" lon="4.78913">
        <ele>155</ele>
        <time>2010-04-24T07:45:42Z</time>
      </trkpt>
      <trkpt lat="44.83247" lon="4.7891">
        <ele>155</ele>
        <time>2010-04-24T07:45:46Z</time>
      </trkpt>
      <trkpt lat="44.83263" lon="4.78912">
        <ele>157</ele>
        <time>2010-04-24T07:45:53Z</time>
      </trkpt>
      <trkpt lat="44.83275" lon="4.78908">
        <ele>157</ele>
        <time>2010-04-24T07:45:58Z</time>
      </trkpt>
      <trkpt lat="44.83287" lon="4.78899">
        <ele>157</ele>
        <time>2010-04-24T07:46:03Z</time>
      </trkpt>
      <trkpt lat="44.83299" lon="4.78892">
        <ele>158</ele>
        <time>2010-04-24T07:46:08Z</time>
      </trkpt>
      <trkpt lat="44.83314" lon="4.78888">
        <ele>159</ele>
        <time>2010-04-24T07:46:14Z</time>
      </trkpt>
      <trkpt lat="44.83335" lon="4.78885">
        <ele>160</ele>
        <time>2010-04-24T07:46:22Z</time>
      </trkpt>
      <trkpt lat="44.83349" lon="4.78877">
        <ele>161</ele>
        <time>2010-04-24T07:46:28Z</time>
      </trkpt>
      <trkpt lat="44.83363" lon="4.78865">
        <ele>161</ele>
        <time>2010-04-24T07:46:35Z</time>
      </trkpt>
      <trkpt lat="44.83376" lon="4.78856">
        <ele>162</ele>
        <time>2010-04-24T07:46:40Z</time>
      </trkpt>
      <trkpt lat="44.83388" lon="4.78846">
        <ele>163</ele>
        <time>2010-04-24T07:46:46Z</time>
      </trkpt>
      <trkpt lat="44.83391" lon="4.7883">
        <ele>163</ele>
        <time>2010-04-24T07:46:51Z</time>
      </trkpt>
      <trkpt lat="44.83382" lon="4.78813">
        <ele>164</ele>
        <time>2010-04-24T07:46:56Z</time>
      </trkpt>
      <trkpt lat="44.83367" lon="4.78813">
        <ele>164</ele>
        <time>2010-04-24T07:47:00Z</time>
      </trkpt>
      <trkpt lat="44.83361" lon="4.78823">
        <ele>165</ele>
        <time>2010-04-24T07:47:06Z</time>
      </trkpt>
      <trkpt lat="44.83351" lon="4.78824">
        <ele>166</ele>
        <time>2010-04-24T07:47:12Z</time>
      </trkpt>
      <trkpt lat="44.8334" lon="4.78826">
        <ele>167</ele>
        <time>2010-04-24T07:47:17Z</time>
      </trkpt>
      <trkpt lat="44.83326" lon="4.78825">
        <ele>168</ele>
        <time>2010-04-24T07:47:23Z</time>
      </trkpt>
      <trkpt lat="44.833" lon="4.78825">
        <ele>169</ele>
        <time>2010-04-24T07:47:34Z</time>
      </trkpt>
      <trkpt lat="44.83279" lon="4.78826">
        <ele>171</ele>
        <time>2010-04-24T07:47:43Z</time>
      </trkpt>
      <trkpt lat="44.83264" lon="4.78828">
        <ele>172</ele>
        <time>2010-04-24T07:47:50Z</time>
      </trkpt>
      <trkpt lat="44.83245" lon="4.7883">
        <ele>173</ele>
        <time>2010-04-24T07:47:58Z</time>
      </trkpt>
      <trkpt lat="44.83229" lon="4.7883">
        <ele>174</ele>
        <time>2010-04-24T07:48:05Z</time>
      </trkpt>
      <trkpt lat="44.83212" lon="4.78826">
        <ele>175</ele>
        <time>2010-04-24T07:48:12Z</time>
      </trkpt>
      <trkpt lat="44.8319" lon="4.7881">
        <ele>176</ele>
        <time>2010-04-24T07:48:22Z</time>
      </trkpt>
      <trkpt lat="44.83174" lon="4.78797">
        <ele>178</ele>
        <time>2010-04-24T07:48:30Z</time>
      </trkpt>
      <trkpt lat="44.83162" lon="4.78783">
        <ele>179</ele>
        <time>2010-04-24T07:48:36Z</time>
      </trkpt>
      <trkpt lat="44.83142" lon="4.78769">
        <ele>180</ele>
        <time>2010-04-24T07:48:44Z</time>
      </trkpt>
      <trkpt lat="44.83124" lon="4.78754">
        <ele>181</ele>
        <time>2010-04-24T07:48:52Z</time>
      </trkpt>
      <trkpt lat="44.83111" lon="4.78739">
        <ele>182</ele>
        <time>2010-04-24T07:48:59Z</time>
      </trkpt>
      <trkpt lat="44.83092" lon="4.78723">
        <ele>184</ele>
        <time>2010-04-24T07:49:08Z</time>
      </trkpt>
      <trkpt lat="44.83078" lon="4.78703">
        <ele>185</ele>
        <time>2010-04-24T07:49:16Z</time>
      </trkpt>
      <trkpt lat="44.83076" lon="4.78681">
        <ele>186</ele>
        <time>2010-04-24T07:49:23Z</time>
      </trkpt>
      <trkpt lat="44.83083" lon="4.78658">
        <ele>187</ele>
        <time>2010-04-24T07:49:31Z</time>
      </trkpt>
      <trkpt lat="44.83089" lon="4.78631">
        <ele>189</ele>
        <time>2010-04-24T07:49:40Z</time>
      </trkpt>
      <trkpt lat="44.83088" lon="4.78616">
        <ele>190</ele>
        <time>2010-04-24T07:49:45Z</time>
      </trkpt>
      <trkpt lat="44.83079" lon="4.78592">
        <ele>191</ele>
        <time>2010-04-24T07:49:53Z</time>
      </trkpt>
      <trkpt lat="44.83075" lon="4.78567">
        <ele>193</ele>
        <time>2010-04-24T07:50:01Z</time>
      </trkpt>
      <trkpt lat="44.83075" lon="4.78544">
        <ele>193</ele>
        <time>2010-04-24T07:50:08Z</time>
      </trkpt>
      <trkpt lat="44.83082" lon="4.78526">
        <ele>194</ele>
        <time>2010-04-24T07:50:15Z</time>
      </trkpt>
      <trkpt lat="44.83094" lon="4.78511">
        <ele>195</ele>
        <time>2010-04-24T07:50:23Z</time>
      </trkpt>
      <trkpt lat="44.83103" lon="4.78494">
        <ele>197</ele>
        <time>2010-04-24T07:50:31Z</time>
      </trkpt>
      <trkpt lat="44.83101" lon="4.78479">
        <ele>198</ele>
        <time>2010-04-24T07:50:37Z</time>
      </trkpt>
      <trkpt lat="44.83097" lon="4.78461">
        <ele>199</ele>
        <time>2010-04-24T07:50:44Z</time>
      </trkpt>
      <trkpt lat="44.83098" lon="4.7844">
        <ele>199</ele>
        <time>2010-04-24T07:50:51Z</time>
      </trkpt>
      <trkpt lat="44.831" lon="4.78416">
        <ele>201</ele>
        <time>2010-04-24T07:50:59Z</time>
      </trkpt>
      <trkpt lat="44.83107" lon="4.78396">
        <ele>201</ele>
        <time>2010-04-24T07:51:06Z</time>
      </trkpt>
      <trkpt lat="44.83118" lon="4.7838">
        <ele>203</ele>
        <time>2010-04-24T07:51:14Z</time>
      </trkpt>
      <trkpt lat="44.8312" lon="4.78378">
        <ele>203</ele>
        <time>2010-04-24T07:51:15Z</time>
      </trkpt>
      <trkpt lat="44.83131" lon="4.78368">
        <ele>204</ele>
        <time>2010-04-24T07:51:22Z</time>
      </trkpt>
      <trkpt lat="44.83139" lon="4.78361">
        <ele>205</ele>
        <time>2010-04-24T07:51:27Z</time>
      </trkpt>
      <trkpt lat="44.8315" lon="4.78354">
        <ele>206</ele>
        <time>2010-04-24T07:51:34Z</time>
      </trkpt>
      <trkpt lat="44.8316" lon="4.7835">
        <ele>207</ele>
        <time>2010-04-24T07:51:40Z</time>
      </trkpt>
      <trkpt lat="44.83171" lon="4.78345">
        <ele>207</ele>
        <time>2010-04-24T07:51:47Z</time>
      </trkpt>
      <trkpt lat="44.83183" lon="4.78339">
        <ele>208</ele>
        <time>2010-04-24T07:51:54Z</time>
      </trkpt>
      <trkpt lat="44.83193" lon="4.78334">
        <ele>209</ele>
        <time>2010-04-24T07:52:01Z</time>
      </trkpt>
      <trkpt lat="44.83196" lon="4.78322">
        <ele>210</ele>
        <time>2010-04-24T07:52:06Z</time>
      </trkpt>
      <trkpt lat="44.8319" lon="4.7831">
        <ele>211</ele>
        <time>2010-04-24T07:52:12Z</time>
      </trkpt>
      <trkpt lat="44.83184" lon="4.78298">
        <ele>212</ele>
        <time>2010-04-24T07:52:18Z</time>
      </trkpt>
      <trkpt lat="44.83174" lon="4.78283">
        <ele>213</ele>
        <time>2010-04-24T07:52:26Z</time>
      </trkpt>
      <trkpt lat="44.83168" lon="4.78267">
        <ele>214</ele>
        <time>2010-04-24T07:52:32Z</time>
      </trkpt>
      <trkpt lat="44.83172" lon="4.78249">
        <ele>214</ele>
        <time>2010-04-24T07:52:39Z</time>
      </trkpt>
      <trkpt lat="44.83177" lon="4.7824">
        <ele>215</ele>
        <time>2010-04-24T07:52:44Z</time>
      </trkpt>
      <trkpt lat="44.83183" lon="4.78232">
        <ele>215</ele>
        <time>2010-04-24T07:52:49Z</time>
      </trkpt>
      <trkpt lat="44.83192" lon="4.7822">
        <ele>216</ele>
        <time>2010-04-24T07:52:55Z</time>
      </trkpt>
      <trkpt lat="44.83199" lon="4.78213">
        <ele>217</ele>
        <time>2010-04-24T07:53:00Z</time>
      </trkpt>
      <trkpt lat="44.83215" lon="4.78199">
        <ele>218</ele>
        <time>2010-04-24T07:53:11Z</time>
      </trkpt>
      <trkpt lat="44.83221" lon="4.78193">
        <ele>219</ele>
        <time>2010-04-24T07:53:16Z</time>
      </trkpt>
      <trkpt lat="44.83229" lon="4.7818">
        <ele>219</ele>
        <time>2010-04-24T07:53:24Z</time>
      </trkpt>
      <trkpt lat="44.83238" lon="4.78166">
        <ele>221</ele>
        <time>2010-04-24T07:53:32Z</time>
      </trkpt>
      <trkpt lat="44.83245" lon="4.78152">
        <ele>221</ele>
        <time>2010-04-24T07:53:39Z</time>
      </trkpt>
      <trkpt lat="44.83253" lon="4.7814">
        <ele>222</ele>
        <time>2010-04-24T07:53:47Z</time>
      </trkpt>
      <trkpt lat="44.83254" lon="4.78138">
        <ele>223</ele>
        <time>2010-04-24T07:53:48Z</time>
      </trkpt>
      <trkpt lat="44.83263" lon="4.78132">
        <ele>223</ele>
        <time>2010-04-24T07:53:54Z</time>
      </trkpt>
      <trkpt lat="44.83264" lon="4.78129">
        <ele>224</ele>
        <time>2010-04-24T07:53:56Z</time>
      </trkpt>
      <trkpt lat="44.83269" lon="4.78112">
        <ele>225</ele>
        <time>2010-04-24T07:54:04Z</time>
      </trkpt>
      <trkpt lat="44.83267" lon="4.78104">
        <ele>225</ele>
        <time>2010-04-24T07:54:07Z</time>
      </trkpt>
      <trkpt lat="44.8326" lon="4.78097">
        <ele>226</ele>
        <time>2010-04-24T07:54:13Z</time>
      </trkpt>
      <trkpt lat="44.83265" lon="4.78092">
        <ele>227</ele>
        <time>2010-04-24T07:54:18Z</time>
      </trkpt>
      <trkpt lat="44.83263" lon="4.78085">
        <ele>227</ele>
        <time>2010-04-24T07:54:21Z</time>
      </trkpt>
      <trkpt lat="44.83254" lon="4.78063">
        <ele>228</ele>
        <time>2010-04-24T07:54:30Z</time>
      </trkpt>
      <trkpt lat="44.83247" lon="4.78044">
        <ele>229</ele>
        <time>2010-04-24T07:54:37Z</time>
      </trkpt>
      <trkpt lat="44.83247" lon="4.78032">
        <ele>230</ele>
        <time>2010-04-24T07:54:41Z</time>
      </trkpt>
      <trkpt lat="44.83246" lon="4.78012">
        <ele>231</ele>
        <time>2010-04-24T07:54:48Z</time>
      </trkpt>
      <trkpt lat="44.83252" lon="4.77994">
        <ele>232</ele>
        <time>2010-04-24T07:54:55Z</time>
      </trkpt>
      <trkpt lat="44.83259" lon="4.77982">
        <ele>233</ele>
        <time>2010-04-24T07:55:01Z</time>
      </trkpt>
      <trkpt lat="44.83269" lon="4.77969">
        <ele>234</ele>
        <time>2010-04-24T07:55:08Z</time>
      </trkpt>
      <trkpt lat="44.8328" lon="4.77955">
        <ele>235</ele>
        <time>2010-04-24T07:55:15Z</time>
      </trkpt>
      <trkpt lat="44.83287" lon="4.77946">
        <ele>235</ele>
        <time>2010-04-24T07:55:20Z</time>
      </trkpt>
      <trkpt lat="44.83293" lon="4.77934">
        <ele>236</ele>
        <time>2010-04-24T07:55:27Z</time>
      </trkpt>
      <trkpt lat="44.83296" lon="4.77923">
        <ele>237</ele>
        <time>2010-04-24T07:55:32Z</time>
      </trkpt>
      <trkpt lat="44.83297" lon="4.77902">
        <ele>238</ele>
        <time>2010-04-24T07:55:39Z</time>
      </trkpt>
      <trkpt lat="44.83295" lon="4.77877">
        <ele>239</ele>
        <time>2010-04-24T07:55:47Z</time>
      </trkpt>
      <trkpt lat="44.833" lon="4.77861">
        <ele>241</ele>
        <time>2010-04-24T07:55:53Z</time>
      </trkpt>
      <trkpt lat="44.83308" lon="4.77843">
        <ele>242</ele>
        <time>2010-04-24T07:56:00Z</time>
      </trkpt>
      <trkpt lat="44.83311" lon="4.77828">
        <ele>242</ele>
        <time>2010-04-24T07:56:05Z</time>
      </trkpt>
      <trkpt lat="44.83317" lon="4.77807">
        <ele>243</ele>
        <time>2010-04-24T07:56:13Z</time>
      </trkpt>
      <trkpt lat="44.83326" lon="4.77791">
        <ele>244</ele>
        <time>2010-04-24T07:56:20Z</time>
      </trkpt>
      <trkpt lat="44.8334" lon="4.77776">
        <ele>245</ele>
        <time>2010-04-24T07:56:28Z</time>
      </trkpt>
      <trkpt lat="44.83346" lon="4.77761">
        <ele>246</ele>
        <time>2010-04-24T07:56:34Z</time>
      </trkpt>
      <trkpt lat="44.83356" lon="4.77746">
        <ele>247</ele>
        <time>2010-04-24T07:56:41Z</time>
      </trkpt>
      <trkpt lat="44.83372" lon="4.77737">
        <ele>248</ele>
        <time>2010-04-24T07:56:47Z</time>
      </trkpt>
      <trkpt lat="44.83385" lon="4.77727">
        <ele>249</ele>
        <time>2010-04-24T07:56:54Z</time>
      </trkpt>
      <trkpt lat="44.83401" lon="4.7772">
        <ele>250</ele>
        <time>2010-04-24T07:57:02Z</time>
      </trkpt>
      <trkpt lat="44.83413" lon="4.77716">
        <ele>251</ele>
        <time>2010-04-24T07:57:08Z</time>
      </trkpt>
      <trkpt lat="44.83423" lon="4.77715">
        <ele>252</ele>
        <time>2010-04-24T07:57:14Z</time>
      </trkpt>
      <trkpt lat="44.83435" lon="4.77719">
        <ele>253</ele>
        <time>2010-04-24T07:57:20Z</time>
      </trkpt>
      <trkpt lat="44.83451" lon="4.77724">
        <ele>254</ele>
        <time>2010-04-24T07:57:28Z</time>
      </trkpt>
      <trkpt lat="44.83464" lon="4.77731">
        <ele>254</ele>
        <time>2010-04-24T07:57:34Z</time>
      </trkpt>
      <trkpt lat="44.83477" lon="4.77744">
        <ele>256</ele>
        <time>2010-04-24T07:57:42Z</time>
      </trkpt>
      <trkpt lat="44.83489" lon="4.77758">
        <ele>257</ele>
        <time>2010-04-24T07:57:50Z</time>
      </trkpt>
      <trkpt lat="44.83499" lon="4.77772">
        <ele>258</ele>
        <time>2010-04-24T07:57:58Z</time>
      </trkpt>
      <trkpt lat="44.83505" lon="4.77779">
        <ele>259</ele>
        <time>2010-04-24T07:58:03Z</time>
      </trkpt>
      <trkpt lat="44.83515" lon="4.77787">
        <ele>259</ele>
        <time>2010-04-24T07:58:09Z</time>
      </trkpt>
      <trkpt lat="44.83522" lon="4.77798">
        <ele>260</ele>
        <time>2010-04-24T07:58:14Z</time>
      </trkpt>
      <trkpt lat="44.83528" lon="4.77807">
        <ele>261</ele>
        <time>2010-04-24T07:58:20Z</time>
      </trkpt>
      <trkpt lat="44.83539" lon="4.77812">
        <ele>262</ele>
        <time>2010-04-24T07:58:26Z</time>
      </trkpt>
      <trkpt lat="44.83545" lon="4.77813">
        <ele>262</ele>
        <time>2010-04-24T07:58:29Z</time>
      </trkpt>
      <trkpt lat="44.83556" lon="4.77817">
        <ele>263</ele>
        <time>2010-04-24T07:58:35Z</time>
      </trkpt>
      <trkpt lat="44.83572" lon="4.77822">
        <ele>263</ele>
        <time>2010-04-24T07:58:43Z</time>
      </trkpt>
      <trkpt lat="44.83581" lon="4.77825">
        <ele>264</ele>
        <time>2010-04-24T07:58:49Z</time>
      </trkpt>
      <trkpt lat="44.83593" lon="4.77828">
        <ele>265</ele>
        <time>2010-04-24T07:58:56Z</time>
      </trkpt>
      <trkpt lat="44.83606" lon="4.77832">
        <ele>266</ele>
        <time>2010-04-24T07:59:02Z</time>
      </trkpt>
      <trkpt lat="44.83618" lon="4.77836">
        <ele>266</ele>
        <time>2010-04-24T07:59:07Z</time>
      </trkpt>
      <trkpt lat="44.8363" lon="4.77844">
        <ele>267</ele>
        <time>2010-04-24T07:59:13Z</time>
      </trkpt>
      <trkpt lat="44.83643" lon="4.77852">
        <ele>268</ele>
        <time>2010-04-24T07:59:21Z</time>
      </trkpt>
      <trkpt lat="44.83654" lon="4.77857">
        <ele>269</ele>
        <time>2010-04-24T07:59:27Z</time>
      </trkpt>
      <trkpt lat="44.83669" lon="4.77859">
        <ele>269</ele>
        <time>2010-04-24T07:59:34Z</time>
      </trkpt>
      <trkpt lat="44.83685" lon="4.77859">
        <ele>271</ele>
        <time>2010-04-24T07:59:41Z</time>
      </trkpt>
      <trkpt lat="44.83702" lon="4.77859">
        <ele>272</ele>
        <time>2010-04-24T07:59:49Z</time>
      </trkpt>
      <trkpt lat="44.83714" lon="4.77862">
        <ele>272</ele>
        <time>2010-04-24T07:59:55Z</time>
      </trkpt>
      <trkpt lat="44.83719" lon="4.77867">
        <ele>273</ele>
        <time>2010-04-24T07:59:58Z</time>
      </trkpt>
      <trkpt lat="44.8373" lon="4.77876">
        <ele>274</ele>
        <time>2010-04-24T08:00:05Z</time>
      </trkpt>
      <trkpt lat="44.83739" lon="4.7787">
        <ele>275</ele>
        <time>2010-04-24T08:00:11Z</time>
      </trkpt>
      <trkpt lat="44.83749" lon="4.77861">
        <ele>276</ele>
        <time>2010-04-24T08:00:18Z</time>
      </trkpt>
      <trkpt lat="44.83763" lon="4.77859">
        <ele>277</ele>
        <time>2010-04-24T08:00:25Z</time>
      </trkpt>
      <trkpt lat="44.83774" lon="4.77855">
        <ele>277</ele>
        <time>2010-04-24T08:00:31Z</time>
      </trkpt>
      <trkpt lat="44.83784" lon="4.7785">
        <ele>278</ele>
        <time>2010-04-24T08:00:37Z</time>
      </trkpt>
      <trkpt lat="44.83797" lon="4.77851">
        <ele>279</ele>
        <time>2010-04-24T08:00:44Z</time>
      </trkpt>
      <trkpt lat="44.8381" lon="4.77857">
        <ele>280</ele>
        <time>2010-04-24T08:00:51Z</time>
      </trkpt>
      <trkpt lat="44.83817" lon="4.77858">
        <ele>280</ele>
        <time>2010-04-24T08:00:54Z</time>
      </trkpt>
      <trkpt lat="44.83832" lon="4.77846">
        <ele>281</ele>
        <time>2010-04-24T08:01:02Z</time>
      </trkpt>
      <trkpt lat="44.83841" lon="4.77835">
        <ele>282</ele>
        <time>2010-04-24T08:01:08Z</time>
      </trkpt>
      <trkpt lat="44.83855" lon="4.77823">
        <ele>283</ele>
        <time>2010-04-24T08:01:16Z</time>
      </trkpt>
      <trkpt lat="44.83871" lon="4.77816">
        <ele>285</ele>
        <time>2010-04-24T08:01:24Z</time>
      </trkpt>
      <trkpt lat="44.83885" lon="4.77811">
        <ele>286</ele>
        <time>2010-04-24T08:01:31Z</time>
      </trkpt>
      <trkpt lat="44.83898" lon="4.77808">
        <ele>286</ele>
        <time>2010-04-24T08:01:37Z</time>
      </trkpt>
      <trkpt lat="44.8391" lon="4.77802">
        <ele>287</ele>
        <time>2010-04-24T08:01:44Z</time>
      </trkpt>
      <trkpt lat="44.83921" lon="4.77803">
        <ele>288</ele>
        <time>2010-04-24T08:01:50Z</time>
      </trkpt>
      <trkpt lat="44.83935" lon="4.77798">
        <ele>289</ele>
        <time>2010-04-24T08:01:57Z</time>
      </trkpt>
      <trkpt lat="44.83947" lon="4.77787">
        <ele>290</ele>
        <time>2010-04-24T08:02:04Z</time>
      </trkpt>
      <trkpt lat="44.8396" lon="4.7778">
        <ele>291</ele>
        <time>2010-04-24T08:02:11Z</time>
      </trkpt>
      <trkpt lat="44.83973" lon="4.77773">
        <ele>292</ele>
        <time>2010-04-24T08:02:17Z</time>
      </trkpt>
      <trkpt lat="44.83989" lon="4.77764">
        <ele>293</ele>
        <time>2010-04-24T08:02:25Z</time>
      </trkpt>
      <trkpt lat="44.84003" lon="4.77754">
        <ele>294</ele>
        <time>2010-04-24T08:02:33Z</time>
      </trkpt>
      <trkpt lat="44.84016" lon="4.77742">
        <ele>295</ele>
        <time>2010-04-24T08:02:41Z</time>
      </trkpt>
      <trkpt lat="44.84027" lon="4.77728">
        <ele>296</ele>
        <time>2010-04-24T08:02:48Z</time>
      </trkpt>
      <trkpt lat="44.84041" lon="4.77715">
        <ele>297</ele>
        <time>2010-04-24T08:02:56Z</time>
      </trkpt>
      <trkpt lat="44.84048" lon="4.77709">
        <ele>298</ele>
        <time>2010-04-24T08:03:01Z</time>
      </trkpt>
      <trkpt lat="44.84057" lon="4.77702">
        <ele>298</ele>
        <time>2010-04-24T08:03:06Z</time>
      </trkpt>
      <trkpt lat="44.8407" lon="4.77694">
        <ele>299</ele>
        <time>2010-04-24T08:03:13Z</time>
      </trkpt>
      <trkpt lat="44.84087" lon="4.77689">
        <ele>301</ele>
        <time>2010-04-24T08:03:22Z</time>
      </trkpt>
      <trkpt lat="44.84089" lon="4.77689">
        <ele>301</ele>
        <time>2010-04-24T08:03:23Z</time>
      </trkpt>
      <trkpt lat="44.84102" lon="4.77682">
        <ele>302</ele>
        <time>2010-04-24T08:03:30Z</time>
      </trkpt>
      <trkpt lat="44.84115" lon="4.77672">
        <ele>303</ele>
        <time>2010-04-24T08:03:37Z</time>
      </trkpt>
      <trkpt lat="44.84117" lon="4.77671">
        <ele>303</ele>
        <time>2010-04-24T08:03:38Z</time>
      </trkpt>
      <trkpt lat="44.84131" lon="4.77666">
        <ele>304</ele>
        <time>2010-04-24T08:03:45Z</time>
      </trkpt>
      <trkpt lat="44.8414" lon="4.7766">
        <ele>305</ele>
        <time>2010-04-24T08:03:51Z</time>
      </trkpt>
      <trkpt lat="44.84158" lon="4.77645">
        <ele>306</ele>
        <time>2010-04-24T08:04:01Z</time>
      </trkpt>
      <trkpt lat="44.84168" lon="4.77635">
        <ele>307</ele>
        <time>2010-04-24T08:04:06Z</time>
      </trkpt>
      <trkpt lat="44.84177" lon="4.77627">
        <ele>308</ele>
        <time>2010-04-24T08:04:11Z</time>
      </trkpt>
      <trkpt lat="44.8419" lon="4.77617">
        <ele>308</ele>
        <time>2010-04-24T08:04:18Z</time>
      </trkpt>
      <trkpt lat="44.84196" lon="4.77606">
        <ele>309</ele>
        <time>2010-04-24T08:04:23Z</time>
      </trkpt>
      <trkpt lat="44.84202" lon="4.7759">
        <ele>310</ele>
        <time>2010-04-24T08:04:29Z</time>
      </trkpt>
      <trkpt lat="44.84206" lon="4.77569">
        <ele>310</ele>
        <time>2010-04-24T08:04:36Z</time>
      </trkpt>
      <trkpt lat="44.84209" lon="4.77545">
        <ele>311</ele>
        <time>2010-04-24T08:04:44Z</time>
      </trkpt>
      <trkpt lat="44.84213" lon="4.77524">
        <ele>312</ele>
        <time>2010-04-24T08:04:51Z</time>
      </trkpt>
      <trkpt lat="44.8422" lon="4.77502">
        <ele>313</ele>
        <time>2010-04-24T08:04:59Z</time>
      </trkpt>
      <trkpt lat="44.84222" lon="4.77489">
        <ele>314</ele>
        <time>2010-04-24T08:05:03Z</time>
      </trkpt>
      <trkpt lat="44.84218" lon="4.77473">
        <ele>314</ele>
        <time>2010-04-24T08:05:09Z</time>
      </trkpt>
      <trkpt lat="44.8421" lon="4.77471">
        <ele>315</ele>
        <time>2010-04-24T08:05:14Z</time>
      </trkpt>
      <trkpt lat="44.84204" lon="4.77481">
        <ele>315</ele>
        <time>2010-04-24T08:05:19Z</time>
      </trkpt>
      <trkpt lat="44.842" lon="4.77497">
        <ele>316</ele>
        <time>2010-04-24T08:05:25Z</time>
      </trkpt>
      <trkpt lat="44.84193" lon="4.77509">
        <ele>316</ele>
        <time>2010-04-24T08:05:30Z</time>
      </trkpt>
      <trkpt lat="44.84186" lon="4.77524">
        <ele>317</ele>
        <time>2010-04-24T08:05:37Z</time>
      </trkpt>
      <trkpt lat="44.84175" lon="4.77538">
        <ele>318</ele>
        <time>2010-04-24T08:05:44Z</time>
      </trkpt>
      <trkpt lat="44.84157" lon="4.77551">
        <ele>319</ele>
        <time>2010-04-24T08:05:52Z</time>
      </trkpt>
      <trkpt lat="44.84144" lon="4.77555">
        <ele>320</ele>
        <time>2010-04-24T08:05:58Z</time>
      </trkpt>
      <trkpt lat="44.84134" lon="4.77557">
        <ele>321</ele>
        <time>2010-04-24T08:06:03Z</time>
      </trkpt>
      <trkpt lat="44.8412" lon="4.77563">
        <ele>322</ele>
        <time>2010-04-24T08:06:09Z</time>
      </trkpt>
      <trkpt lat="44.84101" lon="4.77567">
        <ele>323</ele>
        <time>2010-04-24T08:06:17Z</time>
      </trkpt>
      <trkpt lat="44.84088" lon="4.77568">
        <ele>323</ele>
        <time>2010-04-24T08:06:23Z</time>
      </trkpt>
      <trkpt lat="44.84075" lon="4.77569">
        <ele>325</ele>
        <time>2010-04-24T08:06:29Z</time>
      </trkpt>
      <trkpt lat="44.84061" lon="4.77568">
        <ele>326</ele>
        <time>2010-04-24T08:06:36Z</time>
      </trkpt>
      <trkpt lat="44.8404" lon="4.77569">
        <ele>327</ele>
        <time>2010-04-24T08:06:45Z</time>
      </trkpt>
      <trkpt lat="44.84025" lon="4.77569">
        <ele>328</ele>
        <time>2010-04-24T08:06:52Z</time>
      </trkpt>
      <trkpt lat="44.84013" lon="4.77568">
        <ele>329</ele>
        <time>2010-04-24T08:06:57Z</time>
      </trkpt>
      <trkpt lat="44.83999" lon="4.77569">
        <ele>330</ele>
        <time>2010-04-24T08:07:04Z</time>
      </trkpt>
      <trkpt lat="44.83983" lon="4.77574">
        <ele>331</ele>
        <time>2010-04-24T08:07:12Z</time>
      </trkpt>
      <trkpt lat="44.83967" lon="4.77579">
        <ele>332</ele>
        <time>2010-04-24T08:07:20Z</time>
      </trkpt>
      <trkpt lat="44.83952" lon="4.77585">
        <ele>333</ele>
        <time>2010-04-24T08:07:26Z</time>
      </trkpt>
      <trkpt lat="44.83936" lon="4.77588">
        <ele>334</ele>
        <time>2010-04-24T08:07:33Z</time>
      </trkpt>
      <trkpt lat="44.83924" lon="4.77588">
        <ele>335</ele>
        <time>2010-04-24T08:07:38Z</time>
      </trkpt>
      <trkpt lat="44.83909" lon="4.77588">
        <ele>336</ele>
        <time>2010-04-24T08:07:45Z</time>
      </trkpt>
      <trkpt lat="44.83893" lon="4.77586">
        <ele>337</ele>
        <time>2010-04-24T08:07:52Z</time>
      </trkpt>
      <trkpt lat="44.83875" lon="4.77583">
        <ele>338</ele>
        <time>2010-04-24T08:08:00Z</time>
      </trkpt>
      <trkpt lat="44.8386" lon="4.77577">
        <ele>339</ele>
        <time>2010-04-24T08:08:07Z</time>
      </trkpt>
      <trkpt lat="44.83849" lon="4.7757">
        <ele>340</ele>
        <time>2010-04-24T08:08:13Z</time>
      </trkpt>
      <trkpt lat="44.83844" lon="4.77558">
        <ele>340</ele>
        <time>2010-04-24T08:08:19Z</time>
      </trkpt>
      <trkpt lat="44.83847" lon="4.77543">
        <ele>341</ele>
        <time>2010-04-24T08:08:25Z</time>
      </trkpt>
      <trkpt lat="44.83849" lon="4.77526">
        <ele>341</ele>
        <time>2010-04-24T08:08:31Z</time>
      </trkpt>
      <trkpt lat="44.83851" lon="4.77502">
        <ele>343</ele>
        <time>2010-04-24T08:08:40Z</time>
      </trkpt>
      <trkpt lat="44.83855" lon="4.77487">
        <ele>343</ele>
        <time>2010-04-24T08:08:46Z</time>
      </trkpt>
      <trkpt lat="44.83865" lon="4.77469">
        <ele>344</ele>
        <time>2010-04-24T08:08:54Z</time>
      </trkpt>
      <trkpt lat="44.83878" lon="4.77453">
        <ele>346</ele>
        <time>2010-04-24T08:09:03Z</time>
      </trkpt>
      <trkpt lat="44.83889" lon="4.77442">
        <ele>347</ele>
        <time>2010-04-24T08:09:10Z</time>
      </trkpt>
      <trkpt lat="44.83902" lon="4.7743">
        <ele>348</ele>
        <time>2010-04-24T08:09:18Z</time>
      </trkpt>
      <trkpt lat="44.83921" lon="4.77412">
        <ele>349</ele>
        <time>2010-04-24T08:09:29Z</time>
      </trkpt>
      <trkpt lat="44.83934" lon="4.77398">
        <ele>350</ele>
        <time>2010-04-24T08:09:37Z</time>
      </trkpt>
      <trkpt lat="44.83947" lon="4.77384">
        <ele>352</ele>
        <time>2010-04-24T08:09:45Z</time>
      </trkpt>
      <trkpt lat="44.83961" lon="4.7737">
        <ele>353</ele>
        <time>2010-04-24T08:09:53Z</time>
      </trkpt>
      <trkpt lat="44.83977" lon="4.77353">
        <ele>354</ele>
        <time>2010-04-24T08:10:03Z</time>
      </trkpt>
      <trkpt lat="44.83989" lon="4.7734">
        <ele>355</ele>
        <time>2010-04-24T08:10:10Z</time>
      </trkpt>
      <trkpt lat="44.84005" lon="4.7732">
        <ele>356</ele>
        <time>2010-04-24T08:10:20Z</time>
      </trkpt>
      <trkpt lat="44.84017" lon="4.77303">
        <ele>357</ele>
        <time>2010-04-24T08:10:28Z</time>
      </trkpt>
      <trkpt lat="44.84031" lon="4.77287">
        <ele>359</ele>
        <time>2010-04-24T08:10:36Z</time>
      </trkpt>
      <trkpt lat="44.84046" lon="4.7727">
        <ele>360</ele>
        <time>2010-04-24T08:10:45Z</time>
      </trkpt>
      <trkpt lat="44.84063" lon="4.77252">
        <ele>361</ele>
        <time>2010-04-24T08:10:55Z</time>
      </trkpt>
      <trkpt lat="44.8408" lon="4.77236">
        <ele>362</ele>
        <time>2010-04-24T08:11:04Z</time>
      </trkpt>
      <trkpt lat="44.841" lon="4.77218">
        <ele>363</ele>
        <time>2010-04-24T08:11:14Z</time>
      </trkpt>
      <trkpt lat="44.84118" lon="4.77203">
        <ele>364</ele>
        <time>2010-04-24T08:11:23Z</time>
      </trkpt>
      <trkpt lat="44.84139" lon="4.77186">
        <ele>366</ele>
        <time>2010-04-24T08:11:33Z</time>
      </trkpt>
      <trkpt lat="44.84159" lon="4.77166">
        <ele>367</ele>
        <time>2010-04-24T08:11:44Z</time>
      </trkpt>
      <trkpt lat="44.84181" lon="4.77144">
        <ele>368</ele>
        <time>2010-04-24T08:11:56Z</time>
      </trkpt>
      <trkpt lat="44.84199" lon="4.77125">
        <ele>370</ele>
        <time>2010-04-24T08:12:06Z</time>
      </trkpt>
      <trkpt lat="44.84218" lon="4.77104">
        <ele>371</ele>
        <time>2010-04-24T08:12:17Z</time>
      </trkpt>
      <trkpt lat="44.84231" lon="4.77088">
        <ele>372</ele>
        <time>2010-04-24T08:12:25Z</time>
      </trkpt>
      <trkpt lat="44.84242" lon="4.77067">
        <ele>373</ele>
        <time>2010-04-24T08:12:33Z</time>
      </trkpt>
      <trkpt lat="44.84253" lon="4.77043">
        <ele>374</ele>
        <time>2010-04-24T08:12:42Z</time>
      </trkpt>
      <trkpt lat="44.84263" lon="4.77018">
        <ele>375</ele>
        <time>2010-04-24T08:12:51Z</time>
      </trkpt>
      <trkpt lat="44.84273" lon="4.76993">
        <ele>376</ele>
        <time>2010-04-24T08:13:00Z</time>
      </trkpt>
      <trkpt lat="44.8428" lon="4.76963">
        <ele>377</ele>
        <time>2010-04-24T08:13:10Z</time>
      </trkpt>
      <trkpt lat="44.84287" lon="4.76931">
        <ele>379</ele>
        <time>2010-04-24T08:13:21Z</time>
      </trkpt>
      <trkpt lat="44.84293" lon="4.76899">
        <ele>380</ele>
        <time>2010-04-24T08:13:32Z</time>
      </trkpt>
      <trkpt lat="44.84294" lon="4.76892">
        <ele>380</ele>
        <time>2010-04-24T08:13:35Z</time>
      </trkpt>
      <trkpt lat="44.84296" lon="4.76896">
        <ele>381</ele>
        <time>2010-04-24T08:13:39Z</time>
      </trkpt>
      <trkpt lat="44.84295" lon="4.76912">
        <ele>382</ele>
        <time>2010-04-24T08:13:45Z</time>
      </trkpt>
      <trkpt lat="44.84295" lon="4.76914">
        <ele>382</ele>
        <time>2010-04-24T08:13:46Z</time>
      </trkpt>
      <trkpt lat="44.84295" lon="4.76942">
        <ele>383</ele>
        <time>2010-04-24T08:13:54Z</time>
      </trkpt>
      <trkpt lat="44.84295" lon="4.76961">
        <ele>383</ele>
        <time>2010-04-24T08:14:00Z</time>
      </trkpt>
      <trkpt lat="44.84293" lon="4.76979">
        <ele>385</ele>
        <time>2010-04-24T08:14:07Z</time>
      </trkpt>
      <trkpt lat="44.84289" lon="4.77001">
        <ele>386</ele>
        <time>2010-04-24T08:14:15Z</time>
      </trkpt>
      <trkpt lat="44.84284" lon="4.77021">
        <ele>387</ele>
        <time>2010-04-24T08:14:22Z</time>
      </trkpt>
      <trkpt lat="44.8428" lon="4.77041">
        <ele>387</ele>
        <time>2010-04-24T08:14:29Z</time>
      </trkpt>
      <trkpt lat="44.84275" lon="4.77065">
        <ele>388</ele>
        <time>2010-04-24T08:14:37Z</time>
      </trkpt>
      <trkpt lat="44.84273" lon="4.77087">
        <ele>389</ele>
        <time>2010-04-24T08:14:44Z</time>
      </trkpt>
      <trkpt lat="44.84281" lon="4.77104">
        <ele>390</ele>
        <time>2010-04-24T08:14:50Z</time>
      </trkpt>
      <trkpt lat="44.84297" lon="4.77109">
        <ele>391</ele>
        <time>2010-04-24T08:14:57Z</time>
      </trkpt>
      <trkpt lat="44.8431" lon="4.77099">
        <ele>392</ele>
        <time>2010-04-24T08:15:03Z</time>
      </trkpt>
      <trkpt lat="44.84326" lon="4.77079">
        <ele>393</ele>
        <time>2010-04-24T08:15:12Z</time>
      </trkpt>
      <trkpt lat="44.84339" lon="4.7706">
        <ele>393</ele>
        <time>2010-04-24T08:15:20Z</time>
      </trkpt>
      <trkpt lat="44.84353" lon="4.77044">
        <ele>395</ele>
        <time>2010-04-24T08:15:28Z</time>
      </trkpt>
      <trkpt lat="44.84371" lon="4.77027">
        <ele>396</ele>
        <time>2010-04-24T08:15:37Z</time>
      </trkpt>
      <trkpt lat="44.84389" lon="4.77014">
        <ele>397</ele>
        <time>2010-04-24T08:15:46Z</time>
      </trkpt>
      <trkpt lat="44.84403" lon="4.77003">
        <ele>398</ele>
        <time>2010-04-24T08:15:53Z</time>
      </trkpt>
      <trkpt lat="44.84422" lon="4.76989">
        <ele>399</ele>
        <time>2010-04-24T08:16:02Z</time>
      </trkpt>
      <trkpt lat="44.8444" lon="4.76981">
        <ele>400</ele>
        <time>2010-04-24T08:16:10Z</time>
      </trkpt>
      <trkpt lat="44.84459" lon="4.76966">
        <ele>401</ele>
        <time>2010-04-24T08:16:19Z</time>
      </trkpt>
      <trkpt lat="44.84472" lon="4.76953">
        <ele>401</ele>
        <time>2010-04-24T08:16:26Z</time>
      </trkpt>
      <trkpt lat="44.84491" lon="4.76935">
        <ele>402</ele>
        <time>2010-04-24T08:16:36Z</time>
      </trkpt>
      <trkpt lat="44.84508" lon="4.76923">
        <ele>404</ele>
        <time>2010-04-24T08:16:44Z</time>
      </trkpt>
      <trkpt lat="44.84526" lon="4.7691">
        <ele>405</ele>
        <time>2010-04-24T08:16:53Z</time>
      </trkpt>
      <trkpt lat="44.84539" lon="4.76898">
        <ele>406</ele>
        <time>2010-04-24T08:17:00Z</time>
      </trkpt>
      <trkpt lat="44.84556" lon="4.76879">
        <ele>407</ele>
        <time>2010-04-24T08:17:10Z</time>
      </trkpt>
      <trkpt lat="44.84568" lon="4.76862">
        <ele>408</ele>
        <time>2010-04-24T08:17:18Z</time>
      </trkpt>
      <trkpt lat="44.84579" lon="4.76844">
        <ele>409</ele>
        <time>2010-04-24T08:17:26Z</time>
      </trkpt>
      <trkpt lat="44.8459" lon="4.76823">
        <ele>409</ele>
        <time>2010-04-24T08:17:34Z</time>
      </trkpt>
      <trkpt lat="44.84599" lon="4.76801">
        <ele>410</ele>
        <time>2010-04-24T08:17:42Z</time>
      </trkpt>
      <trkpt lat="44.84612" lon="4.76779">
        <ele>412</ele>
        <time>2010-04-24T08:17:51Z</time>
      </trkpt>
      <trkpt lat="44.84616" lon="4.76775">
        <ele>412</ele>
        <time>2010-04-24T08:17:53Z</time>
      </trkpt>
      <trkpt lat="44.84624" lon="4.76769">
        <ele>413</ele>
        <time>2010-04-24T08:17:59Z</time>
      </trkpt>
      <trkpt lat="44.84634" lon="4.76772">
        <ele>414</ele>
        <time>2010-04-24T08:18:05Z</time>
      </trkpt>
      <trkpt lat="44.84636" lon="4.76776">
        <ele>414</ele>
        <time>2010-04-24T08:18:07Z</time>
      </trkpt>
      <trkpt lat="44.84642" lon="4.7679">
        <ele>415</ele>
        <time>2010-04-24T08:18:14Z</time>
      </trkpt>
      <trkpt lat="44.84646" lon="4.76806">
        <ele>416</ele>
        <time>2010-04-24T08:18:20Z</time>
      </trkpt>
      <trkpt lat="44.84658" lon="4.76821">
        <ele>417</ele>
        <time>2010-04-24T08:18:27Z</time>
      </trkpt>
      <trkpt lat="44.84677" lon="4.76835">
        <ele>418</ele>
        <time>2010-04-24T08:18:37Z</time>
      </trkpt>
      <trkpt lat="44.84693" lon="4.76853">
        <ele>419</ele>
        <time>2010-04-24T08:18:47Z</time>
      </trkpt>
      <trkpt lat="44.84709" lon="4.76864">
        <ele>420</ele>
        <time>2010-04-24T08:18:55Z</time>
      </trkpt>
      <trkpt lat="44.84718" lon="4.76878">
        <ele>421</ele>
        <time>2010-04-24T08:19:01Z</time>
      </trkpt>
      <trkpt lat="44.84714" lon="4.76889">
        <ele>422</ele>
        <time>2010-04-24T08:19:06Z</time>
      </trkpt>
      <trkpt lat="44.84704" lon="4.76895">
        <ele>422</ele>
        <time>2010-04-24T08:19:12Z</time>
      </trkpt>
      <trkpt lat="44.84687" lon="4.76902">
        <ele>423</ele>
        <time>2010-04-24T08:19:21Z</time>
      </trkpt>
      <trkpt lat="44.84672" lon="4.76913">
        <ele>424</ele>
        <time>2010-04-24T08:19:29Z</time>
      </trkpt>
      <trkpt lat="44.84661" lon="4.76928">
        <ele>425</ele>
        <time>2010-04-24T08:19:36Z</time>
      </trkpt>
      <trkpt lat="44.84652" lon="4.76953">
        <ele>426</ele>
        <time>2010-04-24T08:19:45Z</time>
      </trkpt>
      <trkpt lat="44.84645" lon="4.76984">
        <ele>428</ele>
        <time>2010-04-24T08:19:56Z</time>
      </trkpt>
      <trkpt lat="44.84642" lon="4.77009">
        <ele>429</ele>
        <time>2010-04-24T08:20:04Z</time>
      </trkpt>
      <trkpt lat="44.84637" lon="4.77033">
        <ele>430</ele>
        <time>2010-04-24T08:20:12Z</time>
      </trkpt>
      <trkpt lat="44.84632" lon="4.77057">
        <ele>431</ele>
        <time>2010-04-24T08:20:20Z</time>
      </trkpt>
      <trkpt lat="44.84629" lon="4.77079">
        <ele>432</ele>
        <time>2010-04-24T08:20:27Z</time>
      </trkpt>
      <trkpt lat="44.8462" lon="4.77096">
        <ele>433</ele>
        <time>2010-04-24T08:20:34Z</time>
      </trkpt>
      <trkpt lat="44.84612" lon="4.77107">
        <ele>433</ele>
        <time>2010-04-24T08:20:39Z</time>
      </trkpt>
      <trkpt lat="44.84602" lon="4.77126">
        <ele>434</ele>
        <time>2010-04-24T08:20:47Z</time>
      </trkpt>
      <trkpt lat="44.8459" lon="4.77149">
        <ele>436</ele>
        <time>2010-04-24T08:20:56Z</time>
      </trkpt>
      <trkpt lat="44.8458" lon="4.7717">
        <ele>437</ele>
        <time>2010-04-24T08:21:05Z</time>
      </trkpt>
      <trkpt lat="44.84568" lon="4.77191">
        <ele>438</ele>
        <time>2010-04-24T08:21:14Z</time>
      </trkpt>
      <trkpt lat="44.84555" lon="4.77216">
        <ele>439</ele>
        <time>2010-04-24T08:21:24Z</time>
      </trkpt>
      <trkpt lat="44.84555" lon="4.7724">
        <ele>440</ele>
        <time>2010-04-24T08:21:31Z</time>
      </trkpt>
      <trkpt lat="44.8456" lon="4.77265">
        <ele>441</ele>
        <time>2010-04-24T08:21:39Z</time>
      </trkpt>
      <trkpt lat="44.84565" lon="4.77289">
        <ele>442</ele>
        <time>2010-04-24T08:21:47Z</time>
      </trkpt>
      <trkpt lat="44.84567" lon="4.77314">
        <ele>443</ele>
        <time>2010-04-24T08:21:55Z</time>
      </trkpt>
      <trkpt lat="44.84564" lon="4.77338">
        <ele>444</ele>
        <time>2010-04-24T08:22:03Z</time>
      </trkpt>
      <trkpt lat="44.84558" lon="4.77361">
        <ele>445</ele>
        <time>2010-04-24T08:22:11Z</time>
      </trkpt>
      <trkpt lat="44.84558" lon="4.77387">
        <ele>447</ele>
        <time>2010-04-24T08:22:19Z</time>
      </trkpt>
      <trkpt lat="44.84567" lon="4.77399">
        <ele>448</ele>
        <time>2010-04-24T08:22:24Z</time>
      </trkpt>
      <trkpt lat="44.84581" lon="4.77402">
        <ele>448</ele>
        <time>2010-04-24T08:22:30Z</time>
      </trkpt>
      <trkpt lat="44.84602" lon="4.77398">
        <ele>449</ele>
        <time>2010-04-24T08:22:39Z</time>
      </trkpt>
      <trkpt lat="44.84621" lon="4.77388">
        <ele>451</ele>
        <time>2010-04-24T08:22:48Z</time>
      </trkpt>
      <trkpt lat="44.84644" lon="4.77375">
        <ele>452</ele>
        <time>2010-04-24T08:22:59Z</time>
      </trkpt>
      <trkpt lat="44.84665" lon="4.77364">
        <ele>453</ele>
        <time>2010-04-24T08:23:09Z</time>
      </trkpt>
      <trkpt lat="44.84686" lon="4.77352">
        <ele>454</ele>
        <time>2010-04-24T08:23:19Z</time>
      </trkpt>
      <trkpt lat="44.84702" lon="4.77344">
        <ele>455</ele>
        <time>2010-04-24T08:23:26Z</time>
      </trkpt>
      <trkpt lat="44.8472" lon="4.77328">
        <ele>456</ele>
        <time>2010-04-24T08:23:35Z</time>
      </trkpt>
      <trkpt lat="44.84736" lon="4.77312">
        <ele>457</ele>
        <time>2010-04-24T08:23:43Z</time>
      </trkpt>
      <trkpt lat="44.84753" lon="4.7729">
        <ele>458</ele>
        <time>2010-04-24T08:23:53Z</time>
      </trkpt>
      <trkpt lat="44.84765" lon="4.77268">
        <ele>460</ele>
        <time>2010-04-24T08:24:02Z</time>
      </trkpt>
      <trkpt lat="44.84781" lon="4.77238">
        <ele>461</ele>
        <time>2010-04-24T08:24:13Z</time>
      </trkpt>
      <trkpt lat="44.84794" lon="4.77212">
        <ele>462</ele>
        <time>2010-04-24T08:24:23Z</time>
      </trkpt>
      <trkpt lat="44.84806" lon="4.77197">
        <ele>463</ele>
        <time>2010-04-24T08:24:30Z</time>
      </trkpt>
      <trkpt lat="44.84819" lon="4.77187">
        <ele>464</ele>
        <time>2010-04-24T08:24:37Z</time>
      </trkpt>
      <trkpt lat="44.8484" lon="4.77175">
        <ele>465</ele>
        <time>2010-04-24T08:24:46Z</time>
      </trkpt>
      <trkpt lat="44.84854" lon="4.77177">
        <ele>466</ele>
        <time>2010-04-24T08:24:52Z</time>
      </trkpt>
      <trkpt lat="44.84869" lon="4.77192">
        <ele>467</ele>
        <time>2010-04-24T08:25:00Z</time>
      </trkpt>
      <trkpt lat="44.84886" lon="4.77211">
        <ele>468</ele>
        <time>2010-04-24T08:25:09Z</time>
      </trkpt>
      <trkpt lat="44.84903" lon="4.77221">
        <ele>469</ele>
        <time>2010-04-24T08:25:16Z</time>
      </trkpt>
      <trkpt lat="44.84925" lon="4.7723">
        <ele>470</ele>
        <time>2010-04-24T08:25:25Z</time>
      </trkpt>
      <trkpt lat="44.8495" lon="4.77244">
        <ele>472</ele>
        <time>2010-04-24T08:25:36Z</time>
      </trkpt>
      <trkpt lat="44.84974" lon="4.77262">
        <ele>473</ele>
        <time>2010-04-24T08:25:47Z</time>
      </trkpt>
      <trkpt lat="44.84992" lon="4.77277">
        <ele>474</ele>
        <time>2010-04-24T08:25:56Z</time>
      </trkpt>
      <trkpt lat="44.85003" lon="4.77287">
        <ele>474</ele>
        <time>2010-04-24T08:26:03Z</time>
      </trkpt>
      <trkpt lat="44.85008" lon="4.77291">
        <ele>474</ele>
        <time>2010-04-24T08:26:09Z</time>
      </trkpt>
      <trkpt lat="44.8501" lon="4.77272">
        <ele>475</ele>
        <time>2010-04-24T08:28:31Z</time>
      </trkpt>
      <trkpt lat="44.85013" lon="4.77245">
        <ele>476</ele>
        <time>2010-04-24T08:28:40Z</time>
      </trkpt>
      <trkpt lat="44.85016" lon="4.77223">
        <ele>476</ele>
        <time>2010-04-24T08:28:48Z</time>
      </trkpt>
      <trkpt lat="44.85018" lon="4.77202">
        <ele>477</ele>
        <time>2010-04-24T08:28:56Z</time>
      </trkpt>
      <trkpt lat="44.85021" lon="4.77176">
        <ele>479</ele>
        <time>2010-04-24T08:29:06Z</time>
      </trkpt>
      <trkpt lat="44.85023" lon="4.77161">
        <ele>480</ele>
        <time>2010-04-24T08:29:13Z</time>
      </trkpt>
      <trkpt lat="44.85024" lon="4.77146">
        <ele>480</ele>
        <time>2010-04-24T08:29:20Z</time>
      </trkpt>
      <trkpt lat="44.85025" lon="4.77129">
        <ele>481</ele>
        <time>2010-04-24T08:29:28Z</time>
      </trkpt>
      <trkpt lat="44.85027" lon="4.77106">
        <ele>483</ele>
        <time>2010-04-24T08:29:39Z</time>
      </trkpt>
      <trkpt lat="44.85028" lon="4.7709">
        <ele>484</ele>
        <time>2010-04-24T08:29:47Z</time>
      </trkpt>
      <trkpt lat="44.85027" lon="4.77074">
        <ele>486</ele>
        <time>2010-04-24T08:29:54Z</time>
      </trkpt>
      <trkpt lat="44.85027" lon="4.77072">
        <ele>486</ele>
        <time>2010-04-24T08:29:55Z</time>
      </trkpt>
      <trkpt lat="44.85028" lon="4.7706">
        <ele>488</ele>
        <time>2010-04-24T08:30:01Z</time>
      </trkpt>
      <trkpt lat="44.85028" lon="4.77051">
        <ele>489</ele>
        <time>2010-04-24T08:30:06Z</time>
      </trkpt>
      <trkpt lat="44.85026" lon="4.77032">
        <ele>490</ele>
        <time>2010-04-24T08:30:15Z</time>
      </trkpt>
      <trkpt lat="44.85024" lon="4.77021">
        <ele>491</ele>
        <time>2010-04-24T08:30:21Z</time>
      </trkpt>
      <trkpt lat="44.85023" lon="4.77008">
        <ele>492</ele>
        <time>2010-04-24T08:30:28Z</time>
      </trkpt>
      <trkpt lat="44.85022" lon="4.7699">
        <ele>494</ele>
        <time>2010-04-24T08:30:37Z</time>
      </trkpt>
      <trkpt lat="44.85023" lon="4.76977">
        <ele>495</ele>
        <time>2010-04-24T08:30:44Z</time>
      </trkpt>
      <trkpt lat="44.85024" lon="4.76969">
        <ele>495</ele>
        <time>2010-04-24T08:30:48Z</time>
      </trkpt>
      <trkpt lat="44.85025" lon="4.76959">
        <ele>496</ele>
        <time>2010-04-24T08:30:53Z</time>
      </trkpt>
      <trkpt lat="44.85027" lon="4.76942">
        <ele>498</ele>
        <time>2010-04-24T08:31:01Z</time>
      </trkpt>
      <trkpt lat="44.85028" lon="4.76924">
        <ele>499</ele>
        <time>2010-04-24T08:31:09Z</time>
      </trkpt>
      <trkpt lat="44.85033" lon="4.76904">
        <ele>501</ele>
        <time>2010-04-24T08:31:18Z</time>
      </trkpt>
      <trkpt lat="44.85034" lon="4.76884">
        <ele>504</ele>
        <time>2010-04-24T08:31:26Z</time>
      </trkpt>
      <trkpt lat="44.85037" lon="4.76867">
        <ele>505</ele>
        <time>2010-04-24T08:31:34Z</time>
      </trkpt>
      <trkpt lat="44.8504" lon="4.7685">
        <ele>508</ele>
        <time>2010-04-24T08:31:42Z</time>
      </trkpt>
      <trkpt lat="44.85043" lon="4.7684">
        <ele>509</ele>
        <time>2010-04-24T08:31:48Z</time>
      </trkpt>
      <trkpt lat="44.85045" lon="4.76826">
        <ele>511</ele>
        <time>2010-04-24T08:31:55Z</time>
      </trkpt>
      <trkpt lat="44.85047" lon="4.7681">
        <ele>512</ele>
        <time>2010-04-24T08:32:03Z</time>
      </trkpt>
      <trkpt lat="44.85047" lon="4.76789">
        <ele>513</ele>
        <time>2010-04-24T08:32:12Z</time>
      </trkpt>
      <trkpt lat="44.85045" lon="4.76767">
        <ele>514</ele>
        <time>2010-04-24T08:32:21Z</time>
      </trkpt>
      <trkpt lat="44.85042" lon="4.76744">
        <ele>516</ele>
        <time>2010-04-24T08:32:27Z</time>
      </trkpt>
      <trkpt lat="44.85043" lon="4.76717">
        <ele>517</ele>
        <time>2010-04-24T08:32:33Z</time>
      </trkpt>
      <trkpt lat="44.8505" lon="4.76697">
        <ele>519</ele>
        <time>2010-04-24T08:32:38Z</time>
      </trkpt>
      <trkpt lat="44.8506" lon="4.76677">
        <ele>521</ele>
        <time>2010-04-24T08:32:44Z</time>
      </trkpt>
      <trkpt lat="44.85068" lon="4.76659">
        <ele>523</ele>
        <time>2010-04-24T08:32:50Z</time>
      </trkpt>
      <trkpt lat="44.85075" lon="4.7664">
        <ele>525</ele>
        <time>2010-04-24T08:32:57Z</time>
      </trkpt>
      <trkpt lat="44.85082" lon="4.76617">
        <ele>528</ele>
        <time>2010-04-24T08:33:04Z</time>
      </trkpt>
      <trkpt lat="44.85091" lon="4.7659">
        <ele>529</ele>
        <time>2010-04-24T08:33:11Z</time>
      </trkpt>
      <trkpt lat="44.85098" lon="4.76567">
        <ele>531</ele>
        <time>2010-04-24T08:33:18Z</time>
      </trkpt>
      <trkpt lat="44.85106" lon="4.76547">
        <ele>533</ele>
        <time>2010-04-24T08:33:26Z</time>
      </trkpt>
      <trkpt lat="44.85109" lon="4.76535">
        <ele>535</ele>
        <time>2010-04-24T08:33:31Z</time>
      </trkpt>
      <trkpt lat="44.85116" lon="4.76521">
        <ele>536</ele>
        <time>2010-04-24T08:33:38Z</time>
      </trkpt>
      <trkpt lat="44.85122" lon="4.76509">
        <ele>539</ele>
        <time>2010-04-24T08:33:44Z</time>
      </trkpt>
      <trkpt lat="44.85125" lon="4.76505">
        <ele>540</ele>
        <time>2010-04-24T08:33:46Z</time>
      </trkpt>
      <trkpt lat="44.85126" lon="4.76502">
        <ele>541</ele>
        <time>2010-04-24T08:33:50Z</time>
      </trkpt>
      <trkpt lat="44.85135" lon="4.76492">
        <ele>543</ele>
        <time>2010-04-24T08:34:01Z</time>
      </trkpt>
      <trkpt lat="44.85137" lon="4.76483">
        <ele>544</ele>
        <time>2010-04-24T08:34:05Z</time>
      </trkpt>
      <trkpt lat="44.85141" lon="4.76465">
        <ele>547</ele>
        <time>2010-04-24T08:34:13Z</time>
      </trkpt>
      <trkpt lat="44.8514" lon="4.76453">
        <ele>548</ele>
        <time>2010-04-24T08:34:20Z</time>
      </trkpt>
      <trkpt lat="44.85141" lon="4.76452">
        <ele>548</ele>
        <time>2010-04-24T08:34:22Z</time>
      </trkpt>
      <trkpt lat="44.85151" lon="4.76446">
        <ele>549</ele>
        <time>2010-04-24T08:37:23Z</time>
      </trkpt>
      <trkpt lat="44.85161" lon="4.76443">
        <ele>551</ele>
        <time>2010-04-24T08:37:29Z</time>
      </trkpt>
      <trkpt lat="44.85173" lon="4.76433">
        <ele>552</ele>
        <time>2010-04-24T08:37:36Z</time>
      </trkpt>
      <trkpt lat="44.85183" lon="4.76421">
        <ele>554</ele>
        <time>2010-04-24T08:37:44Z</time>
      </trkpt>
      <trkpt lat="44.8519" lon="4.76406">
        <ele>556</ele>
        <time>2010-04-24T08:37:51Z</time>
      </trkpt>
      <trkpt lat="44.85198" lon="4.76389">
        <ele>558</ele>
        <time>2010-04-24T08:37:59Z</time>
      </trkpt>
      <trkpt lat="44.85207" lon="4.76377">
        <ele>560</ele>
        <time>2010-04-24T08:38:06Z</time>
      </trkpt>
      <trkpt lat="44.85217" lon="4.76363">
        <ele>561</ele>
        <time>2010-04-24T08:38:14Z</time>
      </trkpt>
      <trkpt lat="44.85229" lon="4.76348">
        <ele>563</ele>
        <time>2010-04-24T08:38:23Z</time>
      </trkpt>
      <trkpt lat="44.85246" lon="4.76333">
        <ele>565</ele>
        <time>2010-04-24T08:38:34Z</time>
      </trkpt>
      <trkpt lat="44.85256" lon="4.76324">
        <ele>566</ele>
        <time>2010-04-24T08:38:40Z</time>
      </trkpt>
      <trkpt lat="44.8527" lon="4.76314">
        <ele>567</ele>
        <time>2010-04-24T08:38:48Z</time>
      </trkpt>
      <trkpt lat="44.85286" lon="4.76302">
        <ele>569</ele>
        <time>2010-04-24T08:38:57Z</time>
      </trkpt>
      <trkpt lat="44.85298" lon="4.76289">
        <ele>570</ele>
        <time>2010-04-24T08:39:05Z</time>
      </trkpt>
      <trkpt lat="44.85314" lon="4.76277">
        <ele>571</ele>
        <time>2010-04-24T08:39:14Z</time>
      </trkpt>
      <trkpt lat="44.85329" lon="4.76271">
        <ele>573</ele>
        <time>2010-04-24T08:39:22Z</time>
      </trkpt>
      <trkpt lat="44.85343" lon="4.76266">
        <ele>575</ele>
        <time>2010-04-24T08:39:29Z</time>
      </trkpt>
      <trkpt lat="44.8536" lon="4.76257">
        <ele>576</ele>
        <time>2010-04-24T08:39:38Z</time>
      </trkpt>
      <trkpt lat="44.85374" lon="4.76249">
        <ele>577</ele>
        <time>2010-04-24T08:39:46Z</time>
      </trkpt>
      <trkpt lat="44.85388" lon="4.76236">
        <ele>578</ele>
        <time>2010-04-24T08:39:54Z</time>
      </trkpt>
      <trkpt lat="44.85399" lon="4.7622">
        <ele>578</ele>
        <time>2010-04-24T08:40:02Z</time>
      </trkpt>
      <trkpt lat="44.85406" lon="4.76211">
        <ele>578</ele>
        <time>2010-04-24T08:40:06Z</time>
      </trkpt>
      <trkpt lat="44.85415" lon="4.76194">
        <ele>578</ele>
        <time>2010-04-24T08:40:13Z</time>
      </trkpt>
      <trkpt lat="44.85426" lon="4.76175">
        <ele>579</ele>
        <time>2010-04-24T08:40:20Z</time>
      </trkpt>
      <trkpt lat="44.85436" lon="4.76155">
        <ele>579</ele>
        <time>2010-04-24T08:40:27Z</time>
      </trkpt>
      <trkpt lat="44.85446" lon="4.76131">
        <ele>580</ele>
        <time>2010-04-24T08:40:35Z</time>
      </trkpt>
      <trkpt lat="44.85459" lon="4.76103">
        <ele>581</ele>
        <time>2010-04-24T08:40:44Z</time>
      </trkpt>
      <trkpt lat="44.85475" lon="4.76076">
        <ele>582</ele>
        <time>2010-04-24T08:40:53Z</time>
      </trkpt>
      <trkpt lat="44.85494" lon="4.76044">
        <ele>582</ele>
        <time>2010-04-24T08:41:04Z</time>
      </trkpt>
      <trkpt lat="44.8551" lon="4.76017">
        <ele>584</ele>
        <time>2010-04-24T08:41:14Z</time>
      </trkpt>
      <trkpt lat="44.85523" lon="4.75992">
        <ele>584</ele>
        <time>2010-04-24T08:41:23Z</time>
      </trkpt>
      <trkpt lat="44.85532" lon="4.75968">
        <ele>586</ele>
        <time>2010-04-24T08:41:31Z</time>
      </trkpt>
      <trkpt lat="44.85544" lon="4.75947">
        <ele>587</ele>
        <time>2010-04-24T08:41:39Z</time>
      </trkpt>
      <trkpt lat="44.85558" lon="4.75931">
        <ele>588</ele>
        <time>2010-04-24T08:41:46Z</time>
      </trkpt>
      <trkpt lat="44.85579" lon="4.75922">
        <ele>588</ele>
        <time>2010-04-24T08:41:54Z</time>
      </trkpt>
      <trkpt lat="44.85591" lon="4.75919">
        <ele>588</ele>
        <time>2010-04-24T08:41:57Z</time>
      </trkpt>
      <trkpt lat="44.85611" lon="4.75901">
        <ele>584</ele>
        <time>2010-04-24T08:42:01Z</time>
      </trkpt>
      <trkpt lat="44.85629" lon="4.75865">
        <ele>581</ele>
        <time>2010-04-24T08:42:05Z</time>
      </trkpt>
      <trkpt lat="44.85631" lon="4.75855">
        <ele>580</ele>
        <time>2010-04-24T08:42:06Z</time>
      </trkpt>
      <trkpt lat="44.85633" lon="4.75844">
        <ele>579</ele>
        <time>2010-04-24T08:42:07Z</time>
      </trkpt>
      <trkpt lat="44.8564" lon="4.75785">
        <ele>571</ele>
        <time>2010-04-24T08:42:12Z</time>
      </trkpt>
      <trkpt lat="44.85652" lon="4.75762">
        <ele>567</ele>
        <time>2010-04-24T08:42:15Z</time>
      </trkpt>
      <trkpt lat="44.85658" lon="4.75758">
        <ele>565</ele>
        <time>2010-04-24T08:42:16Z</time>
      </trkpt>
      <trkpt lat="44.85703" lon="4.75731">
        <ele>558</ele>
        <time>2010-04-24T08:42:23Z</time>
      </trkpt>
      <trkpt lat="44.8571" lon="4.75725">
        <ele>558</ele>
        <time>2010-04-24T08:42:24Z</time>
      </trkpt>
      <trkpt lat="44.85739" lon="4.75701">
        <ele>556</ele>
        <time>2010-04-24T08:42:28Z</time>
      </trkpt>
      <trkpt lat="44.85761" lon="4.75666">
        <ele>553</ele>
        <time>2010-04-24T08:42:32Z</time>
      </trkpt>
      <trkpt lat="44.85771" lon="4.75644">
        <ele>552</ele>
        <time>2010-04-24T08:42:34Z</time>
      </trkpt>
      <trkpt lat="44.85779" lon="4.75597">
        <ele>551</ele>
        <time>2010-04-24T08:42:38Z</time>
      </trkpt>
      <trkpt lat="44.85777" lon="4.75575">
        <ele>549</ele>
        <time>2010-04-24T08:42:40Z</time>
      </trkpt>
      <trkpt lat="44.85772" lon="4.75554">
        <ele>548</ele>
        <time>2010-04-24T08:42:42Z</time>
      </trkpt>
      <trkpt lat="44.8577" lon="4.75543">
        <ele>547</ele>
        <time>2010-04-24T08:42:43Z</time>
      </trkpt>
      <trkpt lat="44.85766" lon="4.75507">
        <ele>545</ele>
        <time>2010-04-24T08:42:47Z</time>
      </trkpt>
      <trkpt lat="44.85766" lon="4.75501">
        <ele>545</ele>
        <time>2010-04-24T08:42:48Z</time>
      </trkpt>
      <trkpt lat="44.85764" lon="4.75492">
        <ele>544</ele>
        <time>2010-04-24T08:42:51Z</time>
      </trkpt>
      <trkpt lat="44.85759" lon="4.75481">
        <ele>543</ele>
        <time>2010-04-24T08:42:56Z</time>
      </trkpt>
      <trkpt lat="44.85759" lon="4.75475">
        <ele>543</ele>
        <time>2010-04-24T08:43:01Z</time>
      </trkpt>
      <trkpt lat="44.85761" lon="4.75474">
        <ele>543</ele>
        <time>2010-04-24T08:43:25Z</time>
      </trkpt>
      <trkpt lat="44.85769" lon="4.75477">
        <ele>543</ele>
        <time>2010-04-24T08:45:59Z</time>
      </trkpt>
      <trkpt lat="44.85768" lon="4.75476">
        <ele>543</ele>
        <time>2010-04-24T08:47:27Z</time>
      </trkpt>
      <trkpt lat="44.85776" lon="4.7548">
        <ele>543</ele>
        <time>2010-04-24T08:47:40Z</time>
      </trkpt>
      <trkpt lat="44.85774" lon="4.75474">
        <ele>543</ele>
        <time>2010-04-24T09:00:14Z</time>
      </trkpt>
      <trkpt lat="44.85761" lon="4.7547">
        <ele>543</ele>
        <time>2010-04-24T09:00:20Z</time>
      </trkpt>
      <trkpt lat="44.85752" lon="4.75455">
        <ele>544</ele>
        <time>2010-04-24T09:00:26Z</time>
      </trkpt>
      <trkpt lat="44.85751" lon="4.75437">
        <ele>545</ele>
        <time>2010-04-24T09:00:32Z</time>
      </trkpt>
      <trkpt lat="44.8575" lon="4.75419">
        <ele>546</ele>
        <time>2010-04-24T09:00:39Z</time>
      </trkpt>
      <trkpt lat="44.85748" lon="4.75391">
        <ele>547</ele>
        <time>2010-04-24T09:00:47Z</time>
      </trkpt>
      <trkpt lat="44.85751" lon="4.75353">
        <ele>549</ele>
        <time>2010-04-24T09:00:57Z</time>
      </trkpt>
      <trkpt lat="44.85754" lon="4.75324">
        <ele>549</ele>
        <time>2010-04-24T09:01:04Z</time>
      </trkpt>
      <trkpt lat="44.85756" lon="4.75302">
        <ele>551</ele>
        <time>2010-04-24T09:01:11Z</time>
      </trkpt>
      <trkpt lat="44.85758" lon="4.75287">
        <ele>553</ele>
        <time>2010-04-24T09:01:16Z</time>
      </trkpt>
      <trkpt lat="44.85757" lon="4.75282">
        <ele>553</ele>
        <time>2010-04-24T09:01:18Z</time>
      </trkpt>
      <trkpt lat="44.8576" lon="4.75266">
        <ele>555</ele>
        <time>2010-04-24T09:01:24Z</time>
      </trkpt>
      <trkpt lat="44.85761" lon="4.75251">
        <ele>556</ele>
        <time>2010-04-24T09:01:30Z</time>
      </trkpt>
      <trkpt lat="44.85762" lon="4.75226">
        <ele>557</ele>
        <time>2010-04-24T09:01:38Z</time>
      </trkpt>
      <trkpt lat="44.8576" lon="4.75206">
        <ele>558</ele>
        <time>2010-04-24T09:01:44Z</time>
      </trkpt>
      <trkpt lat="44.85757" lon="4.75174">
        <ele>560</ele>
        <time>2010-04-24T09:01:53Z</time>
      </trkpt>
      <trkpt lat="44.85752" lon="4.75148">
        <ele>562</ele>
        <time>2010-04-24T09:02:00Z</time>
      </trkpt>
      <trkpt lat="44.8574" lon="4.75109">
        <ele>563</ele>
        <time>2010-04-24T09:02:11Z</time>
      </trkpt>
      <trkpt lat="44.85731" lon="4.75088">
        <ele>564</ele>
        <time>2010-04-24T09:02:16Z</time>
      </trkpt>
      <trkpt lat="44.8572" lon="4.75061">
        <ele>568</ele>
        <time>2010-04-24T09:02:23Z</time>
      </trkpt>
      <trkpt lat="44.85706" lon="4.75041">
        <ele>569</ele>
        <time>2010-04-24T09:02:31Z</time>
      </trkpt>
      <trkpt lat="44.85695" lon="4.7502">
        <ele>571</ele>
        <time>2010-04-24T09:02:39Z</time>
      </trkpt>
      <trkpt lat="44.85691" lon="4.75004">
        <ele>572</ele>
        <time>2010-04-24T09:02:45Z</time>
      </trkpt>
      <trkpt lat="44.85689" lon="4.74996">
        <ele>573</ele>
        <time>2010-04-24T09:02:51Z</time>
      </trkpt>
      <trkpt lat="44.85696" lon="4.7497">
        <ele>573</ele>
        <time>2010-04-24T09:05:00Z</time>
      </trkpt>
      <trkpt lat="44.85709" lon="4.74963">
        <ele>575</ele>
        <time>2010-04-24T09:05:06Z</time>
      </trkpt>
      <trkpt lat="44.85721" lon="4.74956">
        <ele>576</ele>
        <time>2010-04-24T09:05:13Z</time>
      </trkpt>
      <trkpt lat="44.85728" lon="4.74952">
        <ele>578</ele>
        <time>2010-04-24T09:05:17Z</time>
      </trkpt>
      <trkpt lat="44.85736" lon="4.74953">
        <ele>580</ele>
        <time>2010-04-24T09:05:23Z</time>
      </trkpt>
      <trkpt lat="44.85736" lon="4.74953">
        <ele>580</ele>
        <time>2010-04-24T09:05:24Z</time>
      </trkpt>
      <trkpt lat="44.85742" lon="4.74968">
        <ele>581</ele>
        <time>2010-04-24T09:05:48Z</time>
      </trkpt>
      <trkpt lat="44.85753" lon="4.74975">
        <ele>582</ele>
        <time>2010-04-24T09:05:54Z</time>
      </trkpt>
      <trkpt lat="44.85763" lon="4.74976">
        <ele>583</ele>
        <time>2010-04-24T09:05:59Z</time>
      </trkpt>
      <trkpt lat="44.85776" lon="4.74975">
        <ele>585</ele>
        <time>2010-04-24T09:06:05Z</time>
      </trkpt>
      <trkpt lat="44.8579" lon="4.74976">
        <ele>586</ele>
        <time>2010-04-24T09:06:12Z</time>
      </trkpt>
      <trkpt lat="44.85806" lon="4.74977">
        <ele>587</ele>
        <time>2010-04-24T09:06:19Z</time>
      </trkpt>
      <trkpt lat="44.8582" lon="4.74979">
        <ele>588</ele>
        <time>2010-04-24T09:06:25Z</time>
      </trkpt>
      <trkpt lat="44.85843" lon="4.74987">
        <ele>588</ele>
        <time>2010-04-24T09:06:33Z</time>
      </trkpt>
      <trkpt lat="44.85871" lon="4.75003">
        <ele>588</ele>
        <time>2010-04-24T09:06:42Z</time>
      </trkpt>
      <trkpt lat="44.85899" lon="4.75028">
        <ele>587</ele>
        <time>2010-04-24T09:06:50Z</time>
      </trkpt>
      <trkpt lat="44.85913" lon="4.7504">
        <ele>585</ele>
        <time>2010-04-24T09:06:55Z</time>
      </trkpt>
      <trkpt lat="44.85925" lon="4.75051">
        <ele>585</ele>
        <time>2010-04-24T09:07:01Z</time>
      </trkpt>
      <trkpt lat="44.85935" lon="4.75059">
        <ele>584</ele>
        <time>2010-04-24T09:07:07Z</time>
      </trkpt>
      <trkpt lat="44.8595" lon="4.75071">
        <ele>583</ele>
        <time>2010-04-24T09:07:15Z</time>
      </trkpt>
      <trkpt lat="44.85961" lon="4.75078">
        <ele>583</ele>
        <time>2010-04-24T09:07:21Z</time>
      </trkpt>
      <trkpt lat="44.85969" lon="4.75086">
        <ele>582</ele>
        <time>2010-04-24T09:07:26Z</time>
      </trkpt>
      <trkpt lat="44.85982" lon="4.75099">
        <ele>581</ele>
        <time>2010-04-24T09:07:32Z</time>
      </trkpt>
      <trkpt lat="44.85999" lon="4.75118">
        <ele>580</ele>
        <time>2010-04-24T09:07:39Z</time>
      </trkpt>
      <trkpt lat="44.86017" lon="4.75138">
        <ele>580</ele>
        <time>2010-04-24T09:07:46Z</time>
      </trkpt>
      <trkpt lat="44.8603" lon="4.7515">
        <ele>580</ele>
        <time>2010-04-24T09:07:52Z</time>
      </trkpt>
      <trkpt lat="44.86047" lon="4.75167">
        <ele>579</ele>
        <time>2010-04-24T09:07:59Z</time>
      </trkpt>
      <trkpt lat="44.86055" lon="4.7519">
        <ele>577</ele>
        <time>2010-04-24T09:08:04Z</time>
      </trkpt>
      <trkpt lat="44.86064" lon="4.75212">
        <ele>574</ele>
        <time>2010-04-24T09:08:09Z</time>
      </trkpt>
      <trkpt lat="44.86066" lon="4.75217">
        <ele>574</ele>
        <time>2010-04-24T09:08:10Z</time>
      </trkpt>
      <trkpt lat="44.86068" lon="4.75226">
        <ele>573</ele>
        <time>2010-04-24T09:08:12Z</time>
      </trkpt>
      <trkpt lat="44.8608" lon="4.75245">
        <ele>571</ele>
        <time>2010-04-24T09:08:16Z</time>
      </trkpt>
      <trkpt lat="44.86092" lon="4.75267">
        <ele>570</ele>
        <time>2010-04-24T09:08:20Z</time>
      </trkpt>
      <trkpt lat="44.86104" lon="4.75283">
        <ele>568</ele>
        <time>2010-04-24T09:08:24Z</time>
      </trkpt>
      <trkpt lat="44.86108" lon="4.75286">
        <ele>567</ele>
        <time>2010-04-24T09:08:28Z</time>
      </trkpt>
      <trkpt lat="44.86113" lon="4.75307">
        <ele>567</ele>
        <time>2010-04-24T09:08:41Z</time>
      </trkpt>
      <trkpt lat="44.8612" lon="4.75315">
        <ele>567</ele>
        <time>2010-04-24T09:08:44Z</time>
      </trkpt>
      <trkpt lat="44.86143" lon="4.75332">
        <ele>567</ele>
        <time>2010-04-24T09:08:53Z</time>
      </trkpt>
      <trkpt lat="44.8616" lon="4.75356">
        <ele>567</ele>
        <time>2010-04-24T09:09:00Z</time>
      </trkpt>
      <trkpt lat="44.86163" lon="4.75361">
        <ele>566</ele>
        <time>2010-04-24T09:09:01Z</time>
      </trkpt>
      <trkpt lat="44.86169" lon="4.75382">
        <ele>564</ele>
        <time>2010-04-24T09:09:04Z</time>
      </trkpt>
      <trkpt lat="44.8618" lon="4.75403">
        <ele>562</ele>
        <time>2010-04-24T09:09:07Z</time>
      </trkpt>
      <trkpt lat="44.86203" lon="4.75439">
        <ele>559</ele>
        <time>2010-04-24T09:09:12Z</time>
      </trkpt>
      <trkpt lat="44.86236" lon="4.75484">
        <ele>555</ele>
        <time>2010-04-24T09:09:19Z</time>
      </trkpt>
      <trkpt lat="44.86259" lon="4.7553">
        <ele>551</ele>
        <time>2010-04-24T09:09:25Z</time>
      </trkpt>
      <trkpt lat="44.86281" lon="4.75563">
        <ele>548</ele>
        <time>2010-04-24T09:09:30Z</time>
      </trkpt>
      <trkpt lat="44.86296" lon="4.75598">
        <ele>542</ele>
        <time>2010-04-24T09:09:35Z</time>
      </trkpt>
      <trkpt lat="44.863" lon="4.75625">
        <ele>537</ele>
        <time>2010-04-24T09:09:39Z</time>
      </trkpt>
      <trkpt lat="44.86298" lon="4.75628">
        <ele>537</ele>
        <time>2010-04-24T09:09:40Z</time>
      </trkpt>
      <trkpt lat="44.86287" lon="4.7563">
        <ele>536</ele>
        <time>2010-04-24T09:09:43Z</time>
      </trkpt>
      <trkpt lat="44.86287" lon="4.75636">
        <ele>535</ele>
        <time>2010-04-24T09:09:45Z</time>
      </trkpt>
      <trkpt lat="44.86292" lon="4.75642">
        <ele>534</ele>
        <time>2010-04-24T09:09:48Z</time>
      </trkpt>
      <trkpt lat="44.86296" lon="4.75645">
        <ele>534</ele>
        <time>2010-04-24T09:09:50Z</time>
      </trkpt>
      <trkpt lat="44.86298" lon="4.75646">
        <ele>534</ele>
        <time>2010-04-24T09:09:53Z</time>
      </trkpt>
      <trkpt lat="44.86305" lon="4.75652">
        <ele>532</ele>
        <time>2010-04-24T09:10:18Z</time>
      </trkpt>
      <trkpt lat="44.86312" lon="4.75657">
        <ele>531</ele>
        <time>2010-04-24T09:10:24Z</time>
      </trkpt>
      <trkpt lat="44.86324" lon="4.75664">
        <ele>529</ele>
        <time>2010-04-24T09:10:28Z</time>
      </trkpt>
      <trkpt lat="44.86329" lon="4.75666">
        <ele>529</ele>
        <time>2010-04-24T09:10:29Z</time>
      </trkpt>
      <trkpt lat="44.86345" lon="4.75679">
        <ele>526</ele>
        <time>2010-04-24T09:10:34Z</time>
      </trkpt>
      <trkpt lat="44.86348" lon="4.75682">
        <ele>525</ele>
        <time>2010-04-24T09:10:35Z</time>
      </trkpt>
      <trkpt lat="44.86371" lon="4.75688">
        <ele>522</ele>
        <time>2010-04-24T09:10:40Z</time>
      </trkpt>
      <trkpt lat="44.86396" lon="4.75699">
        <ele>520</ele>
        <time>2010-04-24T09:10:45Z</time>
      </trkpt>
      <trkpt lat="44.86412" lon="4.75719">
        <ele>518</ele>
        <time>2010-04-24T09:10:51Z</time>
      </trkpt>
      <trkpt lat="44.86416" lon="4.75727">
        <ele>517</ele>
        <time>2010-04-24T09:10:53Z</time>
      </trkpt>
      <trkpt lat="44.86431" lon="4.75768">
        <ele>515</ele>
        <time>2010-04-24T09:11:01Z</time>
      </trkpt>
      <trkpt lat="44.86445" lon="4.75778">
        <ele>515</ele>
        <time>2010-04-24T09:11:06Z</time>
      </trkpt>
      <trkpt lat="44.86456" lon="4.75765">
        <ele>513</ele>
        <time>2010-04-24T09:11:10Z</time>
      </trkpt>
      <trkpt lat="44.86457" lon="4.75758">
        <ele>512</ele>
        <time>2010-04-24T09:11:11Z</time>
      </trkpt>
      <trkpt lat="44.86457" lon="4.75705">
        <ele>508</ele>
        <time>2010-04-24T09:11:17Z</time>
      </trkpt>
      <trkpt lat="44.86457" lon="4.75678">
        <ele>506</ele>
        <time>2010-04-24T09:11:20Z</time>
      </trkpt>
      <trkpt lat="44.86451" lon="4.75644">
        <ele>504</ele>
        <time>2010-04-24T09:11:24Z</time>
      </trkpt>
      <trkpt lat="44.86444" lon="4.75628">
        <ele>503</ele>
        <time>2010-04-24T09:11:26Z</time>
      </trkpt>
      <trkpt lat="44.86429" lon="4.7559">
        <ele>502</ele>
        <time>2010-04-24T09:11:31Z</time>
      </trkpt>
      <trkpt lat="44.8643" lon="4.75564">
        <ele>500</ele>
        <time>2010-04-24T09:11:34Z</time>
      </trkpt>
      <trkpt lat="44.86432" lon="4.75524">
        <ele>496</ele>
        <time>2010-04-24T09:11:38Z</time>
      </trkpt>
      <trkpt lat="44.86436" lon="4.75493">
        <ele>494</ele>
        <time>2010-04-24T09:11:41Z</time>
      </trkpt>
      <trkpt lat="44.8645" lon="4.7545">
        <ele>489</ele>
        <time>2010-04-24T09:11:45Z</time>
      </trkpt>
      <trkpt lat="44.86459" lon="4.75424">
        <ele>487</ele>
        <time>2010-04-24T09:11:48Z</time>
      </trkpt>
      <trkpt lat="44.86468" lon="4.75411">
        <ele>484</ele>
        <time>2010-04-24T09:11:52Z</time>
      </trkpt>
      <trkpt lat="44.86471" lon="4.75414">
        <ele>484</ele>
        <time>2010-04-24T09:11:53Z</time>
      </trkpt>
      <trkpt lat="44.86476" lon="4.75423">
        <ele>482</ele>
        <time>2010-04-24T09:11:55Z</time>
      </trkpt>
      <trkpt lat="44.86481" lon="4.75459">
        <ele>479</ele>
        <time>2010-04-24T09:12:00Z</time>
      </trkpt>
      <trkpt lat="44.86501" lon="4.75496">
        <ele>474</ele>
        <time>2010-04-24T09:12:05Z</time>
      </trkpt>
      <trkpt lat="44.86506" lon="4.75503">
        <ele>474</ele>
        <time>2010-04-24T09:12:06Z</time>
      </trkpt>
      <trkpt lat="44.86521" lon="4.75508">
        <ele>471</ele>
        <time>2010-04-24T09:12:10Z</time>
      </trkpt>
      <trkpt lat="44.86519" lon="4.75489">
        <ele>470</ele>
        <time>2010-04-24T09:12:13Z</time>
      </trkpt>
      <trkpt lat="44.86518" lon="4.75484">
        <ele>469</ele>
        <time>2010-04-24T09:12:14Z</time>
      </trkpt>
      <trkpt lat="44.86533" lon="4.7548">
        <ele>465</ele>
        <time>2010-04-24T09:12:20Z</time>
      </trkpt>
      <trkpt lat="44.86551" lon="4.7549">
        <ele>462</ele>
        <time>2010-04-24T09:12:24Z</time>
      </trkpt>
      <trkpt lat="44.86554" lon="4.75496">
        <ele>461</ele>
        <time>2010-04-24T09:12:25Z</time>
      </trkpt>
      <trkpt lat="44.86587" lon="4.75523">
        <ele>456</ele>
        <time>2010-04-24T09:12:32Z</time>
      </trkpt>
      <trkpt lat="44.86605" lon="4.7551">
        <ele>453</ele>
        <time>2010-04-24T09:12:36Z</time>
      </trkpt>
      <trkpt lat="44.86606" lon="4.75476">
        <ele>451</ele>
        <time>2010-04-24T09:12:39Z</time>
      </trkpt>
      <trkpt lat="44.86603" lon="4.75464">
        <ele>450</ele>
        <time>2010-04-24T09:12:40Z</time>
      </trkpt>
      <trkpt lat="44.86599" lon="4.75443">
        <ele>448</ele>
        <time>2010-04-24T09:12:42Z</time>
      </trkpt>
      <trkpt lat="44.86605" lon="4.7542">
        <ele>446</ele>
        <time>2010-04-24T09:12:46Z</time>
      </trkpt>
      <trkpt lat="44.8661" lon="4.75416">
        <ele>445</ele>
        <time>2010-04-24T09:12:47Z</time>
      </trkpt>
      <trkpt lat="44.8662" lon="4.75396">
        <ele>443</ele>
        <time>2010-04-24T09:12:52Z</time>
      </trkpt>
      <trkpt lat="44.8662" lon="4.75391">
        <ele>443</ele>
        <time>2010-04-24T09:12:53Z</time>
      </trkpt>
      <trkpt lat="44.86618" lon="4.75361">
        <ele>441</ele>
        <time>2010-04-24T09:12:58Z</time>
      </trkpt>
      <trkpt lat="44.86614" lon="4.75339">
        <ele>439</ele>
        <time>2010-04-24T09:13:02Z</time>
      </trkpt>
      <trkpt lat="44.86609" lon="4.75314">
        <ele>437</ele>
        <time>2010-04-24T09:13:07Z</time>
      </trkpt>
      <trkpt lat="44.86605" lon="4.75299">
        <ele>436</ele>
        <time>2010-04-24T09:13:11Z</time>
      </trkpt>
      <trkpt lat="44.86612" lon="4.75287">
        <ele>435</ele>
        <time>2010-04-24T09:13:16Z</time>
      </trkpt>
      <trkpt lat="44.86618" lon="4.75287">
        <ele>437</ele>
        <time>2010-04-24T09:13:19Z</time>
      </trkpt>
      <trkpt lat="44.86627" lon="4.75287">
        <ele>439</ele>
        <time>2010-04-24T09:13:25Z</time>
      </trkpt>
      <trkpt lat="44.86635" lon="4.75292">
        <ele>441</ele>
        <time>2010-04-24T09:13:31Z</time>
      </trkpt>
      <trkpt lat="44.86641" lon="4.75292">
        <ele>443</ele>
        <time>2010-04-24T09:13:37Z</time>
      </trkpt>
      <trkpt lat="44.86647" lon="4.75295">
        <ele>445</ele>
        <time>2010-04-24T09:13:43Z</time>
      </trkpt>
      <trkpt lat="44.86655" lon="4.753">
        <ele>447</ele>
        <time>2010-04-24T09:13:51Z</time>
      </trkpt>
      <trkpt lat="44.86662" lon="4.75305">
        <ele>448</ele>
        <time>2010-04-24T09:13:58Z</time>
      </trkpt>
      <trkpt lat="44.86669" lon="4.75312">
        <ele>450</ele>
        <time>2010-04-24T09:14:05Z</time>
      </trkpt>
      <trkpt lat="44.86671" lon="4.75314">
        <ele>450</ele>
        <time>2010-04-24T09:14:07Z</time>
      </trkpt>
      <trkpt lat="44.86679" lon="4.75321">
        <ele>452</ele>
        <time>2010-04-24T09:14:13Z</time>
      </trkpt>
      <trkpt lat="44.86685" lon="4.75325">
        <ele>453</ele>
        <time>2010-04-24T09:14:18Z</time>
      </trkpt>
      <trkpt lat="44.86693" lon="4.75328">
        <ele>454</ele>
        <time>2010-04-24T09:14:23Z</time>
      </trkpt>
      <trkpt lat="44.86703" lon="4.75335">
        <ele>456</ele>
        <time>2010-04-24T09:14:31Z</time>
      </trkpt>
      <trkpt lat="44.86713" lon="4.7534">
        <ele>457</ele>
        <time>2010-04-24T09:14:38Z</time>
      </trkpt>
      <trkpt lat="44.86717" lon="4.75344">
        <ele>458</ele>
        <time>2010-04-24T09:14:43Z</time>
      </trkpt>
      <trkpt lat="44.8672" lon="4.75348">
        <ele>459</ele>
        <time>2010-04-24T09:14:45Z</time>
      </trkpt>
      <trkpt lat="44.86725" lon="4.75353">
        <ele>460</ele>
        <time>2010-04-24T09:14:48Z</time>
      </trkpt>
      <trkpt lat="44.86731" lon="4.75359">
        <ele>461</ele>
        <time>2010-04-24T09:14:53Z</time>
      </trkpt>
      <trkpt lat="44.86738" lon="4.75367">
        <ele>463</ele>
        <time>2010-04-24T09:14:58Z</time>
      </trkpt>
      <trkpt lat="44.86746" lon="4.75378">
        <ele>464</ele>
        <time>2010-04-24T09:15:03Z</time>
      </trkpt>
      <trkpt lat="44.86758" lon="4.75388">
        <ele>467</ele>
        <time>2010-04-24T09:15:10Z</time>
      </trkpt>
      <trkpt lat="44.86768" lon="4.75397">
        <ele>469</ele>
        <time>2010-04-24T09:15:16Z</time>
      </trkpt>
      <trkpt lat="44.86772" lon="4.754">
        <ele>470</ele>
        <time>2010-04-24T09:15:19Z</time>
      </trkpt>
      <trkpt lat="44.86782" lon="4.75407">
        <ele>470</ele>
        <time>2010-04-24T09:15:24Z</time>
      </trkpt>
      <trkpt lat="44.86789" lon="4.75416">
        <ele>471</ele>
        <time>2010-04-24T09:15:32Z</time>
      </trkpt>
      <trkpt lat="44.86791" lon="4.75419">
        <ele>471</ele>
        <time>2010-04-24T09:15:37Z</time>
      </trkpt>
      <trkpt lat="44.86797" lon="4.75425">
        <ele>470</ele>
        <time>2010-04-24T09:17:03Z</time>
      </trkpt>
      <trkpt lat="44.86798" lon="4.75428">
        <ele>471</ele>
        <time>2010-04-24T09:17:07Z</time>
      </trkpt>
      <trkpt lat="44.86797" lon="4.75419">
        <ele>470</ele>
        <time>2010-04-24T09:19:10Z</time>
      </trkpt>
      <trkpt lat="44.868" lon="4.754">
        <ele>469</ele>
        <time>2010-04-24T09:20:10Z</time>
      </trkpt>
      <trkpt lat="44.86801" lon="4.75392">
        <ele>469</ele>
        <time>2010-04-24T09:20:12Z</time>
      </trkpt>
      <trkpt lat="44.86803" lon="4.75371">
        <ele>466</ele>
        <time>2010-04-24T09:20:16Z</time>
      </trkpt>
      <trkpt lat="44.86807" lon="4.75353">
        <ele>465</ele>
        <time>2010-04-24T09:20:19Z</time>
      </trkpt>
      <trkpt lat="44.8681" lon="4.75334">
        <ele>462</ele>
        <time>2010-04-24T09:20:22Z</time>
      </trkpt>
      <trkpt lat="44.86818" lon="4.75298">
        <ele>458</ele>
        <time>2010-04-24T09:20:28Z</time>
      </trkpt>
      <trkpt lat="44.86821" lon="4.75283">
        <ele>457</ele>
        <time>2010-04-24T09:20:31Z</time>
      </trkpt>
      <trkpt lat="44.86824" lon="4.75269">
        <ele>455</ele>
        <time>2010-04-24T09:20:34Z</time>
      </trkpt>
      <trkpt lat="44.86833" lon="4.75264">
        <ele>454</ele>
        <time>2010-04-24T09:20:38Z</time>
      </trkpt>
      <trkpt lat="44.8684" lon="4.75259">
        <ele>451</ele>
        <time>2010-04-24T09:20:42Z</time>
      </trkpt>
      <trkpt lat="44.86841" lon="4.7526">
        <ele>451</ele>
        <time>2010-04-24T09:20:43Z</time>
      </trkpt>
      <trkpt lat="44.86846" lon="4.75269">
        <ele>450</ele>
        <time>2010-04-24T09:20:46Z</time>
      </trkpt>
      <trkpt lat="44.86855" lon="4.75284">
        <ele>448</ele>
        <time>2010-04-24T09:20:50Z</time>
      </trkpt>
      <trkpt lat="44.86859" lon="4.75287">
        <ele>448</ele>
        <time>2010-04-24T09:20:51Z</time>
      </trkpt>
      <trkpt lat="44.8687" lon="4.75287">
        <ele>444</ele>
        <time>2010-04-24T09:20:55Z</time>
      </trkpt>
      <trkpt lat="44.86876" lon="4.75276">
        <ele>441</ele>
        <time>2010-04-24T09:20:58Z</time>
      </trkpt>
      <trkpt lat="44.86883" lon="4.75276">
        <ele>440</ele>
        <time>2010-04-24T09:21:02Z</time>
      </trkpt>
      <trkpt lat="44.86889" lon="4.75283">
        <ele>439</ele>
        <time>2010-04-24T09:21:07Z</time>
      </trkpt>
      <trkpt lat="44.86892" lon="4.75288">
        <ele>438</ele>
        <time>2010-04-24T09:21:11Z</time>
      </trkpt>
      <trkpt lat="44.86895" lon="4.75303">
        <ele>436</ele>
        <time>2010-04-24T09:21:15Z</time>
      </trkpt>
      <trkpt lat="44.86896" lon="4.75306">
        <ele>436</ele>
        <time>2010-04-24T09:21:16Z</time>
      </trkpt>
      <trkpt lat="44.86904" lon="4.75324">
        <ele>433</ele>
        <time>2010-04-24T09:21:22Z</time>
      </trkpt>
      <trkpt lat="44.86904" lon="4.75327">
        <ele>433</ele>
        <time>2010-04-24T09:21:23Z</time>
      </trkpt>
      <trkpt lat="44.86912" lon="4.75346">
        <ele>429</ele>
        <time>2010-04-24T09:21:28Z</time>
      </trkpt>
      <trkpt lat="44.86914" lon="4.75351">
        <ele>429</ele>
        <time>2010-04-24T09:21:29Z</time>
      </trkpt>
      <trkpt lat="44.86918" lon="4.75364">
        <ele>428</ele>
        <time>2010-04-24T09:21:31Z</time>
      </trkpt>
      <trkpt lat="44.86928" lon="4.75394">
        <ele>425</ele>
        <time>2010-04-24T09:21:35Z</time>
      </trkpt>
      <trkpt lat="44.86945" lon="4.75454">
        <ele>420</ele>
        <time>2010-04-24T09:21:41Z</time>
      </trkpt>
      <trkpt lat="44.86949" lon="4.75465">
        <ele>419</ele>
        <time>2010-04-24T09:21:42Z</time>
      </trkpt>
      <trkpt lat="44.86962" lon="4.75509">
        <ele>417</ele>
        <time>2010-04-24T09:21:46Z</time>
      </trkpt>
      <trkpt lat="44.86965" lon="4.75521">
        <ele>416</ele>
        <time>2010-04-24T09:21:47Z</time>
      </trkpt>
      <trkpt lat="44.86974" lon="4.75567">
        <ele>415</ele>
        <time>2010-04-24T09:21:51Z</time>
      </trkpt>
      <trkpt lat="44.86976" lon="4.75598">
        <ele>414</ele>
        <time>2010-04-24T09:21:54Z</time>
      </trkpt>
      <trkpt lat="44.86975" lon="4.75646">
        <ele>414</ele>
        <time>2010-04-24T09:22:00Z</time>
      </trkpt>
      <trkpt lat="44.86974" lon="4.75652">
        <ele>414</ele>
        <time>2010-04-24T09:22:01Z</time>
      </trkpt>
      <trkpt lat="44.86972" lon="4.75681">
        <ele>413</ele>
        <time>2010-04-24T09:22:06Z</time>
      </trkpt>
      <trkpt lat="44.86968" lon="4.75716">
        <ele>413</ele>
        <time>2010-04-24T09:22:13Z</time>
      </trkpt>
      <trkpt lat="44.86967" lon="4.75747">
        <ele>412</ele>
        <time>2010-04-24T09:22:19Z</time>
      </trkpt>
      <trkpt lat="44.86968" lon="4.75776">
        <ele>410</ele>
        <time>2010-04-24T09:22:24Z</time>
      </trkpt>
      <trkpt lat="44.86966" lon="4.758">
        <ele>409</ele>
        <time>2010-04-24T09:22:29Z</time>
      </trkpt>
      <trkpt lat="44.86965" lon="4.75808">
        <ele>409</ele>
        <time>2010-04-24T09:22:31Z</time>
      </trkpt>
      <trkpt lat="44.86969" lon="4.75823">
        <ele>409</ele>
        <time>2010-04-24T09:22:38Z</time>
      </trkpt>
      <trkpt lat="44.86969" lon="4.75827">
        <ele>409</ele>
        <time>2010-04-24T09:22:42Z</time>
      </trkpt>
      <trkpt lat="44.86965" lon="4.75832">
        <ele>410</ele>
        <time>2010-04-24T09:22:57Z</time>
      </trkpt>
      <trkpt lat="44.86964" lon="4.75837">
        <ele>410</ele>
        <time>2010-04-24T09:22:59Z</time>
      </trkpt>
      <trkpt lat="44.86966" lon="4.75848">
        <ele>411</ele>
        <time>2010-04-24T09:23:04Z</time>
      </trkpt>
      <trkpt lat="44.86969" lon="4.7586">
        <ele>411</ele>
        <time>2010-04-24T09:23:12Z</time>
      </trkpt>
      <trkpt lat="44.86969" lon="4.75863">
        <ele>411</ele>
        <time>2010-04-24T09:23:14Z</time>
      </trkpt>
      <trkpt lat="44.86965" lon="4.75876">
        <ele>411</ele>
        <time>2010-04-24T09:23:21Z</time>
      </trkpt>
      <trkpt lat="44.86962" lon="4.75884">
        <ele>412</ele>
        <time>2010-04-24T09:23:27Z</time>
      </trkpt>
      <trkpt lat="44.86961" lon="4.75892">
        <ele>413</ele>
        <time>2010-04-24T09:23:30Z</time>
      </trkpt>
      <trkpt lat="44.86958" lon="4.75907">
        <ele>414</ele>
        <time>2010-04-24T09:23:36Z</time>
      </trkpt>
      <trkpt lat="44.86957" lon="4.75923">
        <ele>414</ele>
        <time>2010-04-24T09:23:41Z</time>
      </trkpt>
      <trkpt lat="44.86957" lon="4.75948">
        <ele>414</ele>
        <time>2010-04-24T09:23:47Z</time>
      </trkpt>
      <trkpt lat="44.86955" lon="4.7597">
        <ele>414</ele>
        <time>2010-04-24T09:23:53Z</time>
      </trkpt>
      <trkpt lat="44.86949" lon="4.75994">
        <ele>415</ele>
        <time>2010-04-24T09:24:00Z</time>
      </trkpt>
      <trkpt lat="44.8694" lon="4.76017">
        <ele>415</ele>
        <time>2010-04-24T09:24:07Z</time>
      </trkpt>
      <trkpt lat="44.86933" lon="4.76036">
        <ele>415</ele>
        <time>2010-04-24T09:24:12Z</time>
      </trkpt>
      <trkpt lat="44.86934" lon="4.7606">
        <ele>414</ele>
        <time>2010-04-24T09:24:17Z</time>
      </trkpt>
      <trkpt lat="44.86932" lon="4.76088">
        <ele>414</ele>
        <time>2010-04-24T09:24:23Z</time>
      </trkpt>
      <trkpt lat="44.86928" lon="4.76105">
        <ele>414</ele>
        <time>2010-04-24T09:24:27Z</time>
      </trkpt>
      <trkpt lat="44.8692" lon="4.76119">
        <ele>415</ele>
        <time>2010-04-24T09:24:32Z</time>
      </trkpt>
      <trkpt lat="44.869" lon="4.76122">
        <ele>414</ele>
        <time>2010-04-24T09:24:38Z</time>
      </trkpt>
      <trkpt lat="44.86885" lon="4.76126">
        <ele>415</ele>
        <time>2010-04-24T09:24:43Z</time>
      </trkpt>
      <trkpt lat="44.86881" lon="4.76129">
        <ele>415</ele>
        <time>2010-04-24T09:24:46Z</time>
      </trkpt>
      <trkpt lat="44.86883" lon="4.76136">
        <ele>415</ele>
        <time>2010-04-24T09:24:50Z</time>
      </trkpt>
      <trkpt lat="44.86893" lon="4.76149">
        <ele>417</ele>
        <time>2010-04-24T09:24:58Z</time>
      </trkpt>
      <trkpt lat="44.86898" lon="4.76154">
        <ele>418</ele>
        <time>2010-04-24T09:25:01Z</time>
      </trkpt>
      <trkpt lat="44.86906" lon="4.7616">
        <ele>419</ele>
        <time>2010-04-24T09:25:07Z</time>
      </trkpt>
      <trkpt lat="44.8691" lon="4.76162">
        <ele>420</ele>
        <time>2010-04-24T09:25:12Z</time>
      </trkpt>
      <trkpt lat="44.86913" lon="4.76163">
        <ele>421</ele>
        <time>2010-04-24T09:25:15Z</time>
      </trkpt>
      <trkpt lat="44.86927" lon="4.76163">
        <ele>423</ele>
        <time>2010-04-24T09:25:24Z</time>
      </trkpt>
      <trkpt lat="44.8693" lon="4.76161">
        <ele>424</ele>
        <time>2010-04-24T09:25:27Z</time>
      </trkpt>
      <trkpt lat="44.86935" lon="4.76158">
        <ele>424</ele>
        <time>2010-04-24T09:25:31Z</time>
      </trkpt>
      <trkpt lat="44.86945" lon="4.76147">
        <ele>426</ele>
        <time>2010-04-24T09:25:40Z</time>
      </trkpt>
      <trkpt lat="44.86954" lon="4.76137">
        <ele>427</ele>
        <time>2010-04-24T09:25:47Z</time>
      </trkpt>
      <trkpt lat="44.86959" lon="4.76133">
        <ele>429</ele>
        <time>2010-04-24T09:25:51Z</time>
      </trkpt>
      <trkpt lat="44.86972" lon="4.76127">
        <ele>431</ele>
        <time>2010-04-24T09:25:59Z</time>
      </trkpt>
      <trkpt lat="44.86979" lon="4.76122">
        <ele>432</ele>
        <time>2010-04-24T09:26:04Z</time>
      </trkpt>
      <trkpt lat="44.8699" lon="4.76119">
        <ele>434</ele>
        <time>2010-04-24T09:26:11Z</time>
      </trkpt>
      <trkpt lat="44.86999" lon="4.76116">
        <ele>435</ele>
        <time>2010-04-24T09:26:16Z</time>
      </trkpt>
      <trkpt lat="44.87013" lon="4.76115">
        <ele>438</ele>
        <time>2010-04-24T09:26:23Z</time>
      </trkpt>
      <trkpt lat="44.8702" lon="4.76114">
        <ele>438</ele>
        <time>2010-04-24T09:26:27Z</time>
      </trkpt>
      <trkpt lat="44.87033" lon="4.76114">
        <ele>441</ele>
        <time>2010-04-24T09:26:35Z</time>
      </trkpt>
      <trkpt lat="44.87047" lon="4.7612">
        <ele>442</ele>
        <time>2010-04-24T09:26:43Z</time>
      </trkpt>
      <trkpt lat="44.87056" lon="4.76121">
        <ele>444</ele>
        <time>2010-04-24T09:26:50Z</time>
      </trkpt>
      <trkpt lat="44.87063" lon="4.76125">
        <ele>446</ele>
        <time>2010-04-24T09:26:56Z</time>
      </trkpt>
      <trkpt lat="44.87065" lon="4.76126">
        <ele>446</ele>
        <time>2010-04-24T09:26:57Z</time>
      </trkpt>
      <trkpt lat="44.87074" lon="4.76128">
        <ele>448</ele>
        <time>2010-04-24T09:27:03Z</time>
      </trkpt>
      <trkpt lat="44.87079" lon="4.7613">
        <ele>448</ele>
        <time>2010-04-24T09:27:07Z</time>
      </trkpt>
      <trkpt lat="44.87088" lon="4.76131">
        <ele>450</ele>
        <time>2010-04-24T09:27:13Z</time>
      </trkpt>
      <trkpt lat="44.87098" lon="4.76133">
        <ele>451</ele>
        <time>2010-04-24T09:27:18Z</time>
      </trkpt>
      <trkpt lat="44.87111" lon="4.76135">
        <ele>452</ele>
        <time>2010-04-24T09:27:25Z</time>
      </trkpt>
      <trkpt lat="44.8712" lon="4.76137">
        <ele>453</ele>
        <time>2010-04-24T09:27:30Z</time>
      </trkpt>
      <trkpt lat="44.87133" lon="4.76144">
        <ele>455</ele>
        <time>2010-04-24T09:27:37Z</time>
      </trkpt>
      <trkpt lat="44.87137" lon="4.76144">
        <ele>456</ele>
        <time>2010-04-24T09:27:39Z</time>
      </trkpt>
      <trkpt lat="44.87154" lon="4.76149">
        <ele>457</ele>
        <time>2010-04-24T09:27:48Z</time>
      </trkpt>
      <trkpt lat="44.87164" lon="4.76149">
        <ele>459</ele>
        <time>2010-04-24T09:27:53Z</time>
      </trkpt>
      <trkpt lat="44.87176" lon="4.76152">
        <ele>460</ele>
        <time>2010-04-24T09:27:59Z</time>
      </trkpt>
      <trkpt lat="44.87191" lon="4.76157">
        <ele>461</ele>
        <time>2010-04-24T09:28:07Z</time>
      </trkpt>
      <trkpt lat="44.87205" lon="4.76161">
        <ele>462</ele>
        <time>2010-04-24T09:28:14Z</time>
      </trkpt>
      <trkpt lat="44.87216" lon="4.76155">
        <ele>463</ele>
        <time>2010-04-24T09:28:21Z</time>
      </trkpt>
      <trkpt lat="44.87225" lon="4.76149">
        <ele>464</ele>
        <time>2010-04-24T09:28:26Z</time>
      </trkpt>
      <trkpt lat="44.87235" lon="4.7614">
        <ele>466</ele>
        <time>2010-04-24T09:28:33Z</time>
      </trkpt>
      <trkpt lat="44.87236" lon="4.76138">
        <ele>466</ele>
        <time>2010-04-24T09:28:34Z</time>
      </trkpt>
      <trkpt lat="44.87245" lon="4.76128">
        <ele>467</ele>
        <time>2010-04-24T09:28:41Z</time>
      </trkpt>
      <trkpt lat="44.87249" lon="4.76117">
        <ele>469</ele>
        <time>2010-04-24T09:28:47Z</time>
      </trkpt>
      <trkpt lat="44.87253" lon="4.76112">
        <ele>470</ele>
        <time>2010-04-24T09:28:51Z</time>
      </trkpt>
      <trkpt lat="44.87256" lon="4.76109">
        <ele>471</ele>
        <time>2010-04-24T09:28:54Z</time>
      </trkpt>
      <trkpt lat="44.87263" lon="4.761">
        <ele>472</ele>
        <time>2010-04-24T09:29:00Z</time>
      </trkpt>
      <trkpt lat="44.87273" lon="4.76087">
        <ele>473</ele>
        <time>2010-04-24T09:29:07Z</time>
      </trkpt>
      <trkpt lat="44.87279" lon="4.76076">
        <ele>475</ele>
        <time>2010-04-24T09:29:12Z</time>
      </trkpt>
      <trkpt lat="44.87281" lon="4.76068">
        <ele>476</ele>
        <time>2010-04-24T09:29:15Z</time>
      </trkpt>
      <trkpt lat="44.87282" lon="4.76058">
        <ele>477</ele>
        <time>2010-04-24T09:29:22Z</time>
      </trkpt>
      <trkpt lat="44.87282" lon="4.76046">
        <ele>478</ele>
        <time>2010-04-24T09:29:27Z</time>
      </trkpt>
      <trkpt lat="44.87282" lon="4.76041">
        <ele>479</ele>
        <time>2010-04-24T09:29:30Z</time>
      </trkpt>
      <trkpt lat="44.87289" lon="4.76021">
        <ele>480</ele>
        <time>2010-04-24T09:29:39Z</time>
      </trkpt>
      <trkpt lat="44.87297" lon="4.76008">
        <ele>480</ele>
        <time>2010-04-24T09:29:45Z</time>
      </trkpt>
      <trkpt lat="44.87305" lon="4.75999">
        <ele>481</ele>
        <time>2010-04-24T09:29:50Z</time>
      </trkpt>
      <trkpt lat="44.87316" lon="4.75989">
        <ele>481</ele>
        <time>2010-04-24T09:29:57Z</time>
      </trkpt>
      <trkpt lat="44.87328" lon="4.75976">
        <ele>482</ele>
        <time>2010-04-24T09:30:04Z</time>
      </trkpt>
      <trkpt lat="44.87336" lon="4.75968">
        <ele>484</ele>
        <time>2010-04-24T09:30:10Z</time>
      </trkpt>
      <trkpt lat="44.87345" lon="4.75955">
        <ele>485</ele>
        <time>2010-04-24T09:30:16Z</time>
      </trkpt>
      <trkpt lat="44.87351" lon="4.75948">
        <ele>485</ele>
        <time>2010-04-24T09:30:21Z</time>
      </trkpt>
      <trkpt lat="44.87357" lon="4.75944">
        <ele>486</ele>
        <time>2010-04-24T09:30:25Z</time>
      </trkpt>
      <trkpt lat="44.87368" lon="4.75936">
        <ele>487</ele>
        <time>2010-04-24T09:30:32Z</time>
      </trkpt>
      <trkpt lat="44.87378" lon="4.75931">
        <ele>487</ele>
        <time>2010-04-24T09:30:37Z</time>
      </trkpt>
      <trkpt lat="44.87385" lon="4.75927">
        <ele>488</ele>
        <time>2010-04-24T09:30:41Z</time>
      </trkpt>
      <trkpt lat="44.87396" lon="4.75921">
        <ele>488</ele>
        <time>2010-04-24T09:30:48Z</time>
      </trkpt>
      <trkpt lat="44.87407" lon="4.7591">
        <ele>489</ele>
        <time>2010-04-24T09:30:54Z</time>
      </trkpt>
      <trkpt lat="44.87419" lon="4.75901">
        <ele>490</ele>
        <time>2010-04-24T09:31:00Z</time>
      </trkpt>
      <trkpt lat="44.8743" lon="4.75895">
        <ele>491</ele>
        <time>2010-04-24T09:31:05Z</time>
      </trkpt>
      <trkpt lat="44.87446" lon="4.75888">
        <ele>492</ele>
        <time>2010-04-24T09:31:11Z</time>
      </trkpt>
      <trkpt lat="44.87463" lon="4.75885">
        <ele>493</ele>
        <time>2010-04-24T09:31:17Z</time>
      </trkpt>
      <trkpt lat="44.87472" lon="4.75883">
        <ele>494</ele>
        <time>2010-04-24T09:31:22Z</time>
      </trkpt>
      <trkpt lat="44.87485" lon="4.75881">
        <ele>495</ele>
        <time>2010-04-24T09:31:28Z</time>
      </trkpt>
      <trkpt lat="44.87496" lon="4.7588">
        <ele>496</ele>
        <time>2010-04-24T09:31:33Z</time>
      </trkpt>
      <trkpt lat="44.87507" lon="4.75879">
        <ele>497</ele>
        <time>2010-04-24T09:31:38Z</time>
      </trkpt>
      <trkpt lat="44.87517" lon="4.75873">
        <ele>498</ele>
        <time>2010-04-24T09:31:44Z</time>
      </trkpt>
      <trkpt lat="44.87532" lon="4.75862">
        <ele>499</ele>
        <time>2010-04-24T09:31:51Z</time>
      </trkpt>
      <trkpt lat="44.87542" lon="4.75855">
        <ele>500</ele>
        <time>2010-04-24T09:31:56Z</time>
      </trkpt>
      <trkpt lat="44.87551" lon="4.75853">
        <ele>500</ele>
        <time>2010-04-24T09:32:01Z</time>
      </trkpt>
      <trkpt lat="44.8756" lon="4.75852">
        <ele>501</ele>
        <time>2010-04-24T09:32:06Z</time>
      </trkpt>
      <trkpt lat="44.87574" lon="4.75851">
        <ele>502</ele>
        <time>2010-04-24T09:32:13Z</time>
      </trkpt>
      <trkpt lat="44.87582" lon="4.75849">
        <ele>503</ele>
        <time>2010-04-24T09:32:17Z</time>
      </trkpt>
      <trkpt lat="44.87598" lon="4.75842">
        <ele>503</ele>
        <time>2010-04-24T09:32:24Z</time>
      </trkpt>
      <trkpt lat="44.87608" lon="4.75841">
        <ele>504</ele>
        <time>2010-04-24T09:32:29Z</time>
      </trkpt>
      <trkpt lat="44.87621" lon="4.75837">
        <ele>505</ele>
        <time>2010-04-24T09:32:35Z</time>
      </trkpt>
      <trkpt lat="44.87633" lon="4.75836">
        <ele>505</ele>
        <time>2010-04-24T09:32:40Z</time>
      </trkpt>
      <trkpt lat="44.87641" lon="4.75835">
        <ele>506</ele>
        <time>2010-04-24T09:32:44Z</time>
      </trkpt>
      <trkpt lat="44.87655" lon="4.75827">
        <ele>507</ele>
        <time>2010-04-24T09:32:50Z</time>
      </trkpt>
      <trkpt lat="44.87668" lon="4.75821">
        <ele>507</ele>
        <time>2010-04-24T09:32:56Z</time>
      </trkpt>
      <trkpt lat="44.87681" lon="4.75814">
        <ele>508</ele>
        <time>2010-04-24T09:33:02Z</time>
      </trkpt>
      <trkpt lat="44.87691" lon="4.75808">
        <ele>509</ele>
        <time>2010-04-24T09:33:07Z</time>
      </trkpt>
      <trkpt lat="44.87703" lon="4.758">
        <ele>509</ele>
        <time>2010-04-24T09:33:13Z</time>
      </trkpt>
      <trkpt lat="44.87718" lon="4.75792">
        <ele>510</ele>
        <time>2010-04-24T09:33:20Z</time>
      </trkpt>
      <trkpt lat="44.87719" lon="4.75791">
        <ele>510</ele>
        <time>2010-04-24T09:33:21Z</time>
      </trkpt>
      <trkpt lat="44.87723" lon="4.7579">
        <ele>510</ele>
        <time>2010-04-24T09:33:25Z</time>
      </trkpt>
      <trkpt lat="44.87742" lon="4.75784">
        <ele>511</ele>
        <time>2010-04-24T09:37:44Z</time>
      </trkpt>
      <trkpt lat="44.87745" lon="4.75782">
        <ele>511</ele>
        <time>2010-04-24T09:37:46Z</time>
      </trkpt>
      <trkpt lat="44.87755" lon="4.75773">
        <ele>511</ele>
        <time>2010-04-24T09:37:52Z</time>
      </trkpt>
      <trkpt lat="44.87759" lon="4.75769">
        <ele>510</ele>
        <time>2010-04-24T09:37:54Z</time>
      </trkpt>
      <trkpt lat="44.87778" lon="4.75745">
        <ele>509</ele>
        <time>2010-04-24T09:38:01Z</time>
      </trkpt>
      <trkpt lat="44.87785" lon="4.75722">
        <ele>509</ele>
        <time>2010-04-24T09:38:06Z</time>
      </trkpt>
      <trkpt lat="44.87788" lon="4.75695">
        <ele>510</ele>
        <time>2010-04-24T09:38:12Z</time>
      </trkpt>
      <trkpt lat="44.87793" lon="4.75683">
        <ele>510</ele>
        <time>2010-04-24T09:38:15Z</time>
      </trkpt>
      <trkpt lat="44.87812" lon="4.75681">
        <ele>510</ele>
        <time>2010-04-24T09:38:21Z</time>
      </trkpt>
      <trkpt lat="44.87825" lon="4.75682">
        <ele>510</ele>
        <time>2010-04-24T09:38:27Z</time>
      </trkpt>
      <trkpt lat="44.87836" lon="4.7568">
        <ele>511</ele>
        <time>2010-04-24T09:38:34Z</time>
      </trkpt>
      <trkpt lat="44.87848" lon="4.75676">
        <ele>511</ele>
        <time>2010-04-24T09:38:40Z</time>
      </trkpt>
      <trkpt lat="44.87861" lon="4.75672">
        <ele>511</ele>
        <time>2010-04-24T09:38:46Z</time>
      </trkpt>
      <trkpt lat="44.87872" lon="4.75667">
        <ele>512</ele>
        <time>2010-04-24T09:38:52Z</time>
      </trkpt>
      <trkpt lat="44.87882" lon="4.75665">
        <ele>513</ele>
        <time>2010-04-24T09:38:57Z</time>
      </trkpt>
      <trkpt lat="44.87893" lon="4.75661">
        <ele>513</ele>
        <time>2010-04-24T09:39:02Z</time>
      </trkpt>
      <trkpt lat="44.87906" lon="4.75657">
        <ele>514</ele>
        <time>2010-04-24T09:39:08Z</time>
      </trkpt>
      <trkpt lat="44.87917" lon="4.75654">
        <ele>515</ele>
        <time>2010-04-24T09:39:13Z</time>
      </trkpt>
      <trkpt lat="44.87929" lon="4.75646">
        <ele>517</ele>
        <time>2010-04-24T09:39:19Z</time>
      </trkpt>
      <trkpt lat="44.87942" lon="4.75638">
        <ele>518</ele>
        <time>2010-04-24T09:39:25Z</time>
      </trkpt>
      <trkpt lat="44.87951" lon="4.75631">
        <ele>518</ele>
        <time>2010-04-24T09:39:30Z</time>
      </trkpt>
      <trkpt lat="44.87962" lon="4.7562">
        <ele>519</ele>
        <time>2010-04-24T09:39:35Z</time>
      </trkpt>
      <trkpt lat="44.8797" lon="4.75611">
        <ele>520</ele>
        <time>2010-04-24T09:39:40Z</time>
      </trkpt>
      <trkpt lat="44.87983" lon="4.75595">
        <ele>521</ele>
        <time>2010-04-24T09:39:47Z</time>
      </trkpt>
      <trkpt lat="44.87993" lon="4.7558">
        <ele>522</ele>
        <time>2010-04-24T09:39:53Z</time>
      </trkpt>
      <trkpt lat="44.88006" lon="4.75561">
        <ele>523</ele>
        <time>2010-04-24T09:40:00Z</time>
      </trkpt>
      <trkpt lat="44.88017" lon="4.75543">
        <ele>524</ele>
        <time>2010-04-24T09:40:06Z</time>
      </trkpt>
      <trkpt lat="44.88027" lon="4.75519">
        <ele>525</ele>
        <time>2010-04-24T09:40:14Z</time>
      </trkpt>
      <trkpt lat="44.88036" lon="4.75486">
        <ele>526</ele>
        <time>2010-04-24T09:40:24Z</time>
      </trkpt>
      <trkpt lat="44.88039" lon="4.75473">
        <ele>527</ele>
        <time>2010-04-24T09:40:29Z</time>
      </trkpt>
      <trkpt lat="44.88041" lon="4.75461">
        <ele>527</ele>
        <time>2010-04-24T09:40:34Z</time>
      </trkpt>
      <trkpt lat="44.88043" lon="4.75452">
        <ele>528</ele>
        <time>2010-04-24T09:40:39Z</time>
      </trkpt>
      <trkpt lat="44.88046" lon="4.7545">
        <ele>528</ele>
        <time>2010-04-24T09:40:43Z</time>
      </trkpt>
      <trkpt lat="44.88049" lon="4.75462">
        <ele>526</ele>
        <time>2010-04-24T09:40:48Z</time>
      </trkpt>
      <trkpt lat="44.88052" lon="4.7548">
        <ele>525</ele>
        <time>2010-04-24T09:40:53Z</time>
      </trkpt>
      <trkpt lat="44.88058" lon="4.75509">
        <ele>524</ele>
        <time>2010-04-24T09:40:59Z</time>
      </trkpt>
      <trkpt lat="44.88067" lon="4.75538">
        <ele>523</ele>
        <time>2010-04-24T09:41:05Z</time>
      </trkpt>
      <trkpt lat="44.88078" lon="4.75573">
        <ele>522</ele>
        <time>2010-04-24T09:41:13Z</time>
      </trkpt>
      <trkpt lat="44.88084" lon="4.75587">
        <ele>521</ele>
        <time>2010-04-24T09:41:16Z</time>
      </trkpt>
      <trkpt lat="44.88091" lon="4.75611">
        <ele>520</ele>
        <time>2010-04-24T09:41:20Z</time>
      </trkpt>
      <trkpt lat="44.881" lon="4.75647">
        <ele>518</ele>
        <time>2010-04-24T09:41:25Z</time>
      </trkpt>
      <trkpt lat="44.88098" lon="4.75668">
        <ele>515</ele>
        <time>2010-04-24T09:41:28Z</time>
      </trkpt>
      <trkpt lat="44.88095" lon="4.75675">
        <ele>515</ele>
        <time>2010-04-24T09:41:29Z</time>
      </trkpt>
      <trkpt lat="44.88093" lon="4.75718">
        <ele>511</ele>
        <time>2010-04-24T09:41:34Z</time>
      </trkpt>
      <trkpt lat="44.88093" lon="4.75737">
        <ele>510</ele>
        <time>2010-04-24T09:41:36Z</time>
      </trkpt>
      <trkpt lat="44.88093" lon="4.75767">
        <ele>507</ele>
        <time>2010-04-24T09:41:39Z</time>
      </trkpt>
      <trkpt lat="44.88088" lon="4.75808">
        <ele>504</ele>
        <time>2010-04-24T09:41:43Z</time>
      </trkpt>
      <trkpt lat="44.8809" lon="4.75818">
        <ele>504</ele>
        <time>2010-04-24T09:41:44Z</time>
      </trkpt>
      <trkpt lat="44.88094" lon="4.7585">
        <ele>502</ele>
        <time>2010-04-24T09:41:47Z</time>
      </trkpt>
      <trkpt lat="44.88099" lon="4.75881">
        <ele>501</ele>
        <time>2010-04-24T09:41:50Z</time>
      </trkpt>
      <trkpt lat="44.88103" lon="4.7592">
        <ele>499</ele>
        <time>2010-04-24T09:41:54Z</time>
      </trkpt>
      <trkpt lat="44.88102" lon="4.75948">
        <ele>499</ele>
        <time>2010-04-24T09:41:57Z</time>
      </trkpt>
      <trkpt lat="44.881" lon="4.76">
        <ele>498</ele>
        <time>2010-04-24T09:42:03Z</time>
      </trkpt>
      <trkpt lat="44.88092" lon="4.76042">
        <ele>496</ele>
        <time>2010-04-24T09:42:08Z</time>
      </trkpt>
      <trkpt lat="44.88087" lon="4.76079">
        <ele>493</ele>
        <time>2010-04-24T09:42:11Z</time>
      </trkpt>
      <trkpt lat="44.88072" lon="4.76135">
        <ele>489</ele>
        <time>2010-04-24T09:42:16Z</time>
      </trkpt>
      <trkpt lat="44.88051" lon="4.76174">
        <ele>484</ele>
        <time>2010-04-24T09:42:20Z</time>
      </trkpt>
      <trkpt lat="44.88039" lon="4.76202">
        <ele>482</ele>
        <time>2010-04-24T09:42:23Z</time>
      </trkpt>
      <trkpt lat="44.88029" lon="4.76227">
        <ele>480</ele>
        <time>2010-04-24T09:42:26Z</time>
      </trkpt>
      <trkpt lat="44.88019" lon="4.76255">
        <ele>479</ele>
        <time>2010-04-24T09:42:29Z</time>
      </trkpt>
      <trkpt lat="44.88011" lon="4.76285">
        <ele>478</ele>
        <time>2010-04-24T09:42:32Z</time>
      </trkpt>
      <trkpt lat="44.88001" lon="4.7632">
        <ele>476</ele>
        <time>2010-04-24T09:42:36Z</time>
      </trkpt>
      <trkpt lat="44.87995" lon="4.7633">
        <ele>475</ele>
        <time>2010-04-24T09:42:38Z</time>
      </trkpt>
      <trkpt lat="44.87989" lon="4.76351">
        <ele>474</ele>
        <time>2010-04-24T09:42:43Z</time>
      </trkpt>
      <trkpt lat="44.87984" lon="4.76368">
        <ele>473</ele>
        <time>2010-04-24T09:42:49Z</time>
      </trkpt>
      <trkpt lat="44.87982" lon="4.76377">
        <ele>473</ele>
        <time>2010-04-24T09:42:53Z</time>
      </trkpt>
      <trkpt lat="44.87986" lon="4.76376">
        <ele>473</ele>
        <time>2010-04-24T09:42:57Z</time>
      </trkpt>
      <trkpt lat="44.87987" lon="4.76372">
        <ele>473</ele>
        <time>2010-04-24T09:42:59Z</time>
      </trkpt>
      <trkpt lat="44.87992" lon="4.7635">
        <ele>474</ele>
        <time>2010-04-24T09:43:06Z</time>
      </trkpt>
      <trkpt lat="44.87997" lon="4.76329">
        <ele>474</ele>
        <time>2010-04-24T09:43:12Z</time>
      </trkpt>
      <trkpt lat="44.87998" lon="4.76328">
        <ele>475</ele>
        <time>2010-04-24T09:43:14Z</time>
      </trkpt>
      <trkpt lat="44.87999" lon="4.76325">
        <ele>475</ele>
        <time>2010-04-24T09:43:32Z</time>
      </trkpt>
      <trkpt lat="44.88001" lon="4.76321">
        <ele>475</ele>
        <time>2010-04-24T09:43:37Z</time>
      </trkpt>
      <trkpt lat="44.87993" lon="4.76331">
        <ele>477</ele>
        <time>2010-04-24T10:07:34Z</time>
      </trkpt>
      <trkpt lat="44.87988" lon="4.76352">
        <ele>477</ele>
        <time>2010-04-24T10:07:40Z</time>
      </trkpt>
      <trkpt lat="44.87983" lon="4.76378">
        <ele>476</ele>
        <time>2010-04-24T10:07:45Z</time>
      </trkpt>
      <trkpt lat="44.87973" lon="4.76426">
        <ele>474</ele>
        <time>2010-04-24T10:07:52Z</time>
      </trkpt>
      <trkpt lat="44.87965" lon="4.76471">
        <ele>473</ele>
        <time>2010-04-24T10:07:58Z</time>
      </trkpt>
      <trkpt lat="44.87954" lon="4.76525">
        <ele>471</ele>
        <time>2010-04-24T10:08:04Z</time>
      </trkpt>
      <trkpt lat="44.87937" lon="4.766">
        <ele>469</ele>
        <time>2010-04-24T10:08:12Z</time>
      </trkpt>
      <trkpt lat="44.8792" lon="4.7664">
        <ele>468</ele>
        <time>2010-04-24T10:08:17Z</time>
      </trkpt>
      <trkpt lat="44.8789" lon="4.76687">
        <ele>466</ele>
        <time>2010-04-24T10:08:24Z</time>
      </trkpt>
      <trkpt lat="44.87857" lon="4.76735">
        <ele>465</ele>
        <time>2010-04-24T10:08:32Z</time>
      </trkpt>
      <trkpt lat="44.87823" lon="4.76783">
        <ele>464</ele>
        <time>2010-04-24T10:08:40Z</time>
      </trkpt>
      <trkpt lat="44.87787" lon="4.76825">
        <ele>462</ele>
        <time>2010-04-24T10:08:47Z</time>
      </trkpt>
      <trkpt lat="44.87756" lon="4.76852">
        <ele>460</ele>
        <time>2010-04-24T10:08:52Z</time>
      </trkpt>
      <trkpt lat="44.87713" lon="4.76898">
        <ele>458</ele>
        <time>2010-04-24T10:08:59Z</time>
      </trkpt>
      <trkpt lat="44.87707" lon="4.76905">
        <ele>458</ele>
        <time>2010-04-24T10:09:00Z</time>
      </trkpt>
      <trkpt lat="44.87691" lon="4.76941">
        <ele>457</ele>
        <time>2010-04-24T10:09:04Z</time>
      </trkpt>
      <trkpt lat="44.87696" lon="4.76961">
        <ele>456</ele>
        <time>2010-04-24T10:09:06Z</time>
      </trkpt>
      <trkpt lat="44.877" lon="4.7697">
        <ele>456</ele>
        <time>2010-04-24T10:09:07Z</time>
      </trkpt>
      <trkpt lat="44.87721" lon="4.77004">
        <ele>455</ele>
        <time>2010-04-24T10:09:11Z</time>
      </trkpt>
      <trkpt lat="44.87726" lon="4.77036">
        <ele>453</ele>
        <time>2010-04-24T10:09:14Z</time>
      </trkpt>
      <trkpt lat="44.87722" lon="4.77046">
        <ele>453</ele>
        <time>2010-04-24T10:09:15Z</time>
      </trkpt>
      <trkpt lat="44.87709" lon="4.77059">
        <ele>453</ele>
        <time>2010-04-24T10:09:17Z</time>
      </trkpt>
      <trkpt lat="44.87668" lon="4.77094">
        <ele>450</ele>
        <time>2010-04-24T10:09:23Z</time>
      </trkpt>
      <trkpt lat="44.87637" lon="4.77134">
        <ele>449</ele>
        <time>2010-04-24T10:09:28Z</time>
      </trkpt>
      <trkpt lat="44.87625" lon="4.77177">
        <ele>448</ele>
        <time>2010-04-24T10:09:32Z</time>
      </trkpt>
      <trkpt lat="44.8763" lon="4.77211">
        <ele>447</ele>
        <time>2010-04-24T10:09:35Z</time>
      </trkpt>
      <trkpt lat="44.87634" lon="4.77221">
        <ele>446</ele>
        <time>2010-04-24T10:09:36Z</time>
      </trkpt>
      <trkpt lat="44.87644" lon="4.7724">
        <ele>446</ele>
        <time>2010-04-24T10:09:38Z</time>
      </trkpt>
      <trkpt lat="44.87669" lon="4.77294">
        <ele>443</ele>
        <time>2010-04-24T10:09:44Z</time>
      </trkpt>
      <trkpt lat="44.87672" lon="4.77303">
        <ele>443</ele>
        <time>2010-04-24T10:09:45Z</time>
      </trkpt>
      <trkpt lat="44.87681" lon="4.77356">
        <ele>441</ele>
        <time>2010-04-24T10:09:50Z</time>
      </trkpt>
      <trkpt lat="44.8769" lon="4.77418">
        <ele>440</ele>
        <time>2010-04-24T10:09:56Z</time>
      </trkpt>
      <trkpt lat="44.87683" lon="4.77469">
        <ele>438</ele>
        <time>2010-04-24T10:10:01Z</time>
      </trkpt>
      <trkpt lat="44.87678" lon="4.77485">
        <ele>437</ele>
        <time>2010-04-24T10:10:03Z</time>
      </trkpt>
      <trkpt lat="44.87679" lon="4.77514">
        <ele>437</ele>
        <time>2010-04-24T10:10:07Z</time>
      </trkpt>
      <trkpt lat="44.8768" lon="4.77519">
        <ele>438</ele>
        <time>2010-04-24T10:10:08Z</time>
      </trkpt>
      <trkpt lat="44.87688" lon="4.77539">
        <ele>438</ele>
        <time>2010-04-24T10:10:14Z</time>
      </trkpt>
      <trkpt lat="44.87699" lon="4.77562">
        <ele>440</ele>
        <time>2010-04-24T10:10:23Z</time>
      </trkpt>
      <trkpt lat="44.87706" lon="4.7758">
        <ele>441</ele>
        <time>2010-04-24T10:10:29Z</time>
      </trkpt>
      <trkpt lat="44.87712" lon="4.77602">
        <ele>443</ele>
        <time>2010-04-24T10:10:36Z</time>
      </trkpt>
      <trkpt lat="44.87713" lon="4.77635">
        <ele>444</ele>
        <time>2010-04-24T10:10:46Z</time>
      </trkpt>
      <trkpt lat="44.87711" lon="4.7766">
        <ele>445</ele>
        <time>2010-04-24T10:10:54Z</time>
      </trkpt>
      <trkpt lat="44.87709" lon="4.77682">
        <ele>446</ele>
        <time>2010-04-24T10:11:01Z</time>
      </trkpt>
      <trkpt lat="44.87708" lon="4.77701">
        <ele>446</ele>
        <time>2010-04-24T10:11:07Z</time>
      </trkpt>
      <trkpt lat="44.87706" lon="4.77719">
        <ele>448</ele>
        <time>2010-04-24T10:11:13Z</time>
      </trkpt>
      <trkpt lat="44.87699" lon="4.77745">
        <ele>448</ele>
        <time>2010-04-24T10:11:21Z</time>
      </trkpt>
      <trkpt lat="44.87691" lon="4.77773">
        <ele>449</ele>
        <time>2010-04-24T10:11:29Z</time>
      </trkpt>
      <trkpt lat="44.87688" lon="4.77795">
        <ele>451</ele>
        <time>2010-04-24T10:11:35Z</time>
      </trkpt>
      <trkpt lat="44.87691" lon="4.77831">
        <ele>452</ele>
        <time>2010-04-24T10:11:44Z</time>
      </trkpt>
      <trkpt lat="44.87691" lon="4.77864">
        <ele>453</ele>
        <time>2010-04-24T10:11:53Z</time>
      </trkpt>
      <trkpt lat="44.87695" lon="4.77888">
        <ele>454</ele>
        <time>2010-04-24T10:12:00Z</time>
      </trkpt>
      <trkpt lat="44.87703" lon="4.77913">
        <ele>455</ele>
        <time>2010-04-24T10:12:08Z</time>
      </trkpt>
      <trkpt lat="44.87712" lon="4.77947">
        <ele>456</ele>
        <time>2010-04-24T10:12:18Z</time>
      </trkpt>
      <trkpt lat="44.87722" lon="4.77983">
        <ele>457</ele>
        <time>2010-04-24T10:12:28Z</time>
      </trkpt>
      <trkpt lat="44.87732" lon="4.78015">
        <ele>458</ele>
        <time>2010-04-24T10:12:37Z</time>
      </trkpt>
      <trkpt lat="44.87734" lon="4.78031">
        <ele>459</ele>
        <time>2010-04-24T10:12:42Z</time>
      </trkpt>
      <trkpt lat="44.87737" lon="4.78055">
        <ele>458</ele>
        <time>2010-04-24T10:12:48Z</time>
      </trkpt>
      <trkpt lat="44.87744" lon="4.7808">
        <ele>459</ele>
        <time>2010-04-24T10:12:54Z</time>
      </trkpt>
      <trkpt lat="44.87751" lon="4.78106">
        <ele>460</ele>
        <time>2010-04-24T10:13:00Z</time>
      </trkpt>
      <trkpt lat="44.87757" lon="4.78135">
        <ele>461</ele>
        <time>2010-04-24T10:13:07Z</time>
      </trkpt>
      <trkpt lat="44.87752" lon="4.78154">
        <ele>461</ele>
        <time>2010-04-24T10:13:12Z</time>
      </trkpt>
      <trkpt lat="44.87738" lon="4.78164">
        <ele>460</ele>
        <time>2010-04-24T10:13:16Z</time>
      </trkpt>
      <trkpt lat="44.87726" lon="4.78179">
        <ele>460</ele>
        <time>2010-04-24T10:13:20Z</time>
      </trkpt>
      <trkpt lat="44.87724" lon="4.78199">
        <ele>461</ele>
        <time>2010-04-24T10:13:23Z</time>
      </trkpt>
      <trkpt lat="44.87725" lon="4.78208">
        <ele>461</ele>
        <time>2010-04-24T10:13:25Z</time>
      </trkpt>
      <trkpt lat="44.87727" lon="4.78233">
        <ele>461</ele>
        <time>2010-04-24T10:13:31Z</time>
      </trkpt>
      <trkpt lat="44.87729" lon="4.78251">
        <ele>462</ele>
        <time>2010-04-24T10:13:36Z</time>
      </trkpt>
      <trkpt lat="44.87729" lon="4.78272">
        <ele>463</ele>
        <time>2010-04-24T10:13:41Z</time>
      </trkpt>
      <trkpt lat="44.8773" lon="4.78299">
        <ele>463</ele>
        <time>2010-04-24T10:13:46Z</time>
      </trkpt>
      <trkpt lat="44.87733" lon="4.78308">
        <ele>464</ele>
        <time>2010-04-24T10:13:48Z</time>
      </trkpt>
      <trkpt lat="44.87746" lon="4.78311">
        <ele>464</ele>
        <time>2010-04-24T10:13:52Z</time>
      </trkpt>
      <trkpt lat="44.87766" lon="4.78316">
        <ele>465</ele>
        <time>2010-04-24T10:13:59Z</time>
      </trkpt>
      <trkpt lat="44.87787" lon="4.78331">
        <ele>465</ele>
        <time>2010-04-24T10:14:06Z</time>
      </trkpt>
      <trkpt lat="44.87801" lon="4.78347">
        <ele>466</ele>
        <time>2010-04-24T10:14:12Z</time>
      </trkpt>
      <trkpt lat="44.87814" lon="4.78368">
        <ele>468</ele>
        <time>2010-04-24T10:14:19Z</time>
      </trkpt>
      <trkpt lat="44.87823" lon="4.78394">
        <ele>469</ele>
        <time>2010-04-24T10:14:26Z</time>
      </trkpt>
      <trkpt lat="44.87828" lon="4.78417">
        <ele>470</ele>
        <time>2010-04-24T10:14:32Z</time>
      </trkpt>
      <trkpt lat="44.87832" lon="4.78442">
        <ele>470</ele>
        <time>2010-04-24T10:14:38Z</time>
      </trkpt>
      <trkpt lat="44.87835" lon="4.78463">
        <ele>470</ele>
        <time>2010-04-24T10:14:43Z</time>
      </trkpt>
      <trkpt lat="44.87836" lon="4.78492">
        <ele>471</ele>
        <time>2010-04-24T10:14:50Z</time>
      </trkpt>
      <trkpt lat="44.8783" lon="4.78512">
        <ele>471</ele>
        <time>2010-04-24T10:14:55Z</time>
      </trkpt>
      <trkpt lat="44.8782" lon="4.78534">
        <ele>471</ele>
        <time>2010-04-24T10:15:00Z</time>
      </trkpt>
      <trkpt lat="44.87811" lon="4.7856">
        <ele>470</ele>
        <time>2010-04-24T10:15:05Z</time>
      </trkpt>
      <trkpt lat="44.87798" lon="4.7859">
        <ele>471</ele>
        <time>2010-04-24T10:15:10Z</time>
      </trkpt>
      <trkpt lat="44.87784" lon="4.78628">
        <ele>470</ele>
        <time>2010-04-24T10:15:16Z</time>
      </trkpt>
      <trkpt lat="44.87773" lon="4.78668">
        <ele>471</ele>
        <time>2010-04-24T10:15:21Z</time>
      </trkpt>
      <trkpt lat="44.87772" lon="4.78675">
        <ele>471</ele>
        <time>2010-04-24T10:15:22Z</time>
      </trkpt>
      <trkpt lat="44.87771" lon="4.78707">
        <ele>471</ele>
        <time>2010-04-24T10:15:28Z</time>
      </trkpt>
      <trkpt lat="44.87773" lon="4.78734">
        <ele>472</ele>
        <time>2010-04-24T10:15:33Z</time>
      </trkpt>
      <trkpt lat="44.87771" lon="4.78753">
        <ele>472</ele>
        <time>2010-04-24T10:15:37Z</time>
      </trkpt>
      <trkpt lat="44.87765" lon="4.78764">
        <ele>473</ele>
        <time>2010-04-24T10:15:40Z</time>
      </trkpt>
      <trkpt lat="44.87749" lon="4.78771">
        <ele>474</ele>
        <time>2010-04-24T10:15:45Z</time>
      </trkpt>
      <trkpt lat="44.87736" lon="4.78774">
        <ele>475</ele>
        <time>2010-04-24T10:15:50Z</time>
      </trkpt>
      <trkpt lat="44.87727" lon="4.78784">
        <ele>476</ele>
        <time>2010-04-24T10:15:55Z</time>
      </trkpt>
      <trkpt lat="44.87712" lon="4.78802">
        <ele>477</ele>
        <time>2010-04-24T10:16:01Z</time>
      </trkpt>
      <trkpt lat="44.87705" lon="4.7881">
        <ele>478</ele>
        <time>2010-04-24T10:16:06Z</time>
      </trkpt>
      <trkpt lat="44.87697" lon="4.78821">
        <ele>479</ele>
        <time>2010-04-24T10:16:11Z</time>
      </trkpt>
      <trkpt lat="44.87687" lon="4.78834">
        <ele>479</ele>
        <time>2010-04-24T10:16:17Z</time>
      </trkpt>
      <trkpt lat="44.87677" lon="4.78845">
        <ele>479</ele>
        <time>2010-04-24T10:16:22Z</time>
      </trkpt>
      <trkpt lat="44.87666" lon="4.78859">
        <ele>480</ele>
        <time>2010-04-24T10:16:28Z</time>
      </trkpt>
      <trkpt lat="44.87651" lon="4.78876">
        <ele>482</ele>
        <time>2010-04-24T10:16:35Z</time>
      </trkpt>
      <trkpt lat="44.87635" lon="4.7889">
        <ele>483</ele>
        <time>2010-04-24T10:16:42Z</time>
      </trkpt>
      <trkpt lat="44.87621" lon="4.78904">
        <ele>484</ele>
        <time>2010-04-24T10:16:49Z</time>
      </trkpt>
      <trkpt lat="44.87612" lon="4.78914">
        <ele>486</ele>
        <time>2010-04-24T10:16:55Z</time>
      </trkpt>
      <trkpt lat="44.87605" lon="4.78922">
        <ele>487</ele>
        <time>2010-04-24T10:17:00Z</time>
      </trkpt>
      <trkpt lat="44.87598" lon="4.78931">
        <ele>488</ele>
        <time>2010-04-24T10:17:06Z</time>
      </trkpt>
      <trkpt lat="44.8759" lon="4.78944">
        <ele>489</ele>
        <time>2010-04-24T10:17:13Z</time>
      </trkpt>
      <trkpt lat="44.8758" lon="4.78956">
        <ele>491</ele>
        <time>2010-04-24T10:17:20Z</time>
      </trkpt>
      <trkpt lat="44.87572" lon="4.78965">
        <ele>492</ele>
        <time>2010-04-24T10:17:25Z</time>
      </trkpt>
      <trkpt lat="44.87562" lon="4.78975">
        <ele>493</ele>
        <time>2010-04-24T10:17:30Z</time>
      </trkpt>
      <trkpt lat="44.87559" lon="4.78979">
        <ele>493</ele>
        <time>2010-04-24T10:17:32Z</time>
      </trkpt>
      <trkpt lat="44.87543" lon="4.78988">
        <ele>494</ele>
        <time>2010-04-24T10:17:40Z</time>
      </trkpt>
      <trkpt lat="44.87525" lon="4.78994">
        <ele>495</ele>
        <time>2010-04-24T10:17:48Z</time>
      </trkpt>
      <trkpt lat="44.87505" lon="4.79">
        <ele>495</ele>
        <time>2010-04-24T10:17:56Z</time>
      </trkpt>
      <trkpt lat="44.87478" lon="4.79008">
        <ele>494</ele>
        <time>2010-04-24T10:18:05Z</time>
      </trkpt>
      <trkpt lat="44.87476" lon="4.79008">
        <ele>494</ele>
        <time>2010-04-24T10:18:06Z</time>
      </trkpt>
      <trkpt lat="44.87474" lon="4.79">
        <ele>494</ele>
        <time>2010-04-24T10:18:11Z</time>
      </trkpt>
      <trkpt lat="44.8748" lon="4.78975">
        <ele>495</ele>
        <time>2010-04-24T10:18:20Z</time>
      </trkpt>
      <trkpt lat="44.87485" lon="4.78953">
        <ele>497</ele>
        <time>2010-04-24T10:18:28Z</time>
      </trkpt>
      <trkpt lat="44.87491" lon="4.78927">
        <ele>498</ele>
        <time>2010-04-24T10:18:37Z</time>
      </trkpt>
      <trkpt lat="44.87496" lon="4.78904">
        <ele>500</ele>
        <time>2010-04-24T10:18:45Z</time>
      </trkpt>
      <trkpt lat="44.875" lon="4.78883">
        <ele>501</ele>
        <time>2010-04-24T10:18:52Z</time>
      </trkpt>
      <trkpt lat="44.87504" lon="4.78856">
        <ele>501</ele>
        <time>2010-04-24T10:19:01Z</time>
      </trkpt>
      <trkpt lat="44.87508" lon="4.78836">
        <ele>503</ele>
        <time>2010-04-24T10:19:08Z</time>
      </trkpt>
      <trkpt lat="44.87514" lon="4.78806">
        <ele>504</ele>
        <time>2010-04-24T10:19:18Z</time>
      </trkpt>
      <trkpt lat="44.87519" lon="4.78779">
        <ele>505</ele>
        <time>2010-04-24T10:19:27Z</time>
      </trkpt>
      <trkpt lat="44.87525" lon="4.78755">
        <ele>506</ele>
        <time>2010-04-24T10:19:36Z</time>
      </trkpt>
      <trkpt lat="44.87531" lon="4.78725">
        <ele>507</ele>
        <time>2010-04-24T10:19:46Z</time>
      </trkpt>
      <trkpt lat="44.87536" lon="4.78701">
        <ele>509</ele>
        <time>2010-04-24T10:19:54Z</time>
      </trkpt>
      <trkpt lat="44.8754" lon="4.78672">
        <ele>511</ele>
        <time>2010-04-24T10:20:04Z</time>
      </trkpt>
      <trkpt lat="44.87535" lon="4.78658">
        <ele>511</ele>
        <time>2010-04-24T10:20:10Z</time>
      </trkpt>
      <trkpt lat="44.87527" lon="4.78646">
        <ele>512</ele>
        <time>2010-04-24T10:20:16Z</time>
      </trkpt>
      <trkpt lat="44.87518" lon="4.78637">
        <ele>512</ele>
        <time>2010-04-24T10:20:21Z</time>
      </trkpt>
      <trkpt lat="44.87509" lon="4.78627">
        <ele>513</ele>
        <time>2010-04-24T10:20:26Z</time>
      </trkpt>
      <trkpt lat="44.87498" lon="4.78617">
        <ele>514</ele>
        <time>2010-04-24T10:20:32Z</time>
      </trkpt>
      <trkpt lat="44.87485" lon="4.78604">
        <ele>515</ele>
        <time>2010-04-24T10:20:39Z</time>
      </trkpt>
      <trkpt lat="44.87474" lon="4.78593">
        <ele>515</ele>
        <time>2010-04-24T10:20:45Z</time>
      </trkpt>
      <trkpt lat="44.87459" lon="4.78572">
        <ele>516</ele>
        <time>2010-04-24T10:20:53Z</time>
      </trkpt>
      <trkpt lat="44.87451" lon="4.78552">
        <ele>516</ele>
        <time>2010-04-24T10:20:59Z</time>
      </trkpt>
      <trkpt lat="44.87444" lon="4.78533">
        <ele>517</ele>
        <time>2010-04-24T10:21:05Z</time>
      </trkpt>
      <trkpt lat="44.87435" lon="4.78518">
        <ele>518</ele>
        <time>2010-04-24T10:21:11Z</time>
      </trkpt>
      <trkpt lat="44.87424" lon="4.78503">
        <ele>518</ele>
        <time>2010-04-24T10:21:17Z</time>
      </trkpt>
      <trkpt lat="44.87414" lon="4.78492">
        <ele>519</ele>
        <time>2010-04-24T10:21:22Z</time>
      </trkpt>
      <trkpt lat="44.874" lon="4.78488">
        <ele>518</ele>
        <time>2010-04-24T10:21:27Z</time>
      </trkpt>
      <trkpt lat="44.87386" lon="4.78482">
        <ele>517</ele>
        <time>2010-04-24T10:21:32Z</time>
      </trkpt>
      <trkpt lat="44.87364" lon="4.78471">
        <ele>516</ele>
        <time>2010-04-24T10:21:38Z</time>
      </trkpt>
      <trkpt lat="44.8735" lon="4.78463">
        <ele>515</ele>
        <time>2010-04-24T10:21:41Z</time>
      </trkpt>
      <trkpt lat="44.87323" lon="4.78455">
        <ele>514</ele>
        <time>2010-04-24T10:21:47Z</time>
      </trkpt>
      <trkpt lat="44.87305" lon="4.78451">
        <ele>515</ele>
        <time>2010-04-24T10:21:52Z</time>
      </trkpt>
      <trkpt lat="44.87294" lon="4.78449">
        <ele>516</ele>
        <time>2010-04-24T10:21:56Z</time>
      </trkpt>
      <trkpt lat="44.87279" lon="4.7845">
        <ele>517</ele>
        <time>2010-04-24T10:22:02Z</time>
      </trkpt>
      <trkpt lat="44.87265" lon="4.78449">
        <ele>518</ele>
        <time>2010-04-24T10:22:07Z</time>
      </trkpt>
      <trkpt lat="44.8726" lon="4.78448">
        <ele>518</ele>
        <time>2010-04-24T10:22:09Z</time>
      </trkpt>
      <trkpt lat="44.87246" lon="4.78447">
        <ele>519</ele>
        <time>2010-04-24T10:22:15Z</time>
      </trkpt>
      <trkpt lat="44.8723" lon="4.78447">
        <ele>519</ele>
        <time>2010-04-24T10:22:21Z</time>
      </trkpt>
      <trkpt lat="44.87219" lon="4.78448">
        <ele>520</ele>
        <time>2010-04-24T10:22:25Z</time>
      </trkpt>
      <trkpt lat="44.87205" lon="4.78452">
        <ele>520</ele>
        <time>2010-04-24T10:22:31Z</time>
      </trkpt>
      <trkpt lat="44.872" lon="4.78451">
        <ele>521</ele>
        <time>2010-04-24T10:22:33Z</time>
      </trkpt>
      <trkpt lat="44.87189" lon="4.78438">
        <ele>521</ele>
        <time>2010-04-24T10:22:38Z</time>
      </trkpt>
      <trkpt lat="44.87176" lon="4.78431">
        <ele>521</ele>
        <time>2010-04-24T10:22:43Z</time>
      </trkpt>
      <trkpt lat="44.87159" lon="4.78423">
        <ele>521</ele>
        <time>2010-04-24T10:22:48Z</time>
      </trkpt>
      <trkpt lat="44.87156" lon="4.7842">
        <ele>521</ele>
        <time>2010-04-24T10:22:49Z</time>
      </trkpt>
      <trkpt lat="44.8714" lon="4.78414">
        <ele>520</ele>
        <time>2010-04-24T10:22:53Z</time>
      </trkpt>
      <trkpt lat="44.87119" lon="4.78408">
        <ele>520</ele>
        <time>2010-04-24T10:22:58Z</time>
      </trkpt>
      <trkpt lat="44.87108" lon="4.78402">
        <ele>519</ele>
        <time>2010-04-24T10:23:01Z</time>
      </trkpt>
      <trkpt lat="44.87093" lon="4.78407">
        <ele>519</ele>
        <time>2010-04-24T10:23:06Z</time>
      </trkpt>
      <trkpt lat="44.87091" lon="4.78408">
        <ele>519</ele>
        <time>2010-04-24T10:23:08Z</time>
      </trkpt>
      <trkpt lat="44.87083" lon="4.78411">
        <ele>519</ele>
        <time>2010-04-24T10:24:00Z</time>
      </trkpt>
      <trkpt lat="44.87072" lon="4.78415">
        <ele>519</ele>
        <time>2010-04-24T10:24:05Z</time>
      </trkpt>
      <trkpt lat="44.87061" lon="4.78421">
        <ele>519</ele>
        <time>2010-04-24T10:24:09Z</time>
      </trkpt>
      <trkpt lat="44.87045" lon="4.78428">
        <ele>518</ele>
        <time>2010-04-24T10:24:14Z</time>
      </trkpt>
      <trkpt lat="44.87033" lon="4.78429">
        <ele>518</ele>
        <time>2010-04-24T10:24:17Z</time>
      </trkpt>
      <trkpt lat="44.87011" lon="4.78435">
        <ele>516</ele>
        <time>2010-04-24T10:24:22Z</time>
      </trkpt>
      <trkpt lat="44.8699" lon="4.78438">
        <ele>514</ele>
        <time>2010-04-24T10:24:26Z</time>
      </trkpt>
      <trkpt lat="44.86959" lon="4.78449">
        <ele>512</ele>
        <time>2010-04-24T10:24:31Z</time>
      </trkpt>
      <trkpt lat="44.86926" lon="4.78459">
        <ele>508</ele>
        <time>2010-04-24T10:24:36Z</time>
      </trkpt>
      <trkpt lat="44.86897" lon="4.78471">
        <ele>506</ele>
        <time>2010-04-24T10:24:40Z</time>
      </trkpt>
      <trkpt lat="44.86879" lon="4.78482">
        <ele>504</ele>
        <time>2010-04-24T10:24:43Z</time>
      </trkpt>
      <trkpt lat="44.8685" lon="4.78501">
        <ele>503</ele>
        <time>2010-04-24T10:24:47Z</time>
      </trkpt>
      <trkpt lat="44.86827" lon="4.78512">
        <ele>500</ele>
        <time>2010-04-24T10:24:50Z</time>
      </trkpt>
      <trkpt lat="44.86816" lon="4.78511">
        <ele>500</ele>
        <time>2010-04-24T10:24:52Z</time>
      </trkpt>
      <trkpt lat="44.86813" lon="4.78515">
        <ele>499</ele>
        <time>2010-04-24T10:24:55Z</time>
      </trkpt>
      <trkpt lat="44.86813" lon="4.78516">
        <ele>499</ele>
        <time>2010-04-24T10:24:56Z</time>
      </trkpt>
      <trkpt lat="44.86805" lon="4.78523">
        <ele>499</ele>
        <time>2010-04-24T10:25:11Z</time>
      </trkpt>
      <trkpt lat="44.86796" lon="4.78532">
        <ele>500</ele>
        <time>2010-04-24T10:25:15Z</time>
      </trkpt>
      <trkpt lat="44.86785" lon="4.78547">
        <ele>502</ele>
        <time>2010-04-24T10:25:20Z</time>
      </trkpt>
      <trkpt lat="44.86777" lon="4.78554">
        <ele>503</ele>
        <time>2010-04-24T10:25:23Z</time>
      </trkpt>
      <trkpt lat="44.86765" lon="4.78566">
        <ele>504</ele>
        <time>2010-04-24T10:25:28Z</time>
      </trkpt>
      <trkpt lat="44.86759" lon="4.78574">
        <ele>505</ele>
        <time>2010-04-24T10:25:31Z</time>
      </trkpt>
      <trkpt lat="44.86751" lon="4.78586">
        <ele>506</ele>
        <time>2010-04-24T10:25:36Z</time>
      </trkpt>
      <trkpt lat="44.86743" lon="4.78597">
        <ele>507</ele>
        <time>2010-04-24T10:25:41Z</time>
      </trkpt>
      <trkpt lat="44.86734" lon="4.78609">
        <ele>507</ele>
        <time>2010-04-24T10:25:46Z</time>
      </trkpt>
      <trkpt lat="44.86725" lon="4.7862">
        <ele>507</ele>
        <time>2010-04-24T10:25:50Z</time>
      </trkpt>
      <trkpt lat="44.86711" lon="4.78636">
        <ele>507</ele>
        <time>2010-04-24T10:25:55Z</time>
      </trkpt>
      <trkpt lat="44.867" lon="4.78654">
        <ele>508</ele>
        <time>2010-04-24T10:26:00Z</time>
      </trkpt>
      <trkpt lat="44.86691" lon="4.78664">
        <ele>508</ele>
        <time>2010-04-24T10:26:04Z</time>
      </trkpt>
      <trkpt lat="44.86683" lon="4.78683">
        <ele>508</ele>
        <time>2010-04-24T10:26:09Z</time>
      </trkpt>
      <trkpt lat="44.8668" lon="4.78697">
        <ele>509</ele>
        <time>2010-04-24T10:26:14Z</time>
      </trkpt>
      <trkpt lat="44.86679" lon="4.78713">
        <ele>509</ele>
        <time>2010-04-24T10:26:20Z</time>
      </trkpt>
      <trkpt lat="44.86678" lon="4.78718">
        <ele>508</ele>
        <time>2010-04-24T10:26:23Z</time>
      </trkpt>
      <trkpt lat="44.86676" lon="4.78726">
        <ele>508</ele>
        <time>2010-04-24T10:26:31Z</time>
      </trkpt>
      <trkpt lat="44.86678" lon="4.78736">
        <ele>508</ele>
        <time>2010-04-24T10:26:35Z</time>
      </trkpt>
      <trkpt lat="44.86681" lon="4.78755">
        <ele>507</ele>
        <time>2010-04-24T10:26:39Z</time>
      </trkpt>
      <trkpt lat="44.86686" lon="4.78769">
        <ele>506</ele>
        <time>2010-04-24T10:26:41Z</time>
      </trkpt>
      <trkpt lat="44.86693" lon="4.78782">
        <ele>505</ele>
        <time>2010-04-24T10:26:43Z</time>
      </trkpt>
      <trkpt lat="44.86703" lon="4.78801">
        <ele>504</ele>
        <time>2010-04-24T10:26:46Z</time>
      </trkpt>
      <trkpt lat="44.8671" lon="4.78814">
        <ele>503</ele>
        <time>2010-04-24T10:26:48Z</time>
      </trkpt>
      <trkpt lat="44.86715" lon="4.78844">
        <ele>501</ele>
        <time>2010-04-24T10:26:52Z</time>
      </trkpt>
      <trkpt lat="44.86715" lon="4.78862">
        <ele>500</ele>
        <time>2010-04-24T10:26:54Z</time>
      </trkpt>
      <trkpt lat="44.86711" lon="4.78886">
        <ele>498</ele>
        <time>2010-04-24T10:26:57Z</time>
      </trkpt>
      <trkpt lat="44.86707" lon="4.78904">
        <ele>498</ele>
        <time>2010-04-24T10:26:59Z</time>
      </trkpt>
      <trkpt lat="44.86696" lon="4.78952">
        <ele>496</ele>
        <time>2010-04-24T10:27:04Z</time>
      </trkpt>
      <trkpt lat="44.86675" lon="4.7901">
        <ele>493</ele>
        <time>2010-04-24T10:27:10Z</time>
      </trkpt>
      <trkpt lat="44.86667" lon="4.79031">
        <ele>492</ele>
        <time>2010-04-24T10:27:12Z</time>
      </trkpt>
      <trkpt lat="44.86642" lon="4.79111">
        <ele>487</ele>
        <time>2010-04-24T10:27:19Z</time>
      </trkpt>
      <trkpt lat="44.86638" lon="4.79123">
        <ele>487</ele>
        <time>2010-04-24T10:27:20Z</time>
      </trkpt>
      <trkpt lat="44.86608" lon="4.79174">
        <ele>481</ele>
        <time>2010-04-24T10:27:25Z</time>
      </trkpt>
      <trkpt lat="44.86596" lon="4.79195">
        <ele>480</ele>
        <time>2010-04-24T10:27:27Z</time>
      </trkpt>
      <trkpt lat="44.86585" lon="4.79215">
        <ele>479</ele>
        <time>2010-04-24T10:27:29Z</time>
      </trkpt>
      <trkpt lat="44.86573" lon="4.79255">
        <ele>480</ele>
        <time>2010-04-24T10:27:33Z</time>
      </trkpt>
      <trkpt lat="44.8657" lon="4.79272">
        <ele>480</ele>
        <time>2010-04-24T10:27:35Z</time>
      </trkpt>
      <trkpt lat="44.86567" lon="4.79313">
        <ele>480</ele>
        <time>2010-04-24T10:27:42Z</time>
      </trkpt>
      <trkpt lat="44.86565" lon="4.79332">
        <ele>480</ele>
        <time>2010-04-24T10:27:45Z</time>
      </trkpt>
      <trkpt lat="44.8656" lon="4.79367">
        <ele>479</ele>
        <time>2010-04-24T10:27:52Z</time>
      </trkpt>
      <trkpt lat="44.8656" lon="4.79372">
        <ele>479</ele>
        <time>2010-04-24T10:27:54Z</time>
      </trkpt>
      <trkpt lat="44.86559" lon="4.79384">
        <ele>478</ele>
        <time>2010-04-24T10:27:58Z</time>
      </trkpt>
      <trkpt lat="44.86556" lon="4.79396">
        <ele>477</ele>
        <time>2010-04-24T10:28:04Z</time>
      </trkpt>
      <trkpt lat="44.86555" lon="4.79403">
        <ele>477</ele>
        <time>2010-04-24T10:28:20Z</time>
      </trkpt>
      <trkpt lat="44.86557" lon="4.79407">
        <ele>477</ele>
        <time>2010-04-24T10:28:25Z</time>
      </trkpt>
      <trkpt lat="44.86556" lon="4.79411">
        <ele>478</ele>
        <time>2010-04-24T10:28:47Z</time>
      </trkpt>
      <trkpt lat="44.86556" lon="4.7941">
        <ele>478</ele>
        <time>2010-04-24T10:28:48Z</time>
      </trkpt>
      <trkpt lat="44.86557" lon="4.79406">
        <ele>478</ele>
        <time>2010-04-24T10:28:52Z</time>
      </trkpt>
      <trkpt lat="44.86559" lon="4.79401">
        <ele>478</ele>
        <time>2010-04-24T10:29:00Z</time>
      </trkpt>
      <trkpt lat="44.86562" lon="4.79382">
        <ele>479</ele>
        <time>2010-04-24T10:29:07Z</time>
      </trkpt>
      <trkpt lat="44.86553" lon="4.79376">
        <ele>478</ele>
        <time>2010-04-24T10:29:12Z</time>
      </trkpt>
      <trkpt lat="44.86541" lon="4.7939">
        <ele>478</ele>
        <time>2010-04-24T10:29:19Z</time>
      </trkpt>
      <trkpt lat="44.8653" lon="4.79395">
        <ele>478</ele>
        <time>2010-04-24T10:29:25Z</time>
      </trkpt>
      <trkpt lat="44.8652" lon="4.79402">
        <ele>477</ele>
        <time>2010-04-24T10:29:30Z</time>
      </trkpt>
      <trkpt lat="44.8651" lon="4.79417">
        <ele>476</ele>
        <time>2010-04-24T10:29:34Z</time>
      </trkpt>
      <trkpt lat="44.86495" lon="4.79428">
        <ele>475</ele>
        <time>2010-04-24T10:29:38Z</time>
      </trkpt>
      <trkpt lat="44.86486" lon="4.79436">
        <ele>474</ele>
        <time>2010-04-24T10:29:40Z</time>
      </trkpt>
      <trkpt lat="44.8647" lon="4.79441">
        <ele>472</ele>
        <time>2010-04-24T10:29:43Z</time>
      </trkpt>
      <trkpt lat="44.86445" lon="4.79444">
        <ele>470</ele>
        <time>2010-04-24T10:29:47Z</time>
      </trkpt>
      <trkpt lat="44.8644" lon="4.79449">
        <ele>470</ele>
        <time>2010-04-24T10:29:48Z</time>
      </trkpt>
      <trkpt lat="44.8643" lon="4.79461">
        <ele>470</ele>
        <time>2010-04-24T10:29:50Z</time>
      </trkpt>
      <trkpt lat="44.86411" lon="4.79496">
        <ele>470</ele>
        <time>2010-04-24T10:29:56Z</time>
      </trkpt>
      <trkpt lat="44.86394" lon="4.7951">
        <ele>469</ele>
        <time>2010-04-24T10:30:00Z</time>
      </trkpt>
      <trkpt lat="44.86389" lon="4.79508">
        <ele>468</ele>
        <time>2010-04-24T10:30:01Z</time>
      </trkpt>
      <trkpt lat="44.86366" lon="4.79497">
        <ele>466</ele>
        <time>2010-04-24T10:30:06Z</time>
      </trkpt>
      <trkpt lat="44.86352" lon="4.79485">
        <ele>466</ele>
        <time>2010-04-24T10:30:11Z</time>
      </trkpt>
      <trkpt lat="44.86342" lon="4.79476">
        <ele>464</ele>
        <time>2010-04-24T10:30:17Z</time>
      </trkpt>
      <trkpt lat="44.86333" lon="4.79472">
        <ele>462</ele>
        <time>2010-04-24T10:30:21Z</time>
      </trkpt>
      <trkpt lat="44.86327" lon="4.7947">
        <ele>462</ele>
        <time>2010-04-24T10:30:24Z</time>
      </trkpt>
      <trkpt lat="44.86327" lon="4.79469">
        <ele>462</ele>
        <time>2010-04-24T10:30:25Z</time>
      </trkpt>
      <trkpt lat="44.86324" lon="4.79468">
        <ele>462</ele>
        <time>2010-04-24T10:30:50Z</time>
      </trkpt>
      <trkpt lat="44.86322" lon="4.79457">
        <ele>460</ele>
        <time>2010-04-24T10:30:53Z</time>
      </trkpt>
      <trkpt lat="44.86327" lon="4.79444">
        <ele>457</ele>
        <time>2010-04-24T10:30:57Z</time>
      </trkpt>
      <trkpt lat="44.8633" lon="4.7943">
        <ele>455</ele>
        <time>2010-04-24T10:31:00Z</time>
      </trkpt>
      <trkpt lat="44.86324" lon="4.79416">
        <ele>452</ele>
        <time>2010-04-24T10:31:03Z</time>
      </trkpt>
      <trkpt lat="44.86313" lon="4.79415">
        <ele>450</ele>
        <time>2010-04-24T10:31:06Z</time>
      </trkpt>
      <trkpt lat="44.86305" lon="4.79422">
        <ele>449</ele>
        <time>2010-04-24T10:31:08Z</time>
      </trkpt>
      <trkpt lat="44.86286" lon="4.79438">
        <ele>448</ele>
        <time>2010-04-24T10:31:12Z</time>
      </trkpt>
      <trkpt lat="44.86268" lon="4.79457">
        <ele>448</ele>
        <time>2010-04-24T10:31:17Z</time>
      </trkpt>
      <trkpt lat="44.86245" lon="4.79477">
        <ele>449</ele>
        <time>2010-04-24T10:31:25Z</time>
      </trkpt>
      <trkpt lat="44.8623" lon="4.79497">
        <ele>449</ele>
        <time>2010-04-24T10:31:31Z</time>
      </trkpt>
      <trkpt lat="44.86216" lon="4.79511">
        <ele>449</ele>
        <time>2010-04-24T10:31:36Z</time>
      </trkpt>
      <trkpt lat="44.86198" lon="4.79515">
        <ele>449</ele>
        <time>2010-04-24T10:31:40Z</time>
      </trkpt>
      <trkpt lat="44.8617" lon="4.79531">
        <ele>448</ele>
        <time>2010-04-24T10:31:46Z</time>
      </trkpt>
      <trkpt lat="44.86146" lon="4.79552">
        <ele>448</ele>
        <time>2010-04-24T10:31:52Z</time>
      </trkpt>
      <trkpt lat="44.8614" lon="4.7956">
        <ele>448</ele>
        <time>2010-04-24T10:31:54Z</time>
      </trkpt>
      <trkpt lat="44.86131" lon="4.79575">
        <ele>448</ele>
        <time>2010-04-24T10:31:57Z</time>
      </trkpt>
      <trkpt lat="44.86122" lon="4.79604">
        <ele>447</ele>
        <time>2010-04-24T10:32:01Z</time>
      </trkpt>
      <trkpt lat="44.86127" lon="4.79639">
        <ele>445</ele>
        <time>2010-04-24T10:32:06Z</time>
      </trkpt>
      <trkpt lat="44.86136" lon="4.79647">
        <ele>446</ele>
        <time>2010-04-24T10:32:09Z</time>
      </trkpt>
      <trkpt lat="44.86155" lon="4.79668">
        <ele>447</ele>
        <time>2010-04-24T10:32:16Z</time>
      </trkpt>
      <trkpt lat="44.86175" lon="4.79694">
        <ele>446</ele>
        <time>2010-04-24T10:32:23Z</time>
      </trkpt>
      <trkpt lat="44.86198" lon="4.79722">
        <ele>446</ele>
        <time>2010-04-24T10:32:29Z</time>
      </trkpt>
      <trkpt lat="44.86221" lon="4.79745">
        <ele>446</ele>
        <time>2010-04-24T10:32:34Z</time>
      </trkpt>
      <trkpt lat="44.86241" lon="4.79772">
        <ele>445</ele>
        <time>2010-04-24T10:32:39Z</time>
      </trkpt>
      <trkpt lat="44.86266" lon="4.79797">
        <ele>445</ele>
        <time>2010-04-24T10:32:44Z</time>
      </trkpt>
      <trkpt lat="44.86285" lon="4.79823">
        <ele>444</ele>
        <time>2010-04-24T10:32:49Z</time>
      </trkpt>
      <trkpt lat="44.86294" lon="4.79841">
        <ele>444</ele>
        <time>2010-04-24T10:32:52Z</time>
      </trkpt>
      <trkpt lat="44.86312" lon="4.79864">
        <ele>445</ele>
        <time>2010-04-24T10:32:58Z</time>
      </trkpt>
      <trkpt lat="44.86325" lon="4.79883">
        <ele>446</ele>
        <time>2010-04-24T10:33:04Z</time>
      </trkpt>
      <trkpt lat="44.86325" lon="4.79902">
        <ele>445</ele>
        <time>2010-04-24T10:33:08Z</time>
      </trkpt>
      <trkpt lat="44.8632" lon="4.79921">
        <ele>445</ele>
        <time>2010-04-24T10:33:11Z</time>
      </trkpt>
      <trkpt lat="44.86308" lon="4.79969">
        <ele>443</ele>
        <time>2010-04-24T10:33:18Z</time>
      </trkpt>
      <trkpt lat="44.8629" lon="4.80026">
        <ele>442</ele>
        <time>2010-04-24T10:33:26Z</time>
      </trkpt>
      <trkpt lat="44.86275" lon="4.80055">
        <ele>441</ele>
        <time>2010-04-24T10:33:31Z</time>
      </trkpt>
      <trkpt lat="44.86263" lon="4.80088">
        <ele>439</ele>
        <time>2010-04-24T10:33:35Z</time>
      </trkpt>
      <trkpt lat="44.86253" lon="4.80113">
        <ele>437</ele>
        <time>2010-04-24T10:33:38Z</time>
      </trkpt>
      <trkpt lat="44.86237" lon="4.80147">
        <ele>434</ele>
        <time>2010-04-24T10:33:43Z</time>
      </trkpt>
      <trkpt lat="44.86233" lon="4.80152">
        <ele>433</ele>
        <time>2010-04-24T10:33:46Z</time>
      </trkpt>
      <trkpt lat="44.86233" lon="4.80152">
        <ele>433</ele>
        <time>2010-04-24T10:33:48Z</time>
      </trkpt>
      <trkpt lat="44.86222" lon="4.80141">
        <ele>431</ele>
        <time>2010-04-24T10:33:56Z</time>
      </trkpt>
      <trkpt lat="44.86221" lon="4.80133">
        <ele>431</ele>
        <time>2010-04-24T10:33:59Z</time>
      </trkpt>
      <trkpt lat="44.86223" lon="4.8013">
        <ele>430</ele>
        <time>2010-04-24T10:34:02Z</time>
      </trkpt>
      <trkpt lat="44.86223" lon="4.80136">
        <ele>431</ele>
        <time>2010-04-24T10:34:17Z</time>
      </trkpt>
      <trkpt lat="44.86228" lon="4.80148">
        <ele>432</ele>
        <time>2010-04-24T10:34:30Z</time>
      </trkpt>
      <trkpt lat="44.86228" lon="4.80149">
        <ele>432</ele>
        <time>2010-04-24T10:34:31Z</time>
      </trkpt>
      <trkpt lat="44.86231" lon="4.80153">
        <ele>433</ele>
        <time>2010-04-24T10:34:37Z</time>
      </trkpt>
      <trkpt lat="44.86231" lon="4.80153">
        <ele>433</ele>
        <time>2010-04-24T10:34:39Z</time>
      </trkpt>
      <trkpt lat="44.86223" lon="4.80145">
        <ele>431</ele>
        <time>2010-04-24T10:35:10Z</time>
      </trkpt>
      <trkpt lat="44.8622" lon="4.80138">
        <ele>431</ele>
        <time>2010-04-24T10:35:12Z</time>
      </trkpt>
      <trkpt lat="44.86229" lon="4.80111">
        <ele>428</ele>
        <time>2010-04-24T10:35:18Z</time>
      </trkpt>
      <trkpt lat="44.86232" lon="4.80096">
        <ele>425</ele>
        <time>2010-04-24T10:35:22Z</time>
      </trkpt>
      <trkpt lat="44.8622" lon="4.80096">
        <ele>420</ele>
        <time>2010-04-24T10:35:26Z</time>
      </trkpt>
      <trkpt lat="44.86206" lon="4.80108">
        <ele>417</ele>
        <time>2010-04-24T10:35:29Z</time>
      </trkpt>
      <trkpt lat="44.86181" lon="4.80119">
        <ele>411</ele>
        <time>2010-04-24T10:35:34Z</time>
      </trkpt>
      <trkpt lat="44.86177" lon="4.80122">
        <ele>410</ele>
        <time>2010-04-24T10:35:35Z</time>
      </trkpt>
      <trkpt lat="44.86163" lon="4.80133">
        <ele>409</ele>
        <time>2010-04-24T10:35:38Z</time>
      </trkpt>
      <trkpt lat="44.86139" lon="4.80157">
        <ele>406</ele>
        <time>2010-04-24T10:35:43Z</time>
      </trkpt>
      <trkpt lat="44.86116" lon="4.80184">
        <ele>404</ele>
        <time>2010-04-24T10:35:48Z</time>
      </trkpt>
      <trkpt lat="44.86105" lon="4.80196">
        <ele>402</ele>
        <time>2010-04-24T10:35:51Z</time>
      </trkpt>
      <trkpt lat="44.86103" lon="4.80203">
        <ele>401</ele>
        <time>2010-04-24T10:35:52Z</time>
      </trkpt>
      <trkpt lat="44.86091" lon="4.80223">
        <ele>399</ele>
        <time>2010-04-24T10:35:56Z</time>
      </trkpt>
      <trkpt lat="44.86087" lon="4.8023">
        <ele>398</ele>
        <time>2010-04-24T10:35:59Z</time>
      </trkpt>
      <trkpt lat="44.86087" lon="4.8023">
        <ele>398</ele>
        <time>2010-04-24T10:36:00Z</time>
      </trkpt>
      <trkpt lat="44.86082" lon="4.8025">
        <ele>396</ele>
        <time>2010-04-24T10:37:50Z</time>
      </trkpt>
      <trkpt lat="44.86077" lon="4.80274">
        <ele>394</ele>
        <time>2010-04-24T10:37:54Z</time>
      </trkpt>
      <trkpt lat="44.86079" lon="4.8028">
        <ele>394</ele>
        <time>2010-04-24T10:37:55Z</time>
      </trkpt>
      <trkpt lat="44.86083" lon="4.80292">
        <ele>393</ele>
        <time>2010-04-24T10:37:57Z</time>
      </trkpt>
      <trkpt lat="44.86093" lon="4.80306">
        <ele>391</ele>
        <time>2010-04-24T10:38:00Z</time>
      </trkpt>
      <trkpt lat="44.86106" lon="4.80326">
        <ele>387</ele>
        <time>2010-04-24T10:38:04Z</time>
      </trkpt>
      <trkpt lat="44.86121" lon="4.80359">
        <ele>380</ele>
        <time>2010-04-24T10:38:09Z</time>
      </trkpt>
      <trkpt lat="44.86137" lon="4.80399">
        <ele>373</ele>
        <time>2010-04-24T10:38:16Z</time>
      </trkpt>
      <trkpt lat="44.86141" lon="4.80404">
        <ele>373</ele>
        <time>2010-04-24T10:38:17Z</time>
      </trkpt>
      <trkpt lat="44.86151" lon="4.80424">
        <ele>370</ele>
        <time>2010-04-24T10:38:20Z</time>
      </trkpt>
      <trkpt lat="44.86154" lon="4.80457">
        <ele>364</ele>
        <time>2010-04-24T10:38:25Z</time>
      </trkpt>
      <trkpt lat="44.86161" lon="4.80493">
        <ele>356</ele>
        <time>2010-04-24T10:38:31Z</time>
      </trkpt>
      <trkpt lat="44.86163" lon="4.80507">
        <ele>352</ele>
        <time>2010-04-24T10:38:33Z</time>
      </trkpt>
      <trkpt lat="44.86163" lon="4.80522">
        <ele>349</ele>
        <time>2010-04-24T10:38:35Z</time>
      </trkpt>
      <trkpt lat="44.86174" lon="4.8055">
        <ele>345</ele>
        <time>2010-04-24T10:38:40Z</time>
      </trkpt>
      <trkpt lat="44.86179" lon="4.80561">
        <ele>343</ele>
        <time>2010-04-24T10:38:42Z</time>
      </trkpt>
      <trkpt lat="44.86183" lon="4.80574">
        <ele>342</ele>
        <time>2010-04-24T10:38:44Z</time>
      </trkpt>
      <trkpt lat="44.86195" lon="4.80594">
        <ele>339</ele>
        <time>2010-04-24T10:38:48Z</time>
      </trkpt>
      <trkpt lat="44.86205" lon="4.80617">
        <ele>334</ele>
        <time>2010-04-24T10:38:53Z</time>
      </trkpt>
      <trkpt lat="44.86207" lon="4.80625">
        <ele>332</ele>
        <time>2010-04-24T10:38:55Z</time>
      </trkpt>
      <trkpt lat="44.8622" lon="4.80635">
        <ele>330</ele>
        <time>2010-04-24T10:38:59Z</time>
      </trkpt>
      <trkpt lat="44.86245" lon="4.80651">
        <ele>329</ele>
        <time>2010-04-24T10:39:05Z</time>
      </trkpt>
      <trkpt lat="44.86262" lon="4.80662">
        <ele>328</ele>
        <time>2010-04-24T10:39:08Z</time>
      </trkpt>
      <trkpt lat="44.86294" lon="4.80674">
        <ele>322</ele>
        <time>2010-04-24T10:39:13Z</time>
      </trkpt>
      <trkpt lat="44.86304" lon="4.80677">
        <ele>320</ele>
        <time>2010-04-24T10:39:15Z</time>
      </trkpt>
      <trkpt lat="44.8632" lon="4.80683">
        <ele>317</ele>
        <time>2010-04-24T10:39:18Z</time>
      </trkpt>
      <trkpt lat="44.8634" lon="4.80677">
        <ele>312</ele>
        <time>2010-04-24T10:39:22Z</time>
      </trkpt>
      <trkpt lat="44.86346" lon="4.80679">
        <ele>310</ele>
        <time>2010-04-24T10:39:25Z</time>
      </trkpt>
      <trkpt lat="44.86345" lon="4.80684">
        <ele>309</ele>
        <time>2010-04-24T10:39:29Z</time>
      </trkpt>
      <trkpt lat="44.86346" lon="4.80696">
        <ele>309</ele>
        <time>2010-04-24T10:42:31Z</time>
      </trkpt>
      <trkpt lat="44.86334" lon="4.80716">
        <ele>306</ele>
        <time>2010-04-24T10:42:36Z</time>
      </trkpt>
      <trkpt lat="44.86315" lon="4.80738">
        <ele>303</ele>
        <time>2010-04-24T10:42:41Z</time>
      </trkpt>
      <trkpt lat="44.86296" lon="4.80761">
        <ele>299</ele>
        <time>2010-04-24T10:42:45Z</time>
      </trkpt>
      <trkpt lat="44.86286" lon="4.80769">
        <ele>297</ele>
        <time>2010-04-24T10:42:47Z</time>
      </trkpt>
      <trkpt lat="44.86265" lon="4.80782">
        <ele>293</ele>
        <time>2010-04-24T10:42:52Z</time>
      </trkpt>
      <trkpt lat="44.86245" lon="4.80795">
        <ele>288</ele>
        <time>2010-04-24T10:42:56Z</time>
      </trkpt>
      <trkpt lat="44.86214" lon="4.80816">
        <ele>283</ele>
        <time>2010-04-24T10:43:01Z</time>
      </trkpt>
      <trkpt lat="44.8619" lon="4.80823">
        <ele>280</ele>
        <time>2010-04-24T10:43:05Z</time>
      </trkpt>
      <trkpt lat="44.86176" lon="4.80825">
        <ele>278</ele>
        <time>2010-04-24T10:43:07Z</time>
      </trkpt>
      <trkpt lat="44.86148" lon="4.80818">
        <ele>273</ele>
        <time>2010-04-24T10:43:11Z</time>
      </trkpt>
      <trkpt lat="44.86125" lon="4.80815">
        <ele>269</ele>
        <time>2010-04-24T10:43:14Z</time>
      </trkpt>
      <trkpt lat="44.86102" lon="4.80817">
        <ele>265</ele>
        <time>2010-04-24T10:43:17Z</time>
      </trkpt>
      <trkpt lat="44.86075" lon="4.80808">
        <ele>261</ele>
        <time>2010-04-24T10:43:21Z</time>
      </trkpt>
      <trkpt lat="44.86063" lon="4.80815">
        <ele>259</ele>
        <time>2010-04-24T10:43:24Z</time>
      </trkpt>
      <trkpt lat="44.86056" lon="4.80822">
        <ele>258</ele>
        <time>2010-04-24T10:43:26Z</time>
      </trkpt>
      <trkpt lat="44.86042" lon="4.80828">
        <ele>257</ele>
        <time>2010-04-24T10:43:30Z</time>
      </trkpt>
      <trkpt lat="44.86028" lon="4.80837">
        <ele>255</ele>
        <time>2010-04-24T10:43:34Z</time>
      </trkpt>
      <trkpt lat="44.86017" lon="4.80826">
        <ele>255</ele>
        <time>2010-04-24T10:43:39Z</time>
      </trkpt>
      <trkpt lat="44.86012" lon="4.80809">
        <ele>254</ele>
        <time>2010-04-24T10:43:43Z</time>
      </trkpt>
      <trkpt lat="44.85999" lon="4.80807">
        <ele>252</ele>
        <time>2010-04-24T10:43:46Z</time>
      </trkpt>
      <trkpt lat="44.85994" lon="4.80808">
        <ele>252</ele>
        <time>2010-04-24T10:43:47Z</time>
      </trkpt>
      <trkpt lat="44.85987" lon="4.80808">
        <ele>251</ele>
        <time>2010-04-24T10:43:49Z</time>
      </trkpt>
      <trkpt lat="44.8598" lon="4.80807">
        <ele>249</ele>
        <time>2010-04-24T10:43:52Z</time>
      </trkpt>
      <trkpt lat="44.85967" lon="4.80806">
        <ele>248</ele>
        <time>2010-04-24T10:43:56Z</time>
      </trkpt>
      <trkpt lat="44.8596" lon="4.80807">
        <ele>246</ele>
        <time>2010-04-24T10:43:58Z</time>
      </trkpt>
      <trkpt lat="44.85947" lon="4.80829">
        <ele>244</ele>
        <time>2010-04-24T10:44:03Z</time>
      </trkpt>
      <trkpt lat="44.85932" lon="4.80865">
        <ele>242</ele>
        <time>2010-04-24T10:44:08Z</time>
      </trkpt>
      <trkpt lat="44.85925" lon="4.80882">
        <ele>241</ele>
        <time>2010-04-24T10:44:10Z</time>
      </trkpt>
      <trkpt lat="44.85903" lon="4.80897">
        <ele>238</ele>
        <time>2010-04-24T10:44:14Z</time>
      </trkpt>
      <trkpt lat="44.85869" lon="4.80881">
        <ele>234</ele>
        <time>2010-04-24T10:44:19Z</time>
      </trkpt>
      <trkpt lat="44.85856" lon="4.80854">
        <ele>232</ele>
        <time>2010-04-24T10:44:22Z</time>
      </trkpt>
      <trkpt lat="44.85848" lon="4.80821">
        <ele>231</ele>
        <time>2010-04-24T10:44:25Z</time>
      </trkpt>
      <trkpt lat="44.8584" lon="4.80799">
        <ele>230</ele>
        <time>2010-04-24T10:44:27Z</time>
      </trkpt>
      <trkpt lat="44.85817" lon="4.80743">
        <ele>225</ele>
        <time>2010-04-24T10:44:32Z</time>
      </trkpt>
      <trkpt lat="44.85799" lon="4.80728">
        <ele>224</ele>
        <time>2010-04-24T10:44:35Z</time>
      </trkpt>
      <trkpt lat="44.85789" lon="4.80744">
        <ele>223</ele>
        <time>2010-04-24T10:44:37Z</time>
      </trkpt>
      <trkpt lat="44.8579" lon="4.80764">
        <ele>221</ele>
        <time>2010-04-24T10:44:39Z</time>
      </trkpt>
      <trkpt lat="44.85787" lon="4.80814">
        <ele>219</ele>
        <time>2010-04-24T10:44:44Z</time>
      </trkpt>
      <trkpt lat="44.85776" lon="4.80832">
        <ele>218</ele>
        <time>2010-04-24T10:44:46Z</time>
      </trkpt>
      <trkpt lat="44.85743" lon="4.80876">
        <ele>213</ele>
        <time>2010-04-24T10:44:51Z</time>
      </trkpt>
      <trkpt lat="44.857" lon="4.8091">
        <ele>209</ele>
        <time>2010-04-24T10:44:56Z</time>
      </trkpt>
      <trkpt lat="44.85671" lon="4.80953">
        <ele>205</ele>
        <time>2010-04-24T10:45:00Z</time>
      </trkpt>
      <trkpt lat="44.85638" lon="4.81016">
        <ele>200</ele>
        <time>2010-04-24T10:45:05Z</time>
      </trkpt>
      <trkpt lat="44.85595" lon="4.8109">
        <ele>195</ele>
        <time>2010-04-24T10:45:11Z</time>
      </trkpt>
      <trkpt lat="44.85587" lon="4.81127">
        <ele>192</ele>
        <time>2010-04-24T10:45:14Z</time>
      </trkpt>
      <trkpt lat="44.85589" lon="4.81156">
        <ele>189</ele>
        <time>2010-04-24T10:45:17Z</time>
      </trkpt>
      <trkpt lat="44.85581" lon="4.81153">
        <ele>188</ele>
        <time>2010-04-24T10:45:19Z</time>
      </trkpt>
      <trkpt lat="44.85574" lon="4.81138">
        <ele>187</ele>
        <time>2010-04-24T10:45:21Z</time>
      </trkpt>
      <trkpt lat="44.85571" lon="4.81123">
        <ele>186</ele>
        <time>2010-04-24T10:45:23Z</time>
      </trkpt>
      <trkpt lat="44.85567" lon="4.81106">
        <ele>185</ele>
        <time>2010-04-24T10:45:26Z</time>
      </trkpt>
      <trkpt lat="44.85566" lon="4.81099">
        <ele>185</ele>
        <time>2010-04-24T10:45:30Z</time>
      </trkpt>
      <trkpt lat="44.85565" lon="4.81096">
        <ele>185</ele>
        <time>2010-04-24T10:45:33Z</time>
      </trkpt>
      <trkpt lat="44.85562" lon="4.81093">
        <ele>184</ele>
        <time>2010-04-24T10:45:43Z</time>
      </trkpt>
      <trkpt lat="44.85562" lon="4.81091">
        <ele>185</ele>
        <time>2010-04-24T10:45:48Z</time>
      </trkpt>
      <trkpt lat="44.85562" lon="4.81088">
        <ele>185</ele>
        <time>2010-04-24T10:45:51Z</time>
      </trkpt>
      <trkpt lat="44.85563" lon="4.81085">
        <ele>184</ele>
        <time>2010-04-24T10:45:55Z</time>
      </trkpt>
      <trkpt lat="44.85554" lon="4.81061">
        <ele>182</ele>
        <time>2010-04-24T10:46:04Z</time>
      </trkpt>
      <trkpt lat="44.85549" lon="4.81032">
        <ele>181</ele>
        <time>2010-04-24T10:46:08Z</time>
      </trkpt>
      <trkpt lat="44.85548" lon="4.81002">
        <ele>179</ele>
        <time>2010-04-24T10:46:14Z</time>
      </trkpt>
      <trkpt lat="44.85547" lon="4.80988">
        <ele>178</ele>
        <time>2010-04-24T10:46:18Z</time>
      </trkpt>
      <trkpt lat="44.85546" lon="4.80981">
        <ele>178</ele>
        <time>2010-04-24T10:46:20Z</time>
      </trkpt>
      <trkpt lat="44.85536" lon="4.80972">
        <ele>177</ele>
        <time>2010-04-24T10:46:25Z</time>
      </trkpt>
      <trkpt lat="44.8553" lon="4.80978">
        <ele>176</ele>
        <time>2010-04-24T10:46:28Z</time>
      </trkpt>
      <trkpt lat="44.85529" lon="4.80991">
        <ele>174</ele>
        <time>2010-04-24T10:46:31Z</time>
      </trkpt>
      <trkpt lat="44.85528" lon="4.81006">
        <ele>173</ele>
        <time>2010-04-24T10:46:33Z</time>
      </trkpt>
      <trkpt lat="44.85518" lon="4.8105">
        <ele>171</ele>
        <time>2010-04-24T10:46:39Z</time>
      </trkpt>
      <trkpt lat="44.85512" lon="4.81095">
        <ele>168</ele>
        <time>2010-04-24T10:46:46Z</time>
      </trkpt>
      <trkpt lat="44.85513" lon="4.81117">
        <ele>167</ele>
        <time>2010-04-24T10:46:51Z</time>
      </trkpt>
      <trkpt lat="44.85513" lon="4.81141">
        <ele>166</ele>
        <time>2010-04-24T10:46:55Z</time>
      </trkpt>
      <trkpt lat="44.85512" lon="4.81172">
        <ele>164</ele>
        <time>2010-04-24T10:47:00Z</time>
      </trkpt>
      <trkpt lat="44.85508" lon="4.81184">
        <ele>163</ele>
        <time>2010-04-24T10:47:04Z</time>
      </trkpt>
      <trkpt lat="44.85507" lon="4.81187">
        <ele>162</ele>
        <time>2010-04-24T10:47:05Z</time>
      </trkpt>
      <trkpt lat="44.85508" lon="4.81204">
        <ele>162</ele>
        <time>2010-04-24T10:47:10Z</time>
      </trkpt>
      <trkpt lat="44.85515" lon="4.81222">
        <ele>161</ele>
        <time>2010-04-24T10:47:14Z</time>
      </trkpt>
      <trkpt lat="44.85531" lon="4.8126">
        <ele>159</ele>
        <time>2010-04-24T10:47:21Z</time>
      </trkpt>
      <trkpt lat="44.85534" lon="4.81282">
        <ele>157</ele>
        <time>2010-04-24T10:47:25Z</time>
      </trkpt>
      <trkpt lat="44.85524" lon="4.81288">
        <ele>156</ele>
        <time>2010-04-24T10:47:28Z</time>
      </trkpt>
      <trkpt lat="44.85521" lon="4.81286">
        <ele>155</ele>
        <time>2010-04-24T10:47:29Z</time>
      </trkpt>
      <trkpt lat="44.85493" lon="4.81271">
        <ele>153</ele>
        <time>2010-04-24T10:47:35Z</time>
      </trkpt>
      <trkpt lat="44.85487" lon="4.81267">
        <ele>152</ele>
        <time>2010-04-24T10:47:36Z</time>
      </trkpt>
      <trkpt lat="44.85447" lon="4.81262">
        <ele>149</ele>
        <time>2010-04-24T10:47:41Z</time>
      </trkpt>
      <trkpt lat="44.8539" lon="4.81279">
        <ele>145</ele>
        <time>2010-04-24T10:47:47Z</time>
      </trkpt>
      <trkpt lat="44.85322" lon="4.81301">
        <ele>142</ele>
        <time>2010-04-24T10:47:54Z</time>
      </trkpt>
      <trkpt lat="44.85285" lon="4.81314">
        <ele>142</ele>
        <time>2010-04-24T10:47:59Z</time>
      </trkpt>
      <trkpt lat="44.85257" lon="4.81331">
        <ele>142</ele>
        <time>2010-04-24T10:48:04Z</time>
      </trkpt>
      <trkpt lat="44.85252" lon="4.81336">
        <ele>142</ele>
        <time>2010-04-24T10:48:05Z</time>
      </trkpt>
      <trkpt lat="44.85235" lon="4.81358">
        <ele>143</ele>
        <time>2010-04-24T10:48:09Z</time>
      </trkpt>
      <trkpt lat="44.85223" lon="4.8139">
        <ele>145</ele>
        <time>2010-04-24T10:48:15Z</time>
      </trkpt>
      <trkpt lat="44.85215" lon="4.81422">
        <ele>146</ele>
        <time>2010-04-24T10:48:22Z</time>
      </trkpt>
      <trkpt lat="44.85199" lon="4.81456">
        <ele>148</ele>
        <time>2010-04-24T10:48:30Z</time>
      </trkpt>
      <trkpt lat="44.85175" lon="4.81485">
        <ele>148</ele>
        <time>2010-04-24T10:48:38Z</time>
      </trkpt>
      <trkpt lat="44.8516" lon="4.81508">
        <ele>147</ele>
        <time>2010-04-24T10:48:43Z</time>
      </trkpt>
      <trkpt lat="44.85135" lon="4.81526">
        <ele>147</ele>
        <time>2010-04-24T10:48:49Z</time>
      </trkpt>
      <trkpt lat="44.85101" lon="4.81539">
        <ele>145</ele>
        <time>2010-04-24T10:48:55Z</time>
      </trkpt>
      <trkpt lat="44.85066" lon="4.8156">
        <ele>142</ele>
        <time>2010-04-24T10:49:00Z</time>
      </trkpt>
      <trkpt lat="44.8502" lon="4.81608">
        <ele>139</ele>
        <time>2010-04-24T10:49:07Z</time>
      </trkpt>
      <trkpt lat="44.84984" lon="4.81642">
        <ele>136</ele>
        <time>2010-04-24T10:49:12Z</time>
      </trkpt>
      <trkpt lat="44.84978" lon="4.81648">
        <ele>134</ele>
        <time>2010-04-24T10:49:13Z</time>
      </trkpt>
      <trkpt lat="44.84954" lon="4.81657">
        <ele>132</ele>
        <time>2010-04-24T10:49:17Z</time>
      </trkpt>
      <trkpt lat="44.84944" lon="4.81635">
        <ele>130</ele>
        <time>2010-04-24T10:49:21Z</time>
      </trkpt>
      <trkpt lat="44.84936" lon="4.81581">
        <ele>127</ele>
        <time>2010-04-24T10:49:27Z</time>
      </trkpt>
      <trkpt lat="44.84918" lon="4.81547">
        <ele>125</ele>
        <time>2010-04-24T10:49:32Z</time>
      </trkpt>
      <trkpt lat="44.84911" lon="4.81514">
        <ele>124</ele>
        <time>2010-04-24T10:49:36Z</time>
      </trkpt>
      <trkpt lat="44.84914" lon="4.81486">
        <ele>123</ele>
        <time>2010-04-24T10:49:39Z</time>
      </trkpt>
      <trkpt lat="44.84917" lon="4.8147">
        <ele>123</ele>
        <time>2010-04-24T10:49:41Z</time>
      </trkpt>
      <trkpt lat="44.84928" lon="4.81447">
        <ele>123</ele>
        <time>2010-04-24T10:49:45Z</time>
      </trkpt>
      <trkpt lat="44.84937" lon="4.81428">
        <ele>123</ele>
        <time>2010-04-24T10:49:50Z</time>
      </trkpt>
      <trkpt lat="44.84944" lon="4.81403">
        <ele>124</ele>
        <time>2010-04-24T10:49:56Z</time>
      </trkpt>
      <trkpt lat="44.84944" lon="4.81395">
        <ele>124</ele>
        <time>2010-04-24T10:49:58Z</time>
      </trkpt>
      <trkpt lat="44.8493" lon="4.8139">
        <ele>125</ele>
        <time>2010-04-24T10:50:03Z</time>
      </trkpt>
      <trkpt lat="44.84927" lon="4.81391">
        <ele>125</ele>
        <time>2010-04-24T10:50:04Z</time>
      </trkpt>
      <trkpt lat="44.84903" lon="4.81394">
        <ele>126</ele>
        <time>2010-04-24T10:50:11Z</time>
      </trkpt>
      <trkpt lat="44.8488" lon="4.81405">
        <ele>126</ele>
        <time>2010-04-24T10:50:18Z</time>
      </trkpt>
      <trkpt lat="44.84867" lon="4.81414">
        <ele>126</ele>
        <time>2010-04-24T10:50:22Z</time>
      </trkpt>
      <trkpt lat="44.84838" lon="4.81441">
        <ele>125</ele>
        <time>2010-04-24T10:50:30Z</time>
      </trkpt>
      <trkpt lat="44.84827" lon="4.81454">
        <ele>125</ele>
        <time>2010-04-24T10:50:33Z</time>
      </trkpt>
      <trkpt lat="44.84818" lon="4.81481">
        <ele>124</ele>
        <time>2010-04-24T10:50:37Z</time>
      </trkpt>
      <trkpt lat="44.84816" lon="4.81502">
        <ele>124</ele>
        <time>2010-04-24T10:50:40Z</time>
      </trkpt>
      <trkpt lat="44.84803" lon="4.81551">
        <ele>124</ele>
        <time>2010-04-24T10:50:47Z</time>
      </trkpt>
      <trkpt lat="44.84796" lon="4.81565">
        <ele>123</ele>
        <time>2010-04-24T10:50:49Z</time>
      </trkpt>
      <trkpt lat="44.84768" lon="4.81602">
        <ele>122</ele>
        <time>2010-04-24T10:50:55Z</time>
      </trkpt>
      <trkpt lat="44.84742" lon="4.81628">
        <ele>122</ele>
        <time>2010-04-24T10:51:00Z</time>
      </trkpt>
      <trkpt lat="44.84711" lon="4.81639">
        <ele>121</ele>
        <time>2010-04-24T10:51:05Z</time>
      </trkpt>
      <trkpt lat="44.84693" lon="4.81634">
        <ele>121</ele>
        <time>2010-04-24T10:51:08Z</time>
      </trkpt>
      <trkpt lat="44.84651" lon="4.81607">
        <ele>121</ele>
        <time>2010-04-24T10:51:16Z</time>
      </trkpt>
      <trkpt lat="44.84609" lon="4.81582">
        <ele>121</ele>
        <time>2010-04-24T10:51:24Z</time>
      </trkpt>
      <trkpt lat="44.84565" lon="4.81562">
        <ele>121</ele>
        <time>2010-04-24T10:51:32Z</time>
      </trkpt>
      <trkpt lat="44.84518" lon="4.81552">
        <ele>121</ele>
        <time>2010-04-24T10:51:40Z</time>
      </trkpt>
      <trkpt lat="44.8448" lon="4.81558">
        <ele>121</ele>
        <time>2010-04-24T10:51:47Z</time>
      </trkpt>
      <trkpt lat="44.8445" lon="4.81571">
        <ele>121</ele>
        <time>2010-04-24T10:51:52Z</time>
      </trkpt>
      <trkpt lat="44.84424" lon="4.816">
        <ele>121</ele>
        <time>2010-04-24T10:51:58Z</time>
      </trkpt>
      <trkpt lat="44.84404" lon="4.81625">
        <ele>121</ele>
        <time>2010-04-24T10:52:03Z</time>
      </trkpt>
      <trkpt lat="44.844" lon="4.81628">
        <ele>121</ele>
        <time>2010-04-24T10:52:04Z</time>
      </trkpt>
      <trkpt lat="44.84375" lon="4.81633">
        <ele>121</ele>
        <time>2010-04-24T10:52:09Z</time>
      </trkpt>
      <trkpt lat="44.84365" lon="4.81629">
        <ele>122</ele>
        <time>2010-04-24T10:52:11Z</time>
      </trkpt>
      <trkpt lat="44.84347" lon="4.8162">
        <ele>124</ele>
        <time>2010-04-24T10:52:15Z</time>
      </trkpt>
      <trkpt lat="44.8432" lon="4.81612">
        <ele>125</ele>
        <time>2010-04-24T10:52:22Z</time>
      </trkpt>
      <trkpt lat="44.84293" lon="4.81612">
        <ele>127</ele>
        <time>2010-04-24T10:52:29Z</time>
      </trkpt>
      <trkpt lat="44.84265" lon="4.81626">
        <ele>126</ele>
        <time>2010-04-24T10:52:36Z</time>
      </trkpt>
      <trkpt lat="44.84245" lon="4.81628">
        <ele>127</ele>
        <time>2010-04-24T10:52:41Z</time>
      </trkpt>
      <trkpt lat="44.84227" lon="4.81625">
        <ele>127</ele>
        <time>2010-04-24T10:52:46Z</time>
      </trkpt>
      <trkpt lat="44.8421" lon="4.81636">
        <ele>126</ele>
        <time>2010-04-24T10:52:51Z</time>
      </trkpt>
      <trkpt lat="44.84201" lon="4.81633">
        <ele>127</ele>
        <time>2010-04-24T10:52:53Z</time>
      </trkpt>
      <trkpt lat="44.84194" lon="4.81629">
        <ele>127</ele>
        <time>2010-04-24T10:52:55Z</time>
      </trkpt>
      <trkpt lat="44.84177" lon="4.81598">
        <ele>127</ele>
        <time>2010-04-24T10:53:02Z</time>
      </trkpt>
      <trkpt lat="44.84166" lon="4.81576">
        <ele>127</ele>
        <time>2010-04-24T10:53:08Z</time>
      </trkpt>
      <trkpt lat="44.84157" lon="4.81567">
        <ele>128</ele>
        <time>2010-04-24T10:53:12Z</time>
      </trkpt>
      <trkpt lat="44.84148" lon="4.81549">
        <ele>128</ele>
        <time>2010-04-24T10:53:17Z</time>
      </trkpt>
      <trkpt lat="44.84134" lon="4.81533">
        <ele>128</ele>
        <time>2010-04-24T10:53:22Z</time>
      </trkpt>
      <trkpt lat="44.84107" lon="4.81507">
        <ele>129</ele>
        <time>2010-04-24T10:53:30Z</time>
      </trkpt>
      <trkpt lat="44.84091" lon="4.8149">
        <ele>129</ele>
        <time>2010-04-24T10:53:36Z</time>
      </trkpt>
      <trkpt lat="44.84069" lon="4.81466">
        <ele>129</ele>
        <time>2010-04-24T10:53:44Z</time>
      </trkpt>
      <trkpt lat="44.84056" lon="4.81459">
        <ele>129</ele>
        <time>2010-04-24T10:53:48Z</time>
      </trkpt>
      <trkpt lat="44.84017" lon="4.81448">
        <ele>128</ele>
        <time>2010-04-24T10:53:56Z</time>
      </trkpt>
      <trkpt lat="44.83982" lon="4.81439">
        <ele>128</ele>
        <time>2010-04-24T10:54:04Z</time>
      </trkpt>
      <trkpt lat="44.83956" lon="4.81423">
        <ele>129</ele>
        <time>2010-04-24T10:54:11Z</time>
      </trkpt>
      <trkpt lat="44.83931" lon="4.81422">
        <ele>130</ele>
        <time>2010-04-24T10:54:18Z</time>
      </trkpt>
      <trkpt lat="44.83903" lon="4.81421">
        <ele>130</ele>
        <time>2010-04-24T10:54:26Z</time>
      </trkpt>
      <trkpt lat="44.8387" lon="4.81407">
        <ele>131</ele>
        <time>2010-04-24T10:54:35Z</time>
      </trkpt>
      <trkpt lat="44.83853" lon="4.81389">
        <ele>131</ele>
        <time>2010-04-24T10:54:41Z</time>
      </trkpt>
      <trkpt lat="44.83832" lon="4.81366">
        <ele>132</ele>
        <time>2010-04-24T10:54:48Z</time>
      </trkpt>
      <trkpt lat="44.83808" lon="4.81349">
        <ele>130</ele>
        <time>2010-04-24T10:54:54Z</time>
      </trkpt>
      <trkpt lat="44.83803" lon="4.81346">
        <ele>130</ele>
        <time>2010-04-24T10:54:55Z</time>
      </trkpt>
      <trkpt lat="44.83763" lon="4.81313">
        <ele>128</ele>
        <time>2010-04-24T10:55:03Z</time>
      </trkpt>
      <trkpt lat="44.8372" lon="4.81281">
        <ele>128</ele>
        <time>2010-04-24T10:55:11Z</time>
      </trkpt>
      <trkpt lat="44.83667" lon="4.81257">
        <ele>127</ele>
        <time>2010-04-24T10:55:21Z</time>
      </trkpt>
      <trkpt lat="44.83614" lon="4.81236">
        <ele>127</ele>
        <time>2010-04-24T10:55:31Z</time>
      </trkpt>
      <trkpt lat="44.8358" lon="4.81214">
        <ele>127</ele>
        <time>2010-04-24T10:55:38Z</time>
      </trkpt>
      <trkpt lat="44.83549" lon="4.81184">
        <ele>128</ele>
        <time>2010-04-24T10:55:45Z</time>
      </trkpt>
      <trkpt lat="44.83516" lon="4.81138">
        <ele>127</ele>
        <time>2010-04-24T10:55:54Z</time>
      </trkpt>
      <trkpt lat="44.83512" lon="4.81134">
        <ele>127</ele>
        <time>2010-04-24T10:55:55Z</time>
      </trkpt>
      <trkpt lat="44.835" lon="4.81129">
        <ele>126</ele>
        <time>2010-04-24T10:55:59Z</time>
      </trkpt>
      <trkpt lat="44.83496" lon="4.81136">
        <ele>127</ele>
        <time>2010-04-24T10:56:01Z</time>
      </trkpt>
      <trkpt lat="44.83479" lon="4.81172">
        <ele>126</ele>
        <time>2010-04-24T10:56:08Z</time>
      </trkpt>
      <trkpt lat="44.8346" lon="4.81214">
        <ele>123</ele>
        <time>2010-04-24T10:56:15Z</time>
      </trkpt>
      <trkpt lat="44.83454" lon="4.81224">
        <ele>123</ele>
        <time>2010-04-24T10:56:19Z</time>
      </trkpt>
      <trkpt lat="44.83452" lon="4.81229">
        <ele>122</ele>
        <time>2010-04-24T10:56:21Z</time>
      </trkpt>
      <trkpt lat="44.8344" lon="4.81225">
        <ele>122</ele>
        <time>2010-04-24T10:56:25Z</time>
      </trkpt>
      <trkpt lat="44.8341" lon="4.81197">
        <ele>120</ele>
        <time>2010-04-24T10:56:31Z</time>
      </trkpt>
      <trkpt lat="44.83374" lon="4.81154">
        <ele>119</ele>
        <time>2010-04-24T10:56:38Z</time>
      </trkpt>
      <trkpt lat="44.83347" lon="4.81114">
        <ele>119</ele>
        <time>2010-04-24T10:56:44Z</time>
      </trkpt>
      <trkpt lat="44.83309" lon="4.81056">
        <ele>117</ele>
        <time>2010-04-24T10:56:52Z</time>
      </trkpt>
      <trkpt lat="44.83275" lon="4.81001">
        <ele>116</ele>
        <time>2010-04-24T10:56:59Z</time>
      </trkpt>
      <trkpt lat="44.83238" lon="4.80941">
        <ele>115</ele>
        <time>2010-04-24T10:57:07Z</time>
      </trkpt>
      <trkpt lat="44.83206" lon="4.80881">
        <ele>114</ele>
        <time>2010-04-24T10:57:15Z</time>
      </trkpt>
      <trkpt lat="44.83176" lon="4.80822">
        <ele>114</ele>
        <time>2010-04-24T10:57:23Z</time>
      </trkpt>
      <trkpt lat="44.83144" lon="4.80772">
        <ele>114</ele>
        <time>2010-04-24T10:57:31Z</time>
      </trkpt>
      <trkpt lat="44.83111" lon="4.8074">
        <ele>114</ele>
        <time>2010-04-24T10:57:38Z</time>
      </trkpt>
      <trkpt lat="44.83075" lon="4.8071">
        <ele>114</ele>
        <time>2010-04-24T10:57:45Z</time>
      </trkpt>
      <trkpt lat="44.83024" lon="4.80668">
        <ele>114</ele>
        <time>2010-04-24T10:57:55Z</time>
      </trkpt>
      <trkpt lat="44.82992" lon="4.80642">
        <ele>114</ele>
        <time>2010-04-24T10:58:01Z</time>
      </trkpt>
      <trkpt lat="44.82944" lon="4.80602">
        <ele>114</ele>
        <time>2010-04-24T10:58:10Z</time>
      </trkpt>
      <trkpt lat="44.82887" lon="4.80562">
        <ele>114</ele>
        <time>2010-04-24T10:58:20Z</time>
      </trkpt>
      <trkpt lat="44.82842" lon="4.80528">
        <ele>114</ele>
        <time>2010-04-24T10:58:28Z</time>
      </trkpt>
      <trkpt lat="44.828" lon="4.80492">
        <ele>115</ele>
        <time>2010-04-24T10:58:36Z</time>
      </trkpt>
      <trkpt lat="44.82761" lon="4.80459">
        <ele>115</ele>
        <time>2010-04-24T10:58:43Z</time>
      </trkpt>
      <trkpt lat="44.82748" lon="4.80445">
        <ele>115</ele>
        <time>2010-04-24T10:58:46Z</time>
      </trkpt>
      <trkpt lat="44.82709" lon="4.80399">
        <ele>115</ele>
        <time>2010-04-24T10:58:54Z</time>
      </trkpt>
      <trkpt lat="44.82679" lon="4.8036">
        <ele>115</ele>
        <time>2010-04-24T10:59:00Z</time>
      </trkpt>
      <trkpt lat="44.82651" lon="4.80321">
        <ele>115</ele>
        <time>2010-04-24T10:59:06Z</time>
      </trkpt>
      <trkpt lat="44.82621" lon="4.80263">
        <ele>115</ele>
        <time>2010-04-24T10:59:14Z</time>
      </trkpt>
      <trkpt lat="44.82619" lon="4.80227">
        <ele>115</ele>
        <time>2010-04-24T10:59:18Z</time>
      </trkpt>
      <trkpt lat="44.82628" lon="4.80157">
        <ele>116</ele>
        <time>2010-04-24T10:59:26Z</time>
      </trkpt>
      <trkpt lat="44.82631" lon="4.80106">
        <ele>117</ele>
        <time>2010-04-24T10:59:32Z</time>
      </trkpt>
      <trkpt lat="44.82629" lon="4.8004">
        <ele>117</ele>
        <time>2010-04-24T10:59:40Z</time>
      </trkpt>
      <trkpt lat="44.82627" lon="4.79981">
        <ele>119</ele>
        <time>2010-04-24T10:59:48Z</time>
      </trkpt>
      <trkpt lat="44.82626" lon="4.7992">
        <ele>119</ele>
        <time>2010-04-24T10:59:56Z</time>
      </trkpt>
      <trkpt lat="44.8263" lon="4.79865">
        <ele>119</ele>
        <time>2010-04-24T11:00:03Z</time>
      </trkpt>
      <trkpt lat="44.82631" lon="4.79798">
        <ele>119</ele>
        <time>2010-04-24T11:00:12Z</time>
      </trkpt>
      <trkpt lat="44.82631" lon="4.79784">
        <ele>119</ele>
        <time>2010-04-24T11:00:14Z</time>
      </trkpt>
      <trkpt lat="44.82638" lon="4.79752">
        <ele>121</ele>
        <time>2010-04-24T11:00:20Z</time>
      </trkpt>
      <trkpt lat="44.82648" lon="4.79725">
        <ele>123</ele>
        <time>2010-04-24T11:00:26Z</time>
      </trkpt>
      <trkpt lat="44.82655" lon="4.79706">
        <ele>125</ele>
        <time>2010-04-24T11:00:31Z</time>
      </trkpt>
      <trkpt lat="44.82664" lon="4.79682">
        <ele>126</ele>
        <time>2010-04-24T11:00:37Z</time>
      </trkpt>
      <trkpt lat="44.82673" lon="4.7966">
        <ele>126</ele>
        <time>2010-04-24T11:00:42Z</time>
      </trkpt>
      <trkpt lat="44.82667" lon="4.79647">
        <ele>126</ele>
        <time>2010-04-24T11:00:46Z</time>
      </trkpt>
      <trkpt lat="44.8266" lon="4.79638">
        <ele>125</ele>
        <time>2010-04-24T11:00:48Z</time>
      </trkpt>
      <trkpt lat="44.8264" lon="4.79621">
        <ele>122</ele>
        <time>2010-04-24T11:00:52Z</time>
      </trkpt>
      <trkpt lat="44.82627" lon="4.79612">
        <ele>121</ele>
        <time>2010-04-24T11:00:54Z</time>
      </trkpt>
      <trkpt lat="44.82613" lon="4.79603">
        <ele>120</ele>
        <time>2010-04-24T11:00:56Z</time>
      </trkpt>
      <trkpt lat="44.82599" lon="4.79575">
        <ele>117</ele>
        <time>2010-04-24T11:01:00Z</time>
      </trkpt>
      <trkpt lat="44.82605" lon="4.79558">
        <ele>118</ele>
        <time>2010-04-24T11:01:03Z</time>
      </trkpt>
    </trkseg>
  </trk>
</gpx>